<?xml version="1.0" encoding="UTF-8"?>
<gpx xmlns="http://www.topografix.com/GPX/1/1" xmlns:xsi="http://www.w3.org/2001/XMLSchema-instance" version="1.1" xsi:schemaLocation="http://www.topografix.com/GPX/1/1 http://www.topografix.com/GPX/1/1/gpx.xsd">
  <metadata>
    <name>Donner Lake Triathlon 2022 - Half Aquabike</name>
  </metadata>
  <trk>
    <name>Donner Lake Triathlon 2022 - Half Aquabike</name>
    <trkseg>
      <trkpt lat="39.323048" lon="-120.291037">
        <ele>1815.563333</ele>
        <time>2024-07-28T07:38:00.000Z</time>
      </trkpt>
      <trkpt lat="39.322651" lon="-120.292448">
        <ele>1816.901298</ele>
        <time>2024-07-28T07:38:13.000Z</time>
      </trkpt>
      <trkpt lat="39.322486" lon="-120.292861">
        <ele>1818.711102</ele>
        <time>2024-07-28T07:38:17.000Z</time>
      </trkpt>
      <trkpt lat="39.322259" lon="-120.293269">
        <ele>1820.641453</ele>
        <time>2024-07-28T07:38:21.000Z</time>
      </trkpt>
      <trkpt lat="39.321781" lon="-120.294041">
        <ele>1824.408875</ele>
        <time>2024-07-28T07:38:30.000Z</time>
      </trkpt>
      <trkpt lat="39.321663" lon="-120.29439">
        <ele>1826.417538</ele>
        <time>2024-07-28T07:38:33.000Z</time>
      </trkpt>
      <trkpt lat="39.321639" lon="-120.294715">
        <ele>1828.118142</ele>
        <time>2024-07-28T07:38:36.000Z</time>
      </trkpt>
      <trkpt lat="39.321646" lon="-120.294922">
        <ele>1829.246448</ele>
        <time>2024-07-28T07:38:38.000Z</time>
      </trkpt>
      <trkpt lat="39.321688" lon="-120.295172">
        <ele>1830.683643</ele>
        <time>2024-07-28T07:38:40.000Z</time>
      </trkpt>
      <trkpt lat="39.322191" lon="-120.296616">
        <ele>1839.369861</ele>
        <time>2024-07-28T07:38:54.000Z</time>
      </trkpt>
      <trkpt lat="39.322371" lon="-120.296955">
        <ele>1841.733005</ele>
        <time>2024-07-28T07:38:58.000Z</time>
      </trkpt>
      <trkpt lat="39.32283" lon="-120.297769">
        <ele>1847.655394</ele>
        <time>2024-07-28T07:39:07.000Z</time>
      </trkpt>
      <trkpt lat="39.323439" lon="-120.299054">
        <ele>1855.712101</ele>
        <time>2024-07-28T07:39:20.000Z</time>
      </trkpt>
      <trkpt lat="39.323649" lon="-120.299355">
        <ele>1857.781183</ele>
        <time>2024-07-28T07:39:23.000Z</time>
      </trkpt>
      <trkpt lat="39.323866" lon="-120.299608">
        <ele>1859.711519</ele>
        <time>2024-07-28T07:39:26.000Z</time>
      </trkpt>
      <trkpt lat="39.324096" lon="-120.299873">
        <ele>1861.688122</ele>
        <time>2024-07-28T07:39:29.000Z</time>
      </trkpt>
      <trkpt lat="39.324334" lon="-120.30015">
        <ele>1863.409289</ele>
        <time>2024-07-28T07:39:33.000Z</time>
      </trkpt>
      <trkpt lat="39.324596" lon="-120.300586">
        <ele>1865.422467</ele>
        <time>2024-07-28T07:39:38.000Z</time>
      </trkpt>
      <trkpt lat="39.325672" lon="-120.303014">
        <ele>1875.93725</ele>
        <time>2024-07-28T07:40:02.000Z</time>
      </trkpt>
      <trkpt lat="39.325934" lon="-120.303352">
        <ele>1877.863452</ele>
        <time>2024-07-28T07:40:06.000Z</time>
      </trkpt>
      <trkpt lat="39.326413" lon="-120.303908">
        <ele>1881.635809</ele>
        <time>2024-07-28T07:40:13.000Z</time>
      </trkpt>
      <trkpt lat="39.326554" lon="-120.304141">
        <ele>1883.297245</ele>
        <time>2024-07-28T07:40:16.000Z</time>
      </trkpt>
      <trkpt lat="39.326663" lon="-120.304403">
        <ele>1884.983292</ele>
        <time>2024-07-28T07:40:19.000Z</time>
      </trkpt>
      <trkpt lat="39.326732" lon="-120.304631">
        <ele>1886.262025</ele>
        <time>2024-07-28T07:40:21.000Z</time>
      </trkpt>
      <trkpt lat="39.327025" lon="-120.305985">
        <ele>1894.173804</ele>
        <time>2024-07-28T07:40:33.000Z</time>
      </trkpt>
      <trkpt lat="39.327198" lon="-120.307562">
        <ele>1903.481288</ele>
        <time>2024-07-28T07:40:47.000Z</time>
      </trkpt>
      <trkpt lat="39.327189" lon="-120.30788">
        <ele>1905.277903</ele>
        <time>2024-07-28T07:40:50.000Z</time>
      </trkpt>
      <trkpt lat="39.327135" lon="-120.308054">
        <ele>1906.351518</ele>
        <time>2024-07-28T07:40:52.000Z</time>
      </trkpt>
      <trkpt lat="39.327001" lon="-120.30822">
        <ele>1907.584225</ele>
        <time>2024-07-28T07:40:54.000Z</time>
      </trkpt>
      <trkpt lat="39.32681" lon="-120.308323">
        <ele>1908.92316</ele>
        <time>2024-07-28T07:40:56.000Z</time>
      </trkpt>
      <trkpt lat="39.326529" lon="-120.308361">
        <ele>1910.722611</ele>
        <time>2024-07-28T07:40:59.000Z</time>
      </trkpt>
      <trkpt lat="39.325944" lon="-120.308373">
        <ele>1914.631852</ele>
        <time>2024-07-28T07:41:06.000Z</time>
      </trkpt>
      <trkpt lat="39.325789" lon="-120.308433">
        <ele>1915.669814</ele>
        <time>2024-07-28T07:41:08.000Z</time>
      </trkpt>
      <trkpt lat="39.325652" lon="-120.308548">
        <ele>1916.701812</ele>
        <time>2024-07-28T07:41:10.000Z</time>
      </trkpt>
      <trkpt lat="39.325566" lon="-120.308718">
        <ele>1917.798934</ele>
        <time>2024-07-28T07:41:12.000Z</time>
      </trkpt>
      <trkpt lat="39.325521" lon="-120.308935">
        <ele>1919.041151</ele>
        <time>2024-07-28T07:41:14.000Z</time>
      </trkpt>
      <trkpt lat="39.325539" lon="-120.309544">
        <ele>1923.017548</ele>
        <time>2024-07-28T07:41:19.000Z</time>
      </trkpt>
      <trkpt lat="39.325495" lon="-120.310087">
        <ele>1926.542915</ele>
        <time>2024-07-28T07:41:24.000Z</time>
      </trkpt>
      <trkpt lat="39.325441" lon="-120.310443">
        <ele>1928.888749</ele>
        <time>2024-07-28T07:41:27.000Z</time>
      </trkpt>
      <trkpt lat="39.325448" lon="-120.31065">
        <ele>1930.28849</ele>
        <time>2024-07-28T07:41:29.000Z</time>
      </trkpt>
      <trkpt lat="39.325604" lon="-120.311495">
        <ele>1935.515224</ele>
        <time>2024-07-28T07:41:36.000Z</time>
      </trkpt>
      <trkpt lat="39.325624" lon="-120.311831">
        <ele>1937.384279</ele>
        <time>2024-07-28T07:41:39.000Z</time>
      </trkpt>
      <trkpt lat="39.325566" lon="-120.312103">
        <ele>1938.927532</ele>
        <time>2024-07-28T07:41:41.000Z</time>
      </trkpt>
      <trkpt lat="39.325497" lon="-120.312249">
        <ele>1939.902562</ele>
        <time>2024-07-28T07:41:42.000Z</time>
      </trkpt>
      <trkpt lat="39.325403" lon="-120.312385">
        <ele>1940.921254</ele>
        <time>2024-07-28T07:41:44.000Z</time>
      </trkpt>
      <trkpt lat="39.325172" lon="-120.312605">
        <ele>1942.94408</ele>
        <time>2024-07-28T07:41:47.000Z</time>
      </trkpt>
      <trkpt lat="39.325" lon="-120.312695">
        <ele>1944.364802</ele>
        <time>2024-07-28T07:41:49.000Z</time>
      </trkpt>
      <trkpt lat="39.324699" lon="-120.312787">
        <ele>1946.549021</ele>
        <time>2024-07-28T07:41:52.000Z</time>
      </trkpt>
      <trkpt lat="39.324318" lon="-120.31284">
        <ele>1948.750921</ele>
        <time>2024-07-28T07:41:56.000Z</time>
      </trkpt>
      <trkpt lat="39.323933" lon="-120.31279">
        <ele>1950.884279</ele>
        <time>2024-07-28T07:42:00.000Z</time>
      </trkpt>
      <trkpt lat="39.323684" lon="-120.312808">
        <ele>1952.361102</ele>
        <time>2024-07-28T07:42:03.000Z</time>
      </trkpt>
      <trkpt lat="39.323452" lon="-120.31285">
        <ele>1953.689747</ele>
        <time>2024-07-28T07:42:06.000Z</time>
      </trkpt>
      <trkpt lat="39.323239" lon="-120.312979">
        <ele>1955.000461</ele>
        <time>2024-07-28T07:42:09.000Z</time>
      </trkpt>
      <trkpt lat="39.32309" lon="-120.31309">
        <ele>1955.955806</ele>
        <time>2024-07-28T07:42:11.000Z</time>
      </trkpt>
      <trkpt lat="39.322928" lon="-120.313336">
        <ele>1958.400136</ele>
        <time>2024-07-28T07:42:14.000Z</time>
      </trkpt>
      <trkpt lat="39.322843" lon="-120.313501">
        <ele>1960.368899</ele>
        <time>2024-07-28T07:42:16.000Z</time>
      </trkpt>
      <trkpt lat="39.322698" lon="-120.313997">
        <ele>1965.68837</ele>
        <time>2024-07-28T07:42:21.000Z</time>
      </trkpt>
      <trkpt lat="39.322612" lon="-120.314145">
        <ele>1967.51041</ele>
        <time>2024-07-28T07:42:23.000Z</time>
      </trkpt>
      <trkpt lat="39.322434" lon="-120.314298">
        <ele>1970.075234</ele>
        <time>2024-07-28T07:42:25.000Z</time>
      </trkpt>
      <trkpt lat="39.322251" lon="-120.314328">
        <ele>1972.528942</ele>
        <time>2024-07-28T07:42:27.000Z</time>
      </trkpt>
      <trkpt lat="39.321841" lon="-120.314385">
        <ele>1977.820368</ele>
        <time>2024-07-28T07:42:32.000Z</time>
      </trkpt>
      <trkpt lat="39.321557" lon="-120.314527">
        <ele>1981.659713</ele>
        <time>2024-07-28T07:42:35.000Z</time>
      </trkpt>
      <trkpt lat="39.321394" lon="-120.314566">
        <ele>1983.638366</ele>
        <time>2024-07-28T07:42:37.000Z</time>
      </trkpt>
      <trkpt lat="39.321216" lon="-120.314534">
        <ele>1985.648325</ele>
        <time>2024-07-28T07:42:39.000Z</time>
      </trkpt>
      <trkpt lat="39.321051" lon="-120.314445">
        <ele>1987.940493</ele>
        <time>2024-07-28T07:42:41.000Z</time>
      </trkpt>
      <trkpt lat="39.320069" lon="-120.313529">
        <ele>2001.791653</ele>
        <time>2024-07-28T07:42:55.000Z</time>
      </trkpt>
      <trkpt lat="39.319768" lon="-120.312994">
        <ele>2004.66883</ele>
        <time>2024-07-28T07:43:01.000Z</time>
      </trkpt>
      <trkpt lat="39.319595" lon="-120.312841">
        <ele>2005.838147</ele>
        <time>2024-07-28T07:43:03.000Z</time>
      </trkpt>
      <trkpt lat="39.319339" lon="-120.31276">
        <ele>2007.312286</ele>
        <time>2024-07-28T07:43:06.000Z</time>
      </trkpt>
      <trkpt lat="39.319201" lon="-120.312762">
        <ele>2008.148197</ele>
        <time>2024-07-28T07:43:08.000Z</time>
      </trkpt>
      <trkpt lat="39.31907" lon="-120.312817">
        <ele>2008.884967</ele>
        <time>2024-07-28T07:43:10.000Z</time>
      </trkpt>
      <trkpt lat="39.318872" lon="-120.31306">
        <ele>2010.375836</ele>
        <time>2024-07-28T07:43:13.000Z</time>
      </trkpt>
      <trkpt lat="39.318614" lon="-120.313594">
        <ele>2013.519271</ele>
        <time>2024-07-28T07:43:18.000Z</time>
      </trkpt>
      <trkpt lat="39.318494" lon="-120.314003">
        <ele>2015.865976</ele>
        <time>2024-07-28T07:43:22.000Z</time>
      </trkpt>
      <trkpt lat="39.318188" lon="-120.314456">
        <ele>2019.091851</ele>
        <time>2024-07-28T07:43:27.000Z</time>
      </trkpt>
      <trkpt lat="39.318117" lon="-120.314635">
        <ele>2020.14761</ele>
        <time>2024-07-28T07:43:29.000Z</time>
      </trkpt>
      <trkpt lat="39.318106" lon="-120.314802">
        <ele>2021.059316</ele>
        <time>2024-07-28T07:43:30.000Z</time>
      </trkpt>
      <trkpt lat="39.318108" lon="-120.31498">
        <ele>2022.025226</ele>
        <time>2024-07-28T07:43:32.000Z</time>
      </trkpt>
      <trkpt lat="39.318141" lon="-120.315191">
        <ele>2023.200115</ele>
        <time>2024-07-28T07:43:34.000Z</time>
      </trkpt>
      <trkpt lat="39.318396" lon="-120.315718">
        <ele>2027.335224</ele>
        <time>2024-07-28T07:43:39.000Z</time>
      </trkpt>
      <trkpt lat="39.318533" lon="-120.315945">
        <ele>2029.244423</ele>
        <time>2024-07-28T07:43:41.000Z</time>
      </trkpt>
      <trkpt lat="39.318664" lon="-120.316053">
        <ele>2030.726657</ele>
        <time>2024-07-28T07:43:43.000Z</time>
      </trkpt>
      <trkpt lat="39.318889" lon="-120.316135">
        <ele>2032.821286</ele>
        <time>2024-07-28T07:43:46.000Z</time>
      </trkpt>
      <trkpt lat="39.319347" lon="-120.31624">
        <ele>2036.929811</ele>
        <time>2024-07-28T07:43:51.000Z</time>
      </trkpt>
      <trkpt lat="39.319461" lon="-120.31629">
        <ele>2038.056974</ele>
        <time>2024-07-28T07:43:52.000Z</time>
      </trkpt>
      <trkpt lat="39.319576" lon="-120.316413">
        <ele>2039.318609</ele>
        <time>2024-07-28T07:43:54.000Z</time>
      </trkpt>
      <trkpt lat="39.319667" lon="-120.316574">
        <ele>2040.428505</ele>
        <time>2024-07-28T07:43:56.000Z</time>
      </trkpt>
      <trkpt lat="39.319701" lon="-120.316788">
        <ele>2041.358388</ele>
        <time>2024-07-28T07:43:58.000Z</time>
      </trkpt>
      <trkpt lat="39.319695" lon="-120.317121">
        <ele>2042.927367</ele>
        <time>2024-07-28T07:44:01.000Z</time>
      </trkpt>
      <trkpt lat="39.319634" lon="-120.317308">
        <ele>2043.844833</ele>
        <time>2024-07-28T07:44:03.000Z</time>
      </trkpt>
      <trkpt lat="39.31953" lon="-120.317448">
        <ele>2044.757949</ele>
        <time>2024-07-28T07:44:05.000Z</time>
      </trkpt>
      <trkpt lat="39.319388" lon="-120.317541">
        <ele>2045.68042</ele>
        <time>2024-07-28T07:44:07.000Z</time>
      </trkpt>
      <trkpt lat="39.319239" lon="-120.317563">
        <ele>2046.56685</ele>
        <time>2024-07-28T07:44:09.000Z</time>
      </trkpt>
      <trkpt lat="39.318626" lon="-120.317421">
        <ele>2050.169388</ele>
        <time>2024-07-28T07:44:16.000Z</time>
      </trkpt>
      <trkpt lat="39.318481" lon="-120.317435">
        <ele>2051.206889</ele>
        <time>2024-07-28T07:44:18.000Z</time>
      </trkpt>
      <trkpt lat="39.317703" lon="-120.317608">
        <ele>2057.291714</ele>
        <time>2024-07-28T07:44:27.000Z</time>
      </trkpt>
      <trkpt lat="39.317416" lon="-120.31771">
        <ele>2059.581888</ele>
        <time>2024-07-28T07:44:30.000Z</time>
      </trkpt>
      <trkpt lat="39.317189" lon="-120.317945">
        <ele>2061.734087</ele>
        <time>2024-07-28T07:44:33.000Z</time>
      </trkpt>
      <trkpt lat="39.317139" lon="-120.318066">
        <ele>2062.583628</ele>
        <time>2024-07-28T07:44:34.000Z</time>
      </trkpt>
      <trkpt lat="39.317081" lon="-120.318299">
        <ele>2064.037447</ele>
        <time>2024-07-28T07:44:36.000Z</time>
      </trkpt>
      <trkpt lat="39.317101" lon="-120.318939">
        <ele>2069.148361</ele>
        <time>2024-07-28T07:44:42.000Z</time>
      </trkpt>
      <trkpt lat="39.317107" lon="-120.319151">
        <ele>2070.816101</ele>
        <time>2024-07-28T07:44:44.000Z</time>
      </trkpt>
      <trkpt lat="39.317091" lon="-120.319286">
        <ele>2071.90921</ele>
        <time>2024-07-28T07:44:45.000Z</time>
      </trkpt>
      <trkpt lat="39.317101" lon="-120.319412">
        <ele>2072.855978</ele>
        <time>2024-07-28T07:44:46.000Z</time>
      </trkpt>
      <trkpt lat="39.317142" lon="-120.319537">
        <ele>2074.047804</ele>
        <time>2024-07-28T07:44:47.000Z</time>
      </trkpt>
      <trkpt lat="39.317164" lon="-120.319625">
        <ele>2074.681528</ele>
        <time>2024-07-28T07:44:48.000Z</time>
      </trkpt>
      <trkpt lat="39.317504" lon="-120.320288">
        <ele>2081.025158</ele>
        <time>2024-07-28T07:44:55.000Z</time>
      </trkpt>
      <trkpt lat="39.31763" lon="-120.320453">
        <ele>2082.795885</ele>
        <time>2024-07-28T07:44:57.000Z</time>
      </trkpt>
      <trkpt lat="39.317818" lon="-120.320603">
        <ele>2084.082562</ele>
        <time>2024-07-28T07:44:59.000Z</time>
      </trkpt>
      <trkpt lat="39.317962" lon="-120.320632">
        <ele>2084.953928</ele>
        <time>2024-07-28T07:45:01.000Z</time>
      </trkpt>
      <trkpt lat="39.318102" lon="-120.320609">
        <ele>2085.737917</ele>
        <time>2024-07-28T07:45:03.000Z</time>
      </trkpt>
      <trkpt lat="39.31829" lon="-120.320484">
        <ele>2086.978299</ele>
        <time>2024-07-28T07:45:05.000Z</time>
      </trkpt>
      <trkpt lat="39.318447" lon="-120.320203">
        <ele>2088.58303</ele>
        <time>2024-07-28T07:45:08.000Z</time>
      </trkpt>
      <trkpt lat="39.31884" lon="-120.319147">
        <ele>2093.716141</ele>
        <time>2024-07-28T07:45:18.000Z</time>
      </trkpt>
      <trkpt lat="39.318888" lon="-120.319044">
        <ele>2094.099342</ele>
        <time>2024-07-28T07:45:19.000Z</time>
      </trkpt>
      <trkpt lat="39.318916" lon="-120.318984">
        <ele>2094.343275</ele>
        <time>2024-07-28T07:45:20.000Z</time>
      </trkpt>
      <trkpt lat="39.318927" lon="-120.318951">
        <ele>2094.489605</ele>
        <time>2024-07-28T07:45:20.000Z</time>
      </trkpt>
      <trkpt lat="39.318956" lon="-120.318916">
        <ele>2094.713159</ele>
        <time>2024-07-28T07:45:20.000Z</time>
      </trkpt>
      <trkpt lat="39.319075" lon="-120.318777">
        <ele>2095.387092</ele>
        <time>2024-07-28T07:45:22.000Z</time>
      </trkpt>
      <trkpt lat="39.319151" lon="-120.318732">
        <ele>2095.76738</ele>
        <time>2024-07-28T07:45:23.000Z</time>
      </trkpt>
      <trkpt lat="39.319342" lon="-120.318742">
        <ele>2096.568472</ele>
        <time>2024-07-28T07:45:25.000Z</time>
      </trkpt>
      <trkpt lat="39.319553" lon="-120.318903">
        <ele>2097.687573</ele>
        <time>2024-07-28T07:45:28.000Z</time>
      </trkpt>
      <trkpt lat="39.319652" lon="-120.319038">
        <ele>2098.298912</ele>
        <time>2024-07-28T07:45:30.000Z</time>
      </trkpt>
      <trkpt lat="39.319764" lon="-120.319272">
        <ele>2099.294783</ele>
        <time>2024-07-28T07:45:32.000Z</time>
      </trkpt>
      <trkpt lat="39.319782" lon="-120.319394">
        <ele>2099.727449</ele>
        <time>2024-07-28T07:45:33.000Z</time>
      </trkpt>
      <trkpt lat="39.319792" lon="-120.319488">
        <ele>2100.065257</ele>
        <time>2024-07-28T07:45:34.000Z</time>
      </trkpt>
      <trkpt lat="39.31975" lon="-120.319671">
        <ele>2100.73614</ele>
        <time>2024-07-28T07:45:36.000Z</time>
      </trkpt>
      <trkpt lat="39.319681" lon="-120.31996">
        <ele>2101.99394</ele>
        <time>2024-07-28T07:45:39.000Z</time>
      </trkpt>
      <trkpt lat="39.31959" lon="-120.320545">
        <ele>2104.939644</ele>
        <time>2024-07-28T07:45:44.000Z</time>
      </trkpt>
      <trkpt lat="39.319525" lon="-120.320766">
        <ele>2106.099294</ele>
        <time>2024-07-28T07:45:46.000Z</time>
      </trkpt>
      <trkpt lat="39.319442" lon="-120.321006">
        <ele>2107.371384</ele>
        <time>2024-07-28T07:45:48.000Z</time>
      </trkpt>
      <trkpt lat="39.319328" lon="-120.321352">
        <ele>2109.206469</ele>
        <time>2024-07-28T07:45:51.000Z</time>
      </trkpt>
      <trkpt lat="39.319303" lon="-120.321442">
        <ele>2109.688028</ele>
        <time>2024-07-28T07:45:52.000Z</time>
      </trkpt>
      <trkpt lat="39.319199" lon="-120.321656">
        <ele>2110.98526</ele>
        <time>2024-07-28T07:45:54.000Z</time>
      </trkpt>
      <trkpt lat="39.319087" lon="-120.321796">
        <ele>2111.935169</ele>
        <time>2024-07-28T07:45:56.000Z</time>
      </trkpt>
      <trkpt lat="39.318777" lon="-120.321987">
        <ele>2114.223774</ele>
        <time>2024-07-28T07:46:00.000Z</time>
      </trkpt>
      <trkpt lat="39.318579" lon="-120.322161">
        <ele>2115.788548</ele>
        <time>2024-07-28T07:46:03.000Z</time>
      </trkpt>
      <trkpt lat="39.318312" lon="-120.322477">
        <ele>2118.214515</ele>
        <time>2024-07-28T07:46:07.000Z</time>
      </trkpt>
      <trkpt lat="39.318207" lon="-120.322722">
        <ele>2119.615107</ele>
        <time>2024-07-28T07:46:09.000Z</time>
      </trkpt>
      <trkpt lat="39.318032" lon="-120.323524">
        <ele>2123.936397</ele>
        <time>2024-07-28T07:46:16.000Z</time>
      </trkpt>
      <trkpt lat="39.317921" lon="-120.323809">
        <ele>2126.452952</ele>
        <time>2024-07-28T07:46:19.000Z</time>
      </trkpt>
      <trkpt lat="39.317758" lon="-120.324061">
        <ele>2129.845856</ele>
        <time>2024-07-28T07:46:22.000Z</time>
      </trkpt>
      <trkpt lat="39.317366" lon="-120.324584">
        <ele>2137.383495</ele>
        <time>2024-07-28T07:46:28.000Z</time>
      </trkpt>
      <trkpt lat="39.317094" lon="-120.325191">
        <ele>2144.599567</ele>
        <time>2024-07-28T07:46:34.000Z</time>
      </trkpt>
      <trkpt lat="39.316846" lon="-120.325804">
        <ele>2150.173569</ele>
        <time>2024-07-28T07:46:40.000Z</time>
      </trkpt>
      <trkpt lat="39.316832" lon="-120.325866">
        <ele>2150.537281</ele>
        <time>2024-07-28T07:46:41.000Z</time>
      </trkpt>
      <trkpt lat="39.316768" lon="-120.326043">
        <ele>2151.532829</ele>
        <time>2024-07-28T07:46:43.000Z</time>
      </trkpt>
      <trkpt lat="39.316725" lon="-120.326243">
        <ele>2152.570183</ele>
        <time>2024-07-28T07:46:45.000Z</time>
      </trkpt>
      <trkpt lat="39.316697" lon="-120.326561">
        <ele>2154.257005</ele>
        <time>2024-07-28T07:46:48.000Z</time>
      </trkpt>
      <trkpt lat="39.316672" lon="-120.326856">
        <ele>2155.772199</ele>
        <time>2024-07-28T07:46:51.000Z</time>
      </trkpt>
      <trkpt lat="39.31671" lon="-120.327305">
        <ele>2158.036092</ele>
        <time>2024-07-28T07:46:55.000Z</time>
      </trkpt>
      <trkpt lat="39.316857" lon="-120.327757">
        <ele>2160.560728</ele>
        <time>2024-07-28T07:46:59.000Z</time>
      </trkpt>
      <trkpt lat="39.317117" lon="-120.328345">
        <ele>2157.842323</ele>
        <time>2024-07-28T07:47:05.000Z</time>
      </trkpt>
      <trkpt lat="39.317312" lon="-120.328792">
        <ele>2155.673157</ele>
        <time>2024-07-28T07:47:09.000Z</time>
      </trkpt>
      <trkpt lat="39.317433" lon="-120.329361">
        <ele>2153.117774</ele>
        <time>2024-07-28T07:47:14.000Z</time>
      </trkpt>
      <trkpt lat="39.317479" lon="-120.329729">
        <ele>2151.606763</ele>
        <time>2024-07-28T07:47:17.000Z</time>
      </trkpt>
      <trkpt lat="39.317509" lon="-120.330336">
        <ele>2149.369113</ele>
        <time>2024-07-28T07:47:22.000Z</time>
      </trkpt>
      <trkpt lat="39.317468" lon="-120.331011">
        <ele>2147.10457</ele>
        <time>2024-07-28T07:47:28.000Z</time>
      </trkpt>
      <trkpt lat="39.317164" lon="-120.332246">
        <ele>2142.998685</ele>
        <time>2024-07-28T07:47:39.000Z</time>
      </trkpt>
      <trkpt lat="39.316992" lon="-120.33273">
        <ele>2142.610625</ele>
        <time>2024-07-28T07:47:44.000Z</time>
      </trkpt>
      <trkpt lat="39.31674" lon="-120.333272">
        <ele>2142.146582</ele>
        <time>2024-07-28T07:47:49.000Z</time>
      </trkpt>
      <trkpt lat="39.316449" lon="-120.333707">
        <ele>2141.728602</ele>
        <time>2024-07-28T07:47:54.000Z</time>
      </trkpt>
      <trkpt lat="39.315777" lon="-120.334433">
        <ele>2141.217294</ele>
        <time>2024-07-28T07:48:04.000Z</time>
      </trkpt>
      <trkpt lat="39.315478" lon="-120.334813">
        <ele>2141.084207</ele>
        <time>2024-07-28T07:48:09.000Z</time>
      </trkpt>
      <trkpt lat="39.315227" lon="-120.335199">
        <ele>2140.961313</ele>
        <time>2024-07-28T07:48:13.000Z</time>
      </trkpt>
      <trkpt lat="39.314902" lon="-120.335743">
        <ele>2140.802292</ele>
        <time>2024-07-28T07:48:19.000Z</time>
      </trkpt>
      <trkpt lat="39.314437" lon="-120.336793">
        <ele>2141.021902</ele>
        <time>2024-07-28T07:48:29.000Z</time>
      </trkpt>
      <trkpt lat="39.314145" lon="-120.337372">
        <ele>2141.146663</ele>
        <time>2024-07-28T07:48:35.000Z</time>
      </trkpt>
      <trkpt lat="39.313977" lon="-120.337726">
        <ele>2141.223592</ele>
        <time>2024-07-28T07:48:39.000Z</time>
      </trkpt>
      <trkpt lat="39.31386" lon="-120.338238">
        <ele>2141.436224</ele>
        <time>2024-07-28T07:48:44.000Z</time>
      </trkpt>
      <trkpt lat="39.313797" lon="-120.338699">
        <ele>2141.6231</ele>
        <time>2024-07-28T07:48:48.000Z</time>
      </trkpt>
      <trkpt lat="39.313814" lon="-120.339434">
        <ele>2141.921223</ele>
        <time>2024-07-28T07:48:54.000Z</time>
      </trkpt>
      <trkpt lat="39.313808" lon="-120.339533">
        <ele>2141.963459</ele>
        <time>2024-07-28T07:48:55.000Z</time>
      </trkpt>
      <trkpt lat="39.313808" lon="-120.339609">
        <ele>2141.992427</ele>
        <time>2024-07-28T07:48:56.000Z</time>
      </trkpt>
      <trkpt lat="39.313828" lon="-120.339661">
        <ele>2142.016179</ele>
        <time>2024-07-28T07:48:56.000Z</time>
      </trkpt>
      <trkpt lat="39.313831" lon="-120.33982">
        <ele>2142.080621</ele>
        <time>2024-07-28T07:48:57.000Z</time>
      </trkpt>
      <trkpt lat="39.313839" lon="-120.340039">
        <ele>2142.113681</ele>
        <time>2024-07-28T07:48:59.000Z</time>
      </trkpt>
      <trkpt lat="39.313855" lon="-120.340236">
        <ele>2141.825946</ele>
        <time>2024-07-28T07:49:01.000Z</time>
      </trkpt>
      <trkpt lat="39.313872" lon="-120.340397">
        <ele>2141.589876</ele>
        <time>2024-07-28T07:49:02.000Z</time>
      </trkpt>
      <trkpt lat="39.313901" lon="-120.340625">
        <ele>2141.277008</ele>
        <time>2024-07-28T07:49:04.000Z</time>
      </trkpt>
      <trkpt lat="39.313938" lon="-120.34081">
        <ele>2140.998649</ele>
        <time>2024-07-28T07:49:06.000Z</time>
      </trkpt>
      <trkpt lat="39.313958" lon="-120.341038">
        <ele>2140.678909</ele>
        <time>2024-07-28T07:49:08.000Z</time>
      </trkpt>
      <trkpt lat="39.31411" lon="-120.34189">
        <ele>2139.455513</ele>
        <time>2024-07-28T07:49:16.000Z</time>
      </trkpt>
      <trkpt lat="39.314366" lon="-120.34281">
        <ele>2137.82099</ele>
        <time>2024-07-28T07:49:24.000Z</time>
      </trkpt>
      <trkpt lat="39.31602" lon="-120.34848">
        <ele>2126.710439</ele>
        <time>2024-07-28T07:50:16.000Z</time>
      </trkpt>
      <trkpt lat="39.316421" lon="-120.349537">
        <ele>2124.380655</ele>
        <time>2024-07-28T07:50:26.000Z</time>
      </trkpt>
      <trkpt lat="39.316618" lon="-120.349978">
        <ele>2123.333058</ele>
        <time>2024-07-28T07:50:30.000Z</time>
      </trkpt>
      <trkpt lat="39.317194" lon="-120.3514">
        <ele>2119.891926</ele>
        <time>2024-07-28T07:50:44.000Z</time>
      </trkpt>
      <trkpt lat="39.31738" lon="-120.352111">
        <ele>2118.224151</ele>
        <time>2024-07-28T07:50:50.000Z</time>
      </trkpt>
      <trkpt lat="39.317445" lon="-120.352736">
        <ele>2116.800574</ele>
        <time>2024-07-28T07:50:55.000Z</time>
      </trkpt>
      <trkpt lat="39.317434" lon="-120.353176">
        <ele>2115.942281</ele>
        <time>2024-07-28T07:50:59.000Z</time>
      </trkpt>
      <trkpt lat="39.317394" lon="-120.353661">
        <ele>2115.313134</ele>
        <time>2024-07-28T07:51:03.000Z</time>
      </trkpt>
      <trkpt lat="39.317372" lon="-120.354113">
        <ele>2114.723548</ele>
        <time>2024-07-28T07:51:07.000Z</time>
      </trkpt>
      <trkpt lat="39.317382" lon="-120.354453">
        <ele>2114.298553</ele>
        <time>2024-07-28T07:51:10.000Z</time>
      </trkpt>
      <trkpt lat="39.317395" lon="-120.354727">
        <ele>2113.940722</ele>
        <time>2024-07-28T07:51:12.000Z</time>
      </trkpt>
      <trkpt lat="39.317465" lon="-120.355086">
        <ele>2113.474324</ele>
        <time>2024-07-28T07:51:15.000Z</time>
      </trkpt>
      <trkpt lat="39.317671" lon="-120.355703">
        <ele>2112.693197</ele>
        <time>2024-07-28T07:51:21.000Z</time>
      </trkpt>
      <trkpt lat="39.317784" lon="-120.355968">
        <ele>2112.374791</ele>
        <time>2024-07-28T07:51:24.000Z</time>
      </trkpt>
      <trkpt lat="39.318156" lon="-120.356564">
        <ele>2111.566423</ele>
        <time>2024-07-28T07:51:31.000Z</time>
      </trkpt>
      <trkpt lat="39.318441" lon="-120.357211">
        <ele>2110.786253</ele>
        <time>2024-07-28T07:51:37.000Z</time>
      </trkpt>
      <trkpt lat="39.320147" lon="-120.363226">
        <ele>2103.212555</ele>
        <time>2024-07-28T07:52:32.000Z</time>
      </trkpt>
      <trkpt lat="39.320354" lon="-120.363789">
        <ele>2102.520341</ele>
        <time>2024-07-28T07:52:37.000Z</time>
      </trkpt>
      <trkpt lat="39.320586" lon="-120.364249">
        <ele>2101.414134</ele>
        <time>2024-07-28T07:52:42.000Z</time>
      </trkpt>
      <trkpt lat="39.321144" lon="-120.364999">
        <ele>2099.14972</ele>
        <time>2024-07-28T07:52:51.000Z</time>
      </trkpt>
      <trkpt lat="39.321524" lon="-120.365586">
        <ele>2097.487232</ele>
        <time>2024-07-28T07:52:58.000Z</time>
      </trkpt>
      <trkpt lat="39.323033" lon="-120.368466">
        <ele>2083.118216</ele>
        <time>2024-07-28T07:53:28.000Z</time>
      </trkpt>
      <trkpt lat="39.323544" lon="-120.369463">
        <ele>2078.584742</ele>
        <time>2024-07-28T07:53:38.000Z</time>
      </trkpt>
      <trkpt lat="39.3237" lon="-120.369822">
        <ele>2077.761756</ele>
        <time>2024-07-28T07:53:42.000Z</time>
      </trkpt>
      <trkpt lat="39.323843" lon="-120.370305">
        <ele>2076.776617</ele>
        <time>2024-07-28T07:53:46.000Z</time>
      </trkpt>
      <trkpt lat="39.323961" lon="-120.370777">
        <ele>2075.860866</ele>
        <time>2024-07-28T07:53:50.000Z</time>
      </trkpt>
      <trkpt lat="39.32401" lon="-120.37114">
        <ele>2075.13412</ele>
        <time>2024-07-28T07:53:53.000Z</time>
      </trkpt>
      <trkpt lat="39.324046" lon="-120.371507">
        <ele>2074.452955</ele>
        <time>2024-07-28T07:53:56.000Z</time>
      </trkpt>
      <trkpt lat="39.324071" lon="-120.371879">
        <ele>2073.815011</ele>
        <time>2024-07-28T07:53:59.000Z</time>
      </trkpt>
      <trkpt lat="39.32405" lon="-120.372632">
        <ele>2072.644162</ele>
        <time>2024-07-28T07:54:05.000Z</time>
      </trkpt>
      <trkpt lat="39.323869" lon="-120.374943">
        <ele>2068.926881</ele>
        <time>2024-07-28T07:54:25.000Z</time>
      </trkpt>
      <trkpt lat="39.323511" lon="-120.379332">
        <ele>2060.803836</ele>
        <time>2024-07-28T07:55:03.000Z</time>
      </trkpt>
      <trkpt lat="39.323465" lon="-120.379894">
        <ele>2059.346665</ele>
        <time>2024-07-28T07:55:08.000Z</time>
      </trkpt>
      <trkpt lat="39.323448" lon="-120.380679">
        <ele>2057.362061</ele>
        <time>2024-07-28T07:55:15.000Z</time>
      </trkpt>
      <trkpt lat="39.323467" lon="-120.381044">
        <ele>2056.381994</ele>
        <time>2024-07-28T07:55:18.000Z</time>
      </trkpt>
      <trkpt lat="39.323531" lon="-120.381393">
        <ele>2055.252448</ele>
        <time>2024-07-28T07:55:21.000Z</time>
      </trkpt>
      <trkpt lat="39.323634" lon="-120.381791">
        <ele>2053.908739</ele>
        <time>2024-07-28T07:55:25.000Z</time>
      </trkpt>
      <trkpt lat="39.324255" lon="-120.383491">
        <ele>2048.152091</ele>
        <time>2024-07-28T07:55:41.000Z</time>
      </trkpt>
      <trkpt lat="39.324441" lon="-120.384004">
        <ele>2046.710192</ele>
        <time>2024-07-28T07:55:46.000Z</time>
      </trkpt>
      <trkpt lat="39.324505" lon="-120.384134">
        <ele>2046.361627</ele>
        <time>2024-07-28T07:55:47.000Z</time>
      </trkpt>
      <trkpt lat="39.3251" lon="-120.385783">
        <ele>2042.88378</ele>
        <time>2024-07-28T07:56:03.000Z</time>
      </trkpt>
      <trkpt lat="39.325186" lon="-120.386136">
        <ele>2042.53977</ele>
        <time>2024-07-28T07:56:06.000Z</time>
      </trkpt>
      <trkpt lat="39.325247" lon="-120.386506">
        <ele>2042.18794</ele>
        <time>2024-07-28T07:56:09.000Z</time>
      </trkpt>
      <trkpt lat="39.325276" lon="-120.38682">
        <ele>2041.891168</ele>
        <time>2024-07-28T07:56:12.000Z</time>
      </trkpt>
      <trkpt lat="39.325265" lon="-120.387507">
        <ele>2041.322712</ele>
        <time>2024-07-28T07:56:18.000Z</time>
      </trkpt>
      <trkpt lat="39.325121" lon="-120.38884">
        <ele>2040.96268</ele>
        <time>2024-07-28T07:56:30.000Z</time>
      </trkpt>
      <trkpt lat="39.325038" lon="-120.389449">
        <ele>2040.803841</ele>
        <time>2024-07-28T07:56:35.000Z</time>
      </trkpt>
      <trkpt lat="39.325007" lon="-120.389728">
        <ele>2040.72836</ele>
        <time>2024-07-28T07:56:37.000Z</time>
      </trkpt>
      <trkpt lat="39.324987" lon="-120.389974">
        <ele>2040.027626</ele>
        <time>2024-07-28T07:56:39.000Z</time>
      </trkpt>
      <trkpt lat="39.324893" lon="-120.390875">
        <ele>2037.471979</ele>
        <time>2024-07-28T07:56:47.000Z</time>
      </trkpt>
      <trkpt lat="39.324895" lon="-120.391151">
        <ele>2036.655724</ele>
        <time>2024-07-28T07:56:49.000Z</time>
      </trkpt>
      <trkpt lat="39.324962" lon="-120.391546">
        <ele>2035.528022</ele>
        <time>2024-07-28T07:56:52.000Z</time>
      </trkpt>
      <trkpt lat="39.325097" lon="-120.391944">
        <ele>2034.263247</ele>
        <time>2024-07-28T07:56:56.000Z</time>
      </trkpt>
      <trkpt lat="39.325513" lon="-120.393039">
        <ele>2028.465862</ele>
        <time>2024-07-28T07:57:07.000Z</time>
      </trkpt>
      <trkpt lat="39.325594" lon="-120.393232">
        <ele>2027.331155</ele>
        <time>2024-07-28T07:57:09.000Z</time>
      </trkpt>
      <trkpt lat="39.32576" lon="-120.393685">
        <ele>2024.874315</ele>
        <time>2024-07-28T07:57:13.000Z</time>
      </trkpt>
      <trkpt lat="39.325821" lon="-120.394211">
        <ele>2022.382922</ele>
        <time>2024-07-28T07:57:18.000Z</time>
      </trkpt>
      <trkpt lat="39.325783" lon="-120.394722">
        <ele>2020.418437</ele>
        <time>2024-07-28T07:57:22.000Z</time>
      </trkpt>
      <trkpt lat="39.325704" lon="-120.394962">
        <ele>2019.405513</ele>
        <time>2024-07-28T07:57:24.000Z</time>
      </trkpt>
      <trkpt lat="39.325628" lon="-120.395184">
        <ele>2018.452778</ele>
        <time>2024-07-28T07:57:26.000Z</time>
      </trkpt>
      <trkpt lat="39.325136" lon="-120.396115">
        <ele>2014.144359</ele>
        <time>2024-07-28T07:57:36.000Z</time>
      </trkpt>
      <trkpt lat="39.325045" lon="-120.396288">
        <ele>2013.359817</ele>
        <time>2024-07-28T07:57:38.000Z</time>
      </trkpt>
      <trkpt lat="39.324939" lon="-120.396552">
        <ele>2012.348832</ele>
        <time>2024-07-28T07:57:41.000Z</time>
      </trkpt>
      <trkpt lat="39.32488" lon="-120.396786">
        <ele>2011.471069</ele>
        <time>2024-07-28T07:57:43.000Z</time>
      </trkpt>
      <trkpt lat="39.324269" lon="-120.399683">
        <ele>2001.218916</ele>
        <time>2024-07-28T07:58:09.000Z</time>
      </trkpt>
      <trkpt lat="39.323938" lon="-120.401222">
        <ele>1995.969612</ele>
        <time>2024-07-28T07:58:23.000Z</time>
      </trkpt>
      <trkpt lat="39.323153" lon="-120.40399">
        <ele>1986.206405</ele>
        <time>2024-07-28T07:58:48.000Z</time>
      </trkpt>
      <trkpt lat="39.322992" lon="-120.404933">
        <ele>1982.873999</ele>
        <time>2024-07-28T07:58:56.000Z</time>
      </trkpt>
      <trkpt lat="39.32296" lon="-120.40545">
        <ele>1980.778053</ele>
        <time>2024-07-28T07:59:00.000Z</time>
      </trkpt>
      <trkpt lat="39.322966" lon="-120.405934">
        <ele>1978.674553</ele>
        <time>2024-07-28T07:59:04.000Z</time>
      </trkpt>
      <trkpt lat="39.323017" lon="-120.406555">
        <ele>1975.903222</ele>
        <time>2024-07-28T07:59:09.000Z</time>
      </trkpt>
      <trkpt lat="39.323108" lon="-120.407056">
        <ele>1973.720538</ele>
        <time>2024-07-28T07:59:13.000Z</time>
      </trkpt>
      <trkpt lat="39.32321" lon="-120.407492">
        <ele>1971.747255</ele>
        <time>2024-07-28T07:59:17.000Z</time>
      </trkpt>
      <trkpt lat="39.323542" lon="-120.408491">
        <ele>1967.178208</ele>
        <time>2024-07-28T07:59:26.000Z</time>
      </trkpt>
      <trkpt lat="39.324135" lon="-120.41007">
        <ele>1960.464334</ele>
        <time>2024-07-28T07:59:41.000Z</time>
      </trkpt>
      <trkpt lat="39.324293" lon="-120.410525">
        <ele>1958.752746</ele>
        <time>2024-07-28T07:59:45.000Z</time>
      </trkpt>
      <trkpt lat="39.324404" lon="-120.410948">
        <ele>1957.217189</ele>
        <time>2024-07-28T07:59:49.000Z</time>
      </trkpt>
      <trkpt lat="39.324539" lon="-120.411632">
        <ele>1954.866088</ele>
        <time>2024-07-28T07:59:55.000Z</time>
      </trkpt>
      <trkpt lat="39.325201" lon="-120.415904">
        <ele>1935.139341</ele>
        <time>2024-07-28T08:00:33.000Z</time>
      </trkpt>
      <trkpt lat="39.325264" lon="-120.416478">
        <ele>1932.498571</ele>
        <time>2024-07-28T08:00:38.000Z</time>
      </trkpt>
      <trkpt lat="39.325323" lon="-120.417075">
        <ele>1929.621339</ele>
        <time>2024-07-28T08:00:43.000Z</time>
      </trkpt>
      <trkpt lat="39.325351" lon="-120.41768">
        <ele>1926.870814</ele>
        <time>2024-07-28T08:00:48.000Z</time>
      </trkpt>
      <trkpt lat="39.325313" lon="-120.41872">
        <ele>1921.839205</ele>
        <time>2024-07-28T08:00:57.000Z</time>
      </trkpt>
      <trkpt lat="39.32524" lon="-120.419306">
        <ele>1918.785837</ele>
        <time>2024-07-28T08:01:02.000Z</time>
      </trkpt>
      <trkpt lat="39.32491" lon="-120.421318">
        <ele>1908.272265</ele>
        <time>2024-07-28T08:01:20.000Z</time>
      </trkpt>
      <trkpt lat="39.324597" lon="-120.422803">
        <ele>1900.882312</ele>
        <time>2024-07-28T08:01:33.000Z</time>
      </trkpt>
      <trkpt lat="39.324479" lon="-120.423263">
        <ele>1898.750463</ele>
        <time>2024-07-28T08:01:37.000Z</time>
      </trkpt>
      <trkpt lat="39.324308" lon="-120.423718">
        <ele>1896.617329</ele>
        <time>2024-07-28T08:01:41.000Z</time>
      </trkpt>
      <trkpt lat="39.324096" lon="-120.424211">
        <ele>1894.265376</ele>
        <time>2024-07-28T08:01:46.000Z</time>
      </trkpt>
      <trkpt lat="39.323897" lon="-120.42458">
        <ele>1892.438342</ele>
        <time>2024-07-28T08:01:50.000Z</time>
      </trkpt>
      <trkpt lat="39.323535" lon="-120.425091">
        <ele>1889.684172</ele>
        <time>2024-07-28T08:01:56.000Z</time>
      </trkpt>
      <trkpt lat="39.321489" lon="-120.427907">
        <ele>1877.845562</ele>
        <time>2024-07-28T08:02:29.000Z</time>
      </trkpt>
      <trkpt lat="39.321136" lon="-120.428518">
        <ele>1875.720694</ele>
        <time>2024-07-28T08:02:36.000Z</time>
      </trkpt>
      <trkpt lat="39.320715" lon="-120.429429">
        <ele>1873.275261</ele>
        <time>2024-07-28T08:02:45.000Z</time>
      </trkpt>
      <trkpt lat="39.320682" lon="-120.429518">
        <ele>1873.046497</ele>
        <time>2024-07-28T08:02:46.000Z</time>
      </trkpt>
      <trkpt lat="39.320331" lon="-120.430365">
        <ele>1870.836756</ele>
        <time>2024-07-28T08:02:54.000Z</time>
      </trkpt>
      <trkpt lat="39.320178" lon="-120.430784">
        <ele>1869.910926</ele>
        <time>2024-07-28T08:02:58.000Z</time>
      </trkpt>
      <trkpt lat="39.320159" lon="-120.43081">
        <ele>1869.850353</ele>
        <time>2024-07-28T08:02:58.000Z</time>
      </trkpt>
      <trkpt lat="39.320108" lon="-120.430945">
        <ele>1869.542942</ele>
        <time>2024-07-28T08:02:59.000Z</time>
      </trkpt>
      <trkpt lat="39.320064" lon="-120.431032">
        <ele>1869.350394</ele>
        <time>2024-07-28T08:03:00.000Z</time>
      </trkpt>
      <trkpt lat="39.319772" lon="-120.431769">
        <ele>1867.771606</ele>
        <time>2024-07-28T08:03:07.000Z</time>
      </trkpt>
      <trkpt lat="39.319729" lon="-120.431891">
        <ele>1867.484767</ele>
        <time>2024-07-28T08:03:08.000Z</time>
      </trkpt>
      <trkpt lat="39.319511" lon="-120.432446">
        <ele>1866.271677</ele>
        <time>2024-07-28T08:03:13.000Z</time>
      </trkpt>
      <trkpt lat="39.319327" lon="-120.432864">
        <ele>1865.550884</ele>
        <time>2024-07-28T08:03:17.000Z</time>
      </trkpt>
      <trkpt lat="39.319255" lon="-120.43306">
        <ele>1865.219997</ele>
        <time>2024-07-28T08:03:19.000Z</time>
      </trkpt>
      <trkpt lat="39.318563" lon="-120.434745">
        <ele>1862.456768</ele>
        <time>2024-07-28T08:03:35.000Z</time>
      </trkpt>
      <trkpt lat="39.318446" lon="-120.435039">
        <ele>1862.09589</ele>
        <time>2024-07-28T08:03:38.000Z</time>
      </trkpt>
      <trkpt lat="39.318371" lon="-120.435201">
        <ele>1861.902753</ele>
        <time>2024-07-28T08:03:40.000Z</time>
      </trkpt>
      <trkpt lat="39.317849" lon="-120.436513">
        <ele>1860.358922</ele>
        <time>2024-07-28T08:03:53.000Z</time>
      </trkpt>
      <trkpt lat="39.317627" lon="-120.437066">
        <ele>1859.601618</ele>
        <time>2024-07-28T08:03:58.000Z</time>
      </trkpt>
      <trkpt lat="39.317477" lon="-120.437465">
        <ele>1859.030784</ele>
        <time>2024-07-28T08:04:02.000Z</time>
      </trkpt>
      <trkpt lat="39.317332" lon="-120.437856">
        <ele>1858.470759</ele>
        <time>2024-07-28T08:04:06.000Z</time>
      </trkpt>
      <trkpt lat="39.317219" lon="-120.438248">
        <ele>1857.953224</ele>
        <time>2024-07-28T08:04:10.000Z</time>
      </trkpt>
      <trkpt lat="39.317039" lon="-120.439086">
        <ele>1856.701492</ele>
        <time>2024-07-28T08:04:17.000Z</time>
      </trkpt>
      <trkpt lat="39.316715" lon="-120.440932">
        <ele>1853.354813</ele>
        <time>2024-07-28T08:04:33.000Z</time>
      </trkpt>
      <trkpt lat="39.316376" lon="-120.442923">
        <ele>1850.228644</ele>
        <time>2024-07-28T08:04:51.000Z</time>
      </trkpt>
      <trkpt lat="39.316267" lon="-120.44339">
        <ele>1849.537672</ele>
        <time>2024-07-28T08:04:55.000Z</time>
      </trkpt>
      <trkpt lat="39.316136" lon="-120.443811">
        <ele>1849.174259</ele>
        <time>2024-07-28T08:04:59.000Z</time>
      </trkpt>
      <trkpt lat="39.316016" lon="-120.44415">
        <ele>1848.868278</ele>
        <time>2024-07-28T08:05:02.000Z</time>
      </trkpt>
      <trkpt lat="39.315736" lon="-120.444793">
        <ele>1848.280536</ele>
        <time>2024-07-28T08:05:08.000Z</time>
      </trkpt>
      <trkpt lat="39.315363" lon="-120.445468">
        <ele>1847.635138</ele>
        <time>2024-07-28T08:05:15.000Z</time>
      </trkpt>
      <trkpt lat="39.315102" lon="-120.445858">
        <ele>1847.307221</ele>
        <time>2024-07-28T08:05:19.000Z</time>
      </trkpt>
      <trkpt lat="39.314836" lon="-120.446329">
        <ele>1846.934114</ele>
        <time>2024-07-28T08:05:24.000Z</time>
      </trkpt>
      <trkpt lat="39.314618" lon="-120.446933">
        <ele>1846.511707</ele>
        <time>2024-07-28T08:05:30.000Z</time>
      </trkpt>
      <trkpt lat="39.314493" lon="-120.447607">
        <ele>1846.181171</ele>
        <time>2024-07-28T08:05:36.000Z</time>
      </trkpt>
      <trkpt lat="39.314468" lon="-120.448129">
        <ele>1846.059632</ele>
        <time>2024-07-28T08:05:40.000Z</time>
      </trkpt>
      <trkpt lat="39.314545" lon="-120.448865">
        <ele>1845.887416</ele>
        <time>2024-07-28T08:05:46.000Z</time>
      </trkpt>
      <trkpt lat="39.315493" lon="-120.455494">
        <ele>1846.369133</ele>
        <time>2024-07-28T08:06:44.000Z</time>
      </trkpt>
      <trkpt lat="39.315559" lon="-120.455897">
        <ele>1846.407263</ele>
        <time>2024-07-28T08:06:48.000Z</time>
      </trkpt>
      <trkpt lat="39.315858" lon="-120.457909">
        <ele>1846.61817</ele>
        <time>2024-07-28T08:07:06.000Z</time>
      </trkpt>
      <trkpt lat="39.31602" lon="-120.459332">
        <ele>1846.33653</ele>
        <time>2024-07-28T08:07:18.000Z</time>
      </trkpt>
      <trkpt lat="39.316129" lon="-120.461085">
        <ele>1845.15188</ele>
        <time>2024-07-28T08:07:33.000Z</time>
      </trkpt>
      <trkpt lat="39.316127" lon="-120.463208">
        <ele>1840.567234</ele>
        <time>2024-07-28T08:07:51.000Z</time>
      </trkpt>
      <trkpt lat="39.316117" lon="-120.46376">
        <ele>1839.429057</ele>
        <time>2024-07-28T08:07:56.000Z</time>
      </trkpt>
      <trkpt lat="39.316041" lon="-120.464401">
        <ele>1838.162594</ele>
        <time>2024-07-28T08:08:02.000Z</time>
      </trkpt>
      <trkpt lat="39.315986" lon="-120.464766">
        <ele>1837.414676</ele>
        <time>2024-07-28T08:08:05.000Z</time>
      </trkpt>
      <trkpt lat="39.315855" lon="-120.465228">
        <ele>1836.431302</ele>
        <time>2024-07-28T08:08:09.000Z</time>
      </trkpt>
      <trkpt lat="39.315556" lon="-120.465985">
        <ele>1835.100839</ele>
        <time>2024-07-28T08:08:16.000Z</time>
      </trkpt>
      <trkpt lat="39.315338" lon="-120.46648">
        <ele>1834.502527</ele>
        <time>2024-07-28T08:08:21.000Z</time>
      </trkpt>
      <trkpt lat="39.315153" lon="-120.466967">
        <ele>1833.919558</ele>
        <time>2024-07-28T08:08:26.000Z</time>
      </trkpt>
      <trkpt lat="39.315021" lon="-120.467534">
        <ele>1833.302336</ele>
        <time>2024-07-28T08:08:31.000Z</time>
      </trkpt>
      <trkpt lat="39.314948" lon="-120.467958">
        <ele>1832.738185</ele>
        <time>2024-07-28T08:08:35.000Z</time>
      </trkpt>
      <trkpt lat="39.31484" lon="-120.469754">
        <ele>1830.071316</ele>
        <time>2024-07-28T08:08:50.000Z</time>
      </trkpt>
      <trkpt lat="39.314073" lon="-120.482339">
        <ele>1815.041388</ele>
        <time>2024-07-28T08:10:39.000Z</time>
      </trkpt>
      <trkpt lat="39.313967" lon="-120.48383">
        <ele>1813.743551</ele>
        <time>2024-07-28T08:10:52.000Z</time>
      </trkpt>
      <trkpt lat="39.313822" lon="-120.484718">
        <ele>1812.950987</ele>
        <time>2024-07-28T08:11:00.000Z</time>
      </trkpt>
      <trkpt lat="39.313555" lon="-120.485769">
        <ele>1811.972519</ele>
        <time>2024-07-28T08:11:10.000Z</time>
      </trkpt>
      <trkpt lat="39.312428" lon="-120.489182">
        <ele>1807.721963</ele>
        <time>2024-07-28T08:11:42.000Z</time>
      </trkpt>
      <trkpt lat="39.312327" lon="-120.489603">
        <ele>1807.271633</ele>
        <time>2024-07-28T08:11:46.000Z</time>
      </trkpt>
      <trkpt lat="39.3122" lon="-120.490437">
        <ele>1806.409307</ele>
        <time>2024-07-28T08:11:53.000Z</time>
      </trkpt>
      <trkpt lat="39.312173" lon="-120.491296">
        <ele>1805.810874</ele>
        <time>2024-07-28T08:12:00.000Z</time>
      </trkpt>
      <trkpt lat="39.312206" lon="-120.494538">
        <ele>1804.062815</ele>
        <time>2024-07-28T08:12:28.000Z</time>
      </trkpt>
      <trkpt lat="39.312247" lon="-120.495108">
        <ele>1803.802339</ele>
        <time>2024-07-28T08:12:33.000Z</time>
      </trkpt>
      <trkpt lat="39.312365" lon="-120.495836">
        <ele>1803.42108</ele>
        <time>2024-07-28T08:12:39.000Z</time>
      </trkpt>
      <trkpt lat="39.312778" lon="-120.49718">
        <ele>1802.674414</ele>
        <time>2024-07-28T08:12:51.000Z</time>
      </trkpt>
      <trkpt lat="39.312901" lon="-120.497637">
        <ele>1802.198395</ele>
        <time>2024-07-28T08:12:55.000Z</time>
      </trkpt>
      <trkpt lat="39.312889" lon="-120.497854">
        <ele>1801.870575</ele>
        <time>2024-07-28T08:12:57.000Z</time>
      </trkpt>
      <trkpt lat="39.31287" lon="-120.498001">
        <ele>1801.673846</ele>
        <time>2024-07-28T08:12:58.000Z</time>
      </trkpt>
      <trkpt lat="39.312834" lon="-120.498123">
        <ele>1801.488862</ele>
        <time>2024-07-28T08:12:59.000Z</time>
      </trkpt>
      <trkpt lat="39.312717" lon="-120.498322">
        <ele>1801.125928</ele>
        <time>2024-07-28T08:13:01.000Z</time>
      </trkpt>
      <trkpt lat="39.312373" lon="-120.498634">
        <ele>1800.362065</ele>
        <time>2024-07-28T08:13:06.000Z</time>
      </trkpt>
      <trkpt lat="39.311298" lon="-120.499467">
        <ele>1797.711987</ele>
        <time>2024-07-28T08:13:20.000Z</time>
      </trkpt>
      <trkpt lat="39.311008" lon="-120.49972">
        <ele>1796.875677</ele>
        <time>2024-07-28T08:13:24.000Z</time>
      </trkpt>
      <trkpt lat="39.310936" lon="-120.499787">
        <ele>1796.677795</ele>
        <time>2024-07-28T08:13:25.000Z</time>
      </trkpt>
      <trkpt lat="39.310896" lon="-120.499978">
        <ele>1796.319839</ele>
        <time>2024-07-28T08:13:27.000Z</time>
      </trkpt>
      <trkpt lat="39.310611" lon="-120.502145">
        <ele>1791.622789</ele>
        <time>2024-07-28T08:13:46.000Z</time>
      </trkpt>
      <trkpt lat="39.310573" lon="-120.502758">
        <ele>1790.190955</ele>
        <time>2024-07-28T08:13:51.000Z</time>
      </trkpt>
      <trkpt lat="39.310574" lon="-120.503046">
        <ele>1789.398885</ele>
        <time>2024-07-28T08:13:53.000Z</time>
      </trkpt>
      <trkpt lat="39.310642" lon="-120.503737">
        <ele>1786.65585</ele>
        <time>2024-07-28T08:13:59.000Z</time>
      </trkpt>
      <trkpt lat="39.310857" lon="-120.505101">
        <ele>1781.091679</ele>
        <time>2024-07-28T08:14:11.000Z</time>
      </trkpt>
      <trkpt lat="39.310868" lon="-120.50582">
        <ele>1778.287579</ele>
        <time>2024-07-28T08:14:17.000Z</time>
      </trkpt>
      <trkpt lat="39.310813" lon="-120.506378">
        <ele>1776.09756</ele>
        <time>2024-07-28T08:14:22.000Z</time>
      </trkpt>
      <trkpt lat="39.310426" lon="-120.508081">
        <ele>1770.385823</ele>
        <time>2024-07-28T08:14:37.000Z</time>
      </trkpt>
      <trkpt lat="39.310333" lon="-120.508502">
        <ele>1769.6397</ele>
        <time>2024-07-28T08:14:41.000Z</time>
      </trkpt>
      <trkpt lat="39.310295" lon="-120.508779">
        <ele>1769.135868</ele>
        <time>2024-07-28T08:14:43.000Z</time>
      </trkpt>
      <trkpt lat="39.310264" lon="-120.508945">
        <ele>1768.844502</ele>
        <time>2024-07-28T08:14:44.000Z</time>
      </trkpt>
      <trkpt lat="39.310183" lon="-120.50978">
        <ele>1767.374084</ele>
        <time>2024-07-28T08:14:51.000Z</time>
      </trkpt>
      <trkpt lat="39.310183" lon="-120.510459">
        <ele>1767.554562</ele>
        <time>2024-07-28T08:14:57.000Z</time>
      </trkpt>
      <trkpt lat="39.310278" lon="-120.511465">
        <ele>1768.004498</ele>
        <time>2024-07-28T08:15:06.000Z</time>
      </trkpt>
      <trkpt lat="39.310331" lon="-120.511772">
        <ele>1768.141014</ele>
        <time>2024-07-28T08:15:09.000Z</time>
      </trkpt>
      <trkpt lat="39.310452" lon="-120.512826">
        <ele>1768.792176</ele>
        <time>2024-07-28T08:15:18.000Z</time>
      </trkpt>
      <trkpt lat="39.310433" lon="-120.513435">
        <ele>1769.226015</ele>
        <time>2024-07-28T08:15:23.000Z</time>
      </trkpt>
      <trkpt lat="39.310372" lon="-120.513943">
        <ele>1769.592362</ele>
        <time>2024-07-28T08:15:27.000Z</time>
      </trkpt>
      <trkpt lat="39.310223" lon="-120.514421">
        <ele>1769.944576</ele>
        <time>2024-07-28T08:15:31.000Z</time>
      </trkpt>
      <trkpt lat="39.310056" lon="-120.51486">
        <ele>1769.297688</ele>
        <time>2024-07-28T08:15:35.000Z</time>
      </trkpt>
      <trkpt lat="39.309824" lon="-120.515264">
        <ele>1768.632239</ele>
        <time>2024-07-28T08:15:39.000Z</time>
      </trkpt>
      <trkpt lat="39.309609" lon="-120.515542">
        <ele>1768.102937</ele>
        <time>2024-07-28T08:15:42.000Z</time>
      </trkpt>
      <trkpt lat="39.309377" lon="-120.515783">
        <ele>1767.604375</ele>
        <time>2024-07-28T08:15:45.000Z</time>
      </trkpt>
      <trkpt lat="39.309197" lon="-120.515942">
        <ele>1767.230337</ele>
        <time>2024-07-28T08:15:47.000Z</time>
      </trkpt>
      <trkpt lat="39.308917" lon="-120.516128">
        <ele>1766.378229</ele>
        <time>2024-07-28T08:15:51.000Z</time>
      </trkpt>
      <trkpt lat="39.308057" lon="-120.516625">
        <ele>1762.31096</ele>
        <time>2024-07-28T08:16:01.000Z</time>
      </trkpt>
      <trkpt lat="39.306726" lon="-120.517381">
        <ele>1755.630688</ele>
        <time>2024-07-28T08:16:17.000Z</time>
      </trkpt>
      <trkpt lat="39.306381" lon="-120.517574">
        <ele>1753.884263</ele>
        <time>2024-07-28T08:16:21.000Z</time>
      </trkpt>
      <trkpt lat="39.306361" lon="-120.517585">
        <ele>1753.726568</ele>
        <time>2024-07-28T08:16:21.000Z</time>
      </trkpt>
      <trkpt lat="39.305809" lon="-120.51797">
        <ele>1750.751469</ele>
        <time>2024-07-28T08:16:28.000Z</time>
      </trkpt>
      <trkpt lat="39.305536" lon="-120.518256">
        <ele>1749.417444</ele>
        <time>2024-07-28T08:16:32.000Z</time>
      </trkpt>
      <trkpt lat="39.305334" lon="-120.518487">
        <ele>1748.505659</ele>
        <time>2024-07-28T08:16:35.000Z</time>
      </trkpt>
      <trkpt lat="39.304914" lon="-120.519165">
        <ele>1746.217609</ele>
        <time>2024-07-28T08:16:42.000Z</time>
      </trkpt>
      <trkpt lat="39.304788" lon="-120.519377">
        <ele>1745.482791</ele>
        <time>2024-07-28T08:16:44.000Z</time>
      </trkpt>
      <trkpt lat="39.304402" lon="-120.520107">
        <ele>1744.086945</ele>
        <time>2024-07-28T08:16:52.000Z</time>
      </trkpt>
      <trkpt lat="39.304241" lon="-120.520438">
        <ele>1743.933371</ele>
        <time>2024-07-28T08:16:55.000Z</time>
      </trkpt>
      <trkpt lat="39.304031" lon="-120.521034">
        <ele>1743.675586</ele>
        <time>2024-07-28T08:17:01.000Z</time>
      </trkpt>
      <trkpt lat="39.303942" lon="-120.521443">
        <ele>1743.507384</ele>
        <time>2024-07-28T08:17:05.000Z</time>
      </trkpt>
      <trkpt lat="39.303864" lon="-120.522143">
        <ele>1743.431967</ele>
        <time>2024-07-28T08:17:11.000Z</time>
      </trkpt>
      <trkpt lat="39.303883" lon="-120.523042">
        <ele>1743.766804</ele>
        <time>2024-07-28T08:17:19.000Z</time>
      </trkpt>
      <trkpt lat="39.303983" lon="-120.523776">
        <ele>1744.045953</ele>
        <time>2024-07-28T08:17:25.000Z</time>
      </trkpt>
      <trkpt lat="39.304122" lon="-120.524238">
        <ele>1744.200949</ele>
        <time>2024-07-28T08:17:29.000Z</time>
      </trkpt>
      <trkpt lat="39.304292" lon="-120.524637">
        <ele>1744.187207</ele>
        <time>2024-07-28T08:17:33.000Z</time>
      </trkpt>
      <trkpt lat="39.30451" lon="-120.524984">
        <ele>1744.173802</ele>
        <time>2024-07-28T08:17:37.000Z</time>
      </trkpt>
      <trkpt lat="39.305554" lon="-120.52626">
        <ele>1743.372729</ele>
        <time>2024-07-28T08:17:53.000Z</time>
      </trkpt>
      <trkpt lat="39.305658" lon="-120.52644">
        <ele>1743.034283</ele>
        <time>2024-07-28T08:17:55.000Z</time>
      </trkpt>
      <trkpt lat="39.305856" lon="-120.526863">
        <ele>1742.296647</ele>
        <time>2024-07-28T08:17:59.000Z</time>
      </trkpt>
      <trkpt lat="39.305907" lon="-120.527083">
        <ele>1741.933043</ele>
        <time>2024-07-28T08:18:01.000Z</time>
      </trkpt>
      <trkpt lat="39.305938" lon="-120.527647">
        <ele>1741.108543</ele>
        <time>2024-07-28T08:18:06.000Z</time>
      </trkpt>
      <trkpt lat="39.305906" lon="-120.528069">
        <ele>1740.187098</ele>
        <time>2024-07-28T08:18:10.000Z</time>
      </trkpt>
      <trkpt lat="39.305485" lon="-120.53008">
        <ele>1732.946209</ele>
        <time>2024-07-28T08:18:28.000Z</time>
      </trkpt>
      <trkpt lat="39.305439" lon="-120.530354">
        <ele>1732.087988</ele>
        <time>2024-07-28T08:18:30.000Z</time>
      </trkpt>
      <trkpt lat="39.305413" lon="-120.530884">
        <ele>1730.681863</ele>
        <time>2024-07-28T08:18:35.000Z</time>
      </trkpt>
      <trkpt lat="39.305432" lon="-120.531168">
        <ele>1729.927434</ele>
        <time>2024-07-28T08:18:37.000Z</time>
      </trkpt>
      <trkpt lat="39.305509" lon="-120.531704">
        <ele>1728.463269</ele>
        <time>2024-07-28T08:18:42.000Z</time>
      </trkpt>
      <trkpt lat="39.305993" lon="-120.533759">
        <ele>1724.228202</ele>
        <time>2024-07-28T08:19:00.000Z</time>
      </trkpt>
      <trkpt lat="39.306227" lon="-120.534704">
        <ele>1722.704015</ele>
        <time>2024-07-28T08:19:09.000Z</time>
      </trkpt>
      <trkpt lat="39.306393" lon="-120.535381">
        <ele>1722.44164</ele>
        <time>2024-07-28T08:19:15.000Z</time>
      </trkpt>
      <trkpt lat="39.306539" lon="-120.536086">
        <ele>1722.174077</ele>
        <time>2024-07-28T08:19:21.000Z</time>
      </trkpt>
      <trkpt lat="39.306601" lon="-120.536358">
        <ele>1722.069098</ele>
        <time>2024-07-28T08:19:23.000Z</time>
      </trkpt>
      <trkpt lat="39.306867" lon="-120.537242">
        <ele>1721.911753</ele>
        <time>2024-07-28T08:19:31.000Z</time>
      </trkpt>
      <trkpt lat="39.306987" lon="-120.537494">
        <ele>1721.954987</ele>
        <time>2024-07-28T08:19:34.000Z</time>
      </trkpt>
      <trkpt lat="39.307232" lon="-120.537919">
        <ele>1722.035155</ele>
        <time>2024-07-28T08:19:39.000Z</time>
      </trkpt>
      <trkpt lat="39.307516" lon="-120.538281">
        <ele>1722.115863</ele>
        <time>2024-07-28T08:19:43.000Z</time>
      </trkpt>
      <trkpt lat="39.307817" lon="-120.538564">
        <ele>1722.189398</ele>
        <time>2024-07-28T08:19:47.000Z</time>
      </trkpt>
      <trkpt lat="39.308179" lon="-120.538854">
        <ele>1721.966138</ele>
        <time>2024-07-28T08:19:52.000Z</time>
      </trkpt>
      <trkpt lat="39.308229" lon="-120.538887">
        <ele>1721.92716</ele>
        <time>2024-07-28T08:19:53.000Z</time>
      </trkpt>
      <trkpt lat="39.30852" lon="-120.539095">
        <ele>1721.682873</ele>
        <time>2024-07-28T08:19:57.000Z</time>
      </trkpt>
      <trkpt lat="39.308572" lon="-120.53914">
        <ele>1721.626232</ele>
        <time>2024-07-28T08:19:58.000Z</time>
      </trkpt>
      <trkpt lat="39.30893" lon="-120.539401">
        <ele>1721.318463</ele>
        <time>2024-07-28T08:20:03.000Z</time>
      </trkpt>
      <trkpt lat="39.309292" lon="-120.53966">
        <ele>1721.01638</ele>
        <time>2024-07-28T08:20:08.000Z</time>
      </trkpt>
      <trkpt lat="39.309432" lon="-120.539765">
        <ele>1720.891784</ele>
        <time>2024-07-28T08:20:10.000Z</time>
      </trkpt>
      <trkpt lat="39.309491" lon="-120.539822">
        <ele>1720.812155</ele>
        <time>2024-07-28T08:20:11.000Z</time>
      </trkpt>
      <trkpt lat="39.309567" lon="-120.539859">
        <ele>1720.668267</ele>
        <time>2024-07-28T08:20:12.000Z</time>
      </trkpt>
      <trkpt lat="39.309951" lon="-120.540159">
        <ele>1719.86342</ele>
        <time>2024-07-28T08:20:17.000Z</time>
      </trkpt>
      <trkpt lat="39.310365" lon="-120.540514">
        <ele>1718.958926</ele>
        <time>2024-07-28T08:20:23.000Z</time>
      </trkpt>
      <trkpt lat="39.310497" lon="-120.540643">
        <ele>1718.664624</ele>
        <time>2024-07-28T08:20:25.000Z</time>
      </trkpt>
      <trkpt lat="39.310876" lon="-120.541119">
        <ele>1717.713179</ele>
        <time>2024-07-28T08:20:31.000Z</time>
      </trkpt>
      <trkpt lat="39.31109" lon="-120.54148">
        <ele>1717.431548</ele>
        <time>2024-07-28T08:20:35.000Z</time>
      </trkpt>
      <trkpt lat="39.311272" lon="-120.541916">
        <ele>1717.190282</ele>
        <time>2024-07-28T08:20:39.000Z</time>
      </trkpt>
      <trkpt lat="39.31157" lon="-120.5428">
        <ele>1716.713038</ele>
        <time>2024-07-28T08:20:47.000Z</time>
      </trkpt>
      <trkpt lat="39.311284" lon="-120.541907">
        <ele>1717.005894</ele>
        <time>2024-07-28T08:20:55.000Z</time>
      </trkpt>
      <trkpt lat="39.311085" lon="-120.541479">
        <ele>1717.521801</ele>
        <time>2024-07-28T08:20:59.000Z</time>
      </trkpt>
      <trkpt lat="39.310882" lon="-120.54113">
        <ele>1718.005477</ele>
        <time>2024-07-28T08:21:03.000Z</time>
      </trkpt>
      <trkpt lat="39.310501" lon="-120.540643">
        <ele>1718.7261</ele>
        <time>2024-07-28T08:21:09.000Z</time>
      </trkpt>
      <trkpt lat="39.310375" lon="-120.540512">
        <ele>1718.951391</ele>
        <time>2024-07-28T08:21:11.000Z</time>
      </trkpt>
      <trkpt lat="39.309945" lon="-120.540151">
        <ele>1719.733559</ele>
        <time>2024-07-28T08:21:17.000Z</time>
      </trkpt>
      <trkpt lat="39.309564" lon="-120.539856">
        <ele>1720.42954</ele>
        <time>2024-07-28T08:21:22.000Z</time>
      </trkpt>
      <trkpt lat="39.309489" lon="-120.539821">
        <ele>1720.553962</ele>
        <time>2024-07-28T08:21:23.000Z</time>
      </trkpt>
      <trkpt lat="39.309425" lon="-120.539772">
        <ele>1720.657404</ele>
        <time>2024-07-28T08:21:24.000Z</time>
      </trkpt>
      <trkpt lat="39.309281" lon="-120.539671">
        <ele>1720.916589</ele>
        <time>2024-07-28T08:21:26.000Z</time>
      </trkpt>
      <trkpt lat="39.308937" lon="-120.539414">
        <ele>1721.544982</ele>
        <time>2024-07-28T08:21:30.000Z</time>
      </trkpt>
      <trkpt lat="39.308574" lon="-120.539142">
        <ele>1721.797935</ele>
        <time>2024-07-28T08:21:35.000Z</time>
      </trkpt>
      <trkpt lat="39.308514" lon="-120.539105">
        <ele>1721.815429</ele>
        <time>2024-07-28T08:21:36.000Z</time>
      </trkpt>
      <trkpt lat="39.308223" lon="-120.538895">
        <ele>1721.890837</ele>
        <time>2024-07-28T08:21:40.000Z</time>
      </trkpt>
      <trkpt lat="39.308175" lon="-120.538863">
        <ele>1721.902865</ele>
        <time>2024-07-28T08:21:41.000Z</time>
      </trkpt>
      <trkpt lat="39.307827" lon="-120.538575">
        <ele>1722.000158</ele>
        <time>2024-07-28T08:21:46.000Z</time>
      </trkpt>
      <trkpt lat="39.307524" lon="-120.538289">
        <ele>1722.086477</ele>
        <time>2024-07-28T08:21:50.000Z</time>
      </trkpt>
      <trkpt lat="39.307235" lon="-120.537911">
        <ele>1722.122988</ele>
        <time>2024-07-28T08:21:55.000Z</time>
      </trkpt>
      <trkpt lat="39.306987" lon="-120.537491">
        <ele>1722.062828</ele>
        <time>2024-07-28T08:22:00.000Z</time>
      </trkpt>
      <trkpt lat="39.306872" lon="-120.537248">
        <ele>1722.030372</ele>
        <time>2024-07-28T08:22:02.000Z</time>
      </trkpt>
      <trkpt lat="39.306595" lon="-120.536358">
        <ele>1721.921104</ele>
        <time>2024-07-28T08:22:10.000Z</time>
      </trkpt>
      <trkpt lat="39.306531" lon="-120.536092">
        <ele>1721.888503</ele>
        <time>2024-07-28T08:22:12.000Z</time>
      </trkpt>
      <trkpt lat="39.306381" lon="-120.535387">
        <ele>1722.452958</ele>
        <time>2024-07-28T08:22:18.000Z</time>
      </trkpt>
      <trkpt lat="39.306227" lon="-120.534701">
        <ele>1723.076574</ele>
        <time>2024-07-28T08:22:24.000Z</time>
      </trkpt>
      <trkpt lat="39.305998" lon="-120.533751">
        <ele>1723.975968</ele>
        <time>2024-07-28T08:22:33.000Z</time>
      </trkpt>
      <trkpt lat="39.305508" lon="-120.531706">
        <ele>1728.106789</ele>
        <time>2024-07-28T08:22:51.000Z</time>
      </trkpt>
      <trkpt lat="39.305426" lon="-120.531175">
        <ele>1729.702632</ele>
        <time>2024-07-28T08:22:56.000Z</time>
      </trkpt>
      <trkpt lat="39.305409" lon="-120.530888">
        <ele>1730.623256</ele>
        <time>2024-07-28T08:22:58.000Z</time>
      </trkpt>
      <trkpt lat="39.305432" lon="-120.530355">
        <ele>1732.339147</ele>
        <time>2024-07-28T08:23:03.000Z</time>
      </trkpt>
      <trkpt lat="39.305473" lon="-120.530072">
        <ele>1733.269687</ele>
        <time>2024-07-28T08:23:05.000Z</time>
      </trkpt>
      <trkpt lat="39.3059" lon="-120.52808">
        <ele>1739.663957</ele>
        <time>2024-07-28T08:23:23.000Z</time>
      </trkpt>
      <trkpt lat="39.305935" lon="-120.527648">
        <ele>1740.966348</ele>
        <time>2024-07-28T08:23:27.000Z</time>
      </trkpt>
      <trkpt lat="39.305911" lon="-120.527095">
        <ele>1742.596419</ele>
        <time>2024-07-28T08:23:32.000Z</time>
      </trkpt>
      <trkpt lat="39.305847" lon="-120.526861">
        <ele>1742.943906</ele>
        <time>2024-07-28T08:23:34.000Z</time>
      </trkpt>
      <trkpt lat="39.305656" lon="-120.526437">
        <ele>1743.25421</ele>
        <time>2024-07-28T08:23:38.000Z</time>
      </trkpt>
      <trkpt lat="39.305549" lon="-120.526262">
        <ele>1743.396593</ele>
        <time>2024-07-28T08:23:40.000Z</time>
      </trkpt>
      <trkpt lat="39.304507" lon="-120.524989">
        <ele>1744.238346</ele>
        <time>2024-07-28T08:23:56.000Z</time>
      </trkpt>
      <trkpt lat="39.304288" lon="-120.524643">
        <ele>1744.160099</ele>
        <time>2024-07-28T08:24:00.000Z</time>
      </trkpt>
      <trkpt lat="39.30412" lon="-120.524242">
        <ele>1744.079818</ele>
        <time>2024-07-28T08:24:04.000Z</time>
      </trkpt>
      <trkpt lat="39.303983" lon="-120.523772">
        <ele>1743.993731</ele>
        <time>2024-07-28T08:24:08.000Z</time>
      </trkpt>
      <trkpt lat="39.303878" lon="-120.523051">
        <ele>1743.828012</ele>
        <time>2024-07-28T08:24:14.000Z</time>
      </trkpt>
      <trkpt lat="39.303873" lon="-120.522151">
        <ele>1743.531673</ele>
        <time>2024-07-28T08:24:22.000Z</time>
      </trkpt>
      <trkpt lat="39.303938" lon="-120.521443">
        <ele>1743.296986</ele>
        <time>2024-07-28T08:24:28.000Z</time>
      </trkpt>
      <trkpt lat="39.304048" lon="-120.521041">
        <ele>1743.155645</ele>
        <time>2024-07-28T08:24:32.000Z</time>
      </trkpt>
      <trkpt lat="39.304244" lon="-120.520452">
        <ele>1743.898003</ele>
        <time>2024-07-28T08:24:38.000Z</time>
      </trkpt>
      <trkpt lat="39.3044" lon="-120.520104">
        <ele>1744.409859</ele>
        <time>2024-07-28T08:24:41.000Z</time>
      </trkpt>
      <trkpt lat="39.304779" lon="-120.519378">
        <ele>1745.5643</ele>
        <time>2024-07-28T08:24:49.000Z</time>
      </trkpt>
      <trkpt lat="39.304906" lon="-120.519152">
        <ele>1745.929368</ele>
        <time>2024-07-28T08:24:51.000Z</time>
      </trkpt>
      <trkpt lat="39.305337" lon="-120.51849">
        <ele>1748.397258</ele>
        <time>2024-07-28T08:24:58.000Z</time>
      </trkpt>
      <trkpt lat="39.30552" lon="-120.518261">
        <ele>1749.536915</ele>
        <time>2024-07-28T08:25:01.000Z</time>
      </trkpt>
      <trkpt lat="39.305813" lon="-120.517971">
        <ele>1751.077177</ele>
        <time>2024-07-28T08:25:05.000Z</time>
      </trkpt>
      <trkpt lat="39.306355" lon="-120.517585">
        <ele>1753.71875</ele>
        <time>2024-07-28T08:25:12.000Z</time>
      </trkpt>
      <trkpt lat="39.30639" lon="-120.51757">
        <ele>1753.858762</ele>
        <time>2024-07-28T08:25:12.000Z</time>
      </trkpt>
      <trkpt lat="39.306721" lon="-120.517377">
        <ele>1755.581476</ele>
        <time>2024-07-28T08:25:16.000Z</time>
      </trkpt>
      <trkpt lat="39.30805" lon="-120.516613">
        <ele>1762.503206</ele>
        <time>2024-07-28T08:25:32.000Z</time>
      </trkpt>
      <trkpt lat="39.308902" lon="-120.516124">
        <ele>1765.912561</ele>
        <time>2024-07-28T08:25:42.000Z</time>
      </trkpt>
      <trkpt lat="39.309204" lon="-120.515944">
        <ele>1767.090337</ele>
        <time>2024-07-28T08:25:46.000Z</time>
      </trkpt>
      <trkpt lat="39.30937" lon="-120.515772">
        <ele>1767.885471</ele>
        <time>2024-07-28T08:25:48.000Z</time>
      </trkpt>
      <trkpt lat="39.309597" lon="-120.515548">
        <ele>1768.945369</ele>
        <time>2024-07-28T08:25:51.000Z</time>
      </trkpt>
      <trkpt lat="39.309829" lon="-120.515255">
        <ele>1769.054728</ele>
        <time>2024-07-28T08:25:55.000Z</time>
      </trkpt>
      <trkpt lat="39.310056" lon="-120.51486">
        <ele>1769.158423</ele>
        <time>2024-07-28T08:25:59.000Z</time>
      </trkpt>
      <trkpt lat="39.310241" lon="-120.514418">
        <ele>1769.259233</ele>
        <time>2024-07-28T08:26:03.000Z</time>
      </trkpt>
      <trkpt lat="39.310363" lon="-120.513942">
        <ele>1769.36433</ele>
        <time>2024-07-28T08:26:07.000Z</time>
      </trkpt>
      <trkpt lat="39.310432" lon="-120.513434">
        <ele>1769.39161</ele>
        <time>2024-07-28T08:26:11.000Z</time>
      </trkpt>
      <trkpt lat="39.310461" lon="-120.512826">
        <ele>1768.913333</ele>
        <time>2024-07-28T08:26:16.000Z</time>
      </trkpt>
      <trkpt lat="39.310326" lon="-120.511786">
        <ele>1768.085806</ele>
        <time>2024-07-28T08:26:25.000Z</time>
      </trkpt>
      <trkpt lat="39.310281" lon="-120.511467">
        <ele>1767.841508</ele>
        <time>2024-07-28T08:26:28.000Z</time>
      </trkpt>
      <trkpt lat="39.310188" lon="-120.510452">
        <ele>1767.795766</ele>
        <time>2024-07-28T08:26:37.000Z</time>
      </trkpt>
      <trkpt lat="39.310194" lon="-120.509776">
        <ele>1767.936055</ele>
        <time>2024-07-28T08:26:43.000Z</time>
      </trkpt>
      <trkpt lat="39.310271" lon="-120.508947">
        <ele>1768.112656</ele>
        <time>2024-07-28T08:26:50.000Z</time>
      </trkpt>
      <trkpt lat="39.31029" lon="-120.508779">
        <ele>1768.456703</ele>
        <time>2024-07-28T08:26:51.000Z</time>
      </trkpt>
      <trkpt lat="39.310349" lon="-120.508506">
        <ele>1769.251105</ele>
        <time>2024-07-28T08:26:53.000Z</time>
      </trkpt>
      <trkpt lat="39.310434" lon="-120.508083">
        <ele>1770.42759</ele>
        <time>2024-07-28T08:26:57.000Z</time>
      </trkpt>
      <trkpt lat="39.310813" lon="-120.506368">
        <ele>1775.764179</ele>
        <time>2024-07-28T08:27:12.000Z</time>
      </trkpt>
      <trkpt lat="39.310875" lon="-120.505816">
        <ele>1778.182226</ele>
        <time>2024-07-28T08:27:17.000Z</time>
      </trkpt>
      <trkpt lat="39.310857" lon="-120.505096">
        <ele>1781.244217</ele>
        <time>2024-07-28T08:27:23.000Z</time>
      </trkpt>
      <trkpt lat="39.31064" lon="-120.503727">
        <ele>1786.582761</ele>
        <time>2024-07-28T08:27:35.000Z</time>
      </trkpt>
      <trkpt lat="39.310581" lon="-120.50306">
        <ele>1788.892493</ele>
        <time>2024-07-28T08:27:41.000Z</time>
      </trkpt>
      <trkpt lat="39.310569" lon="-120.50275">
        <ele>1789.909636</ele>
        <time>2024-07-28T08:27:44.000Z</time>
      </trkpt>
      <trkpt lat="39.310614" lon="-120.502139">
        <ele>1792.004638</ele>
        <time>2024-07-28T08:27:49.000Z</time>
      </trkpt>
      <trkpt lat="39.310893" lon="-120.499981">
        <ele>1796.283362</ele>
        <time>2024-07-28T08:28:08.000Z</time>
      </trkpt>
      <trkpt lat="39.310943" lon="-120.499782">
        <ele>1796.658214</ele>
        <time>2024-07-28T08:28:10.000Z</time>
      </trkpt>
      <trkpt lat="39.311" lon="-120.499702">
        <ele>1796.85392</ele>
        <time>2024-07-28T08:28:11.000Z</time>
      </trkpt>
      <trkpt lat="39.311302" lon="-120.499476">
        <ele>1797.673718</ele>
        <time>2024-07-28T08:28:15.000Z</time>
      </trkpt>
      <trkpt lat="39.312389" lon="-120.498639">
        <ele>1800.567531</ele>
        <time>2024-07-28T08:28:29.000Z</time>
      </trkpt>
      <trkpt lat="39.312721" lon="-120.498328">
        <ele>1801.224527</ele>
        <time>2024-07-28T08:28:34.000Z</time>
      </trkpt>
      <trkpt lat="39.312822" lon="-120.498118">
        <ele>1801.485145</ele>
        <time>2024-07-28T08:28:36.000Z</time>
      </trkpt>
      <trkpt lat="39.312867" lon="-120.497999">
        <ele>1801.617975</ele>
        <time>2024-07-28T08:28:37.000Z</time>
      </trkpt>
      <trkpt lat="39.312897" lon="-120.497857">
        <ele>1801.759232</ele>
        <time>2024-07-28T08:28:38.000Z</time>
      </trkpt>
      <trkpt lat="39.312902" lon="-120.497633">
        <ele>1801.994638</ele>
        <time>2024-07-28T08:28:40.000Z</time>
      </trkpt>
      <trkpt lat="39.312771" lon="-120.497181">
        <ele>1802.48276</ele>
        <time>2024-07-28T08:28:44.000Z</time>
      </trkpt>
      <trkpt lat="39.312369" lon="-120.495837">
        <ele>1803.503042</ele>
        <time>2024-07-28T08:28:56.000Z</time>
      </trkpt>
      <trkpt lat="39.312246" lon="-120.495119">
        <ele>1803.790283</ele>
        <time>2024-07-28T08:29:02.000Z</time>
      </trkpt>
      <trkpt lat="39.312222" lon="-120.494544">
        <ele>1804.009425</ele>
        <time>2024-07-28T08:29:07.000Z</time>
      </trkpt>
      <trkpt lat="39.312178" lon="-120.491302">
        <ele>1805.833773</ele>
        <time>2024-07-28T08:29:35.000Z</time>
      </trkpt>
      <trkpt lat="39.312197" lon="-120.490432">
        <ele>1806.494848</ele>
        <time>2024-07-28T08:29:42.000Z</time>
      </trkpt>
      <trkpt lat="39.312315" lon="-120.489594">
        <ele>1807.137995</ele>
        <time>2024-07-28T08:29:49.000Z</time>
      </trkpt>
      <trkpt lat="39.312425" lon="-120.489196">
        <ele>1807.655241</ele>
        <time>2024-07-28T08:29:53.000Z</time>
      </trkpt>
      <trkpt lat="39.313566" lon="-120.485764">
        <ele>1811.986575</ele>
        <time>2024-07-28T08:30:25.000Z</time>
      </trkpt>
      <trkpt lat="39.313827" lon="-120.484718">
        <ele>1813.01452</ele>
        <time>2024-07-28T08:30:34.000Z</time>
      </trkpt>
      <trkpt lat="39.313966" lon="-120.483824">
        <ele>1813.702977</ele>
        <time>2024-07-28T08:30:42.000Z</time>
      </trkpt>
      <trkpt lat="39.314063" lon="-120.482336">
        <ele>1815.125427</ele>
        <time>2024-07-28T08:30:55.000Z</time>
      </trkpt>
      <trkpt lat="39.314838" lon="-120.469751">
        <ele>1830.140002</ele>
        <time>2024-07-28T08:32:44.000Z</time>
      </trkpt>
      <trkpt lat="39.314942" lon="-120.467972">
        <ele>1832.548591</ele>
        <time>2024-07-28T08:32:59.000Z</time>
      </trkpt>
      <trkpt lat="39.315027" lon="-120.467522">
        <ele>1833.159145</ele>
        <time>2024-07-28T08:33:03.000Z</time>
      </trkpt>
      <trkpt lat="39.315168" lon="-120.466967">
        <ele>1833.946603</ele>
        <time>2024-07-28T08:33:08.000Z</time>
      </trkpt>
      <trkpt lat="39.315344" lon="-120.466476">
        <ele>1834.636729</ele>
        <time>2024-07-28T08:33:13.000Z</time>
      </trkpt>
      <trkpt lat="39.31557" lon="-120.465991">
        <ele>1835.331606</ele>
        <time>2024-07-28T08:33:18.000Z</time>
      </trkpt>
      <trkpt lat="39.315847" lon="-120.46523">
        <ele>1836.377374</ele>
        <time>2024-07-28T08:33:25.000Z</time>
      </trkpt>
      <trkpt lat="39.315985" lon="-120.464754">
        <ele>1837.018594</ele>
        <time>2024-07-28T08:33:29.000Z</time>
      </trkpt>
      <trkpt lat="39.316051" lon="-120.464393">
        <ele>1837.907378</ele>
        <time>2024-07-28T08:33:32.000Z</time>
      </trkpt>
      <trkpt lat="39.316111" lon="-120.463764">
        <ele>1839.412394</ele>
        <time>2024-07-28T08:33:37.000Z</time>
      </trkpt>
      <trkpt lat="39.316135" lon="-120.463201">
        <ele>1840.716193</ele>
        <time>2024-07-28T08:33:42.000Z</time>
      </trkpt>
      <trkpt lat="39.316129" lon="-120.461088">
        <ele>1844.70809</ele>
        <time>2024-07-28T08:34:00.000Z</time>
      </trkpt>
      <trkpt lat="39.316027" lon="-120.459338">
        <ele>1846.383366</ele>
        <time>2024-07-28T08:34:15.000Z</time>
      </trkpt>
      <trkpt lat="39.315847" lon="-120.457922">
        <ele>1846.612212</ele>
        <time>2024-07-28T08:34:27.000Z</time>
      </trkpt>
      <trkpt lat="39.315563" lon="-120.4559">
        <ele>1846.41816</ele>
        <time>2024-07-28T08:34:45.000Z</time>
      </trkpt>
      <trkpt lat="39.315498" lon="-120.455511">
        <ele>1846.376226</ele>
        <time>2024-07-28T08:34:48.000Z</time>
      </trkpt>
      <trkpt lat="39.314537" lon="-120.448869">
        <ele>1845.742508</ele>
        <time>2024-07-28T08:35:46.000Z</time>
      </trkpt>
      <trkpt lat="39.314472" lon="-120.448135">
        <ele>1846.008924</ele>
        <time>2024-07-28T08:35:52.000Z</time>
      </trkpt>
      <trkpt lat="39.3145" lon="-120.447599">
        <ele>1846.253339</ele>
        <time>2024-07-28T08:35:57.000Z</time>
      </trkpt>
      <trkpt lat="39.314618" lon="-120.446925">
        <ele>1846.575299</ele>
        <time>2024-07-28T08:36:03.000Z</time>
      </trkpt>
      <trkpt lat="39.314832" lon="-120.446341">
        <ele>1846.912661</ele>
        <time>2024-07-28T08:36:09.000Z</time>
      </trkpt>
      <trkpt lat="39.315099" lon="-120.445861">
        <ele>1847.30518</ele>
        <time>2024-07-28T08:36:14.000Z</time>
      </trkpt>
      <trkpt lat="39.315366" lon="-120.445467">
        <ele>1847.650202</ele>
        <time>2024-07-28T08:36:19.000Z</time>
      </trkpt>
      <trkpt lat="39.31574" lon="-120.444793">
        <ele>1848.209353</ele>
        <time>2024-07-28T08:36:26.000Z</time>
      </trkpt>
      <trkpt lat="39.316017" lon="-120.444158">
        <ele>1848.883016</ele>
        <time>2024-07-28T08:36:32.000Z</time>
      </trkpt>
      <trkpt lat="39.316138" lon="-120.4438">
        <ele>1849.284377</ele>
        <time>2024-07-28T08:36:35.000Z</time>
      </trkpt>
      <trkpt lat="39.316253" lon="-120.443393">
        <ele>1849.761024</ele>
        <time>2024-07-28T08:36:39.000Z</time>
      </trkpt>
      <trkpt lat="39.316367" lon="-120.442909">
        <ele>1850.278603</ele>
        <time>2024-07-28T08:36:43.000Z</time>
      </trkpt>
      <trkpt lat="39.316719" lon="-120.440929">
        <ele>1853.41892</ele>
        <time>2024-07-28T08:37:00.000Z</time>
      </trkpt>
      <trkpt lat="39.31704" lon="-120.439077">
        <ele>1856.585557</ele>
        <time>2024-07-28T08:37:16.000Z</time>
      </trkpt>
      <trkpt lat="39.317227" lon="-120.438246">
        <ele>1858.016289</ele>
        <time>2024-07-28T08:37:23.000Z</time>
      </trkpt>
      <trkpt lat="39.317332" lon="-120.437862">
        <ele>1858.668468</ele>
        <time>2024-07-28T08:37:27.000Z</time>
      </trkpt>
      <trkpt lat="39.317479" lon="-120.437473">
        <ele>1859.13794</ele>
        <time>2024-07-28T08:37:31.000Z</time>
      </trkpt>
      <trkpt lat="39.317641" lon="-120.437065">
        <ele>1859.616478</ele>
        <time>2024-07-28T08:37:35.000Z</time>
      </trkpt>
      <trkpt lat="39.317865" lon="-120.436502">
        <ele>1860.280908</ele>
        <time>2024-07-28T08:37:40.000Z</time>
      </trkpt>
      <trkpt lat="39.31837" lon="-120.435201">
        <ele>1861.92328</ele>
        <time>2024-07-28T08:37:53.000Z</time>
      </trkpt>
      <trkpt lat="39.318445" lon="-120.435041">
        <ele>1862.141837</ele>
        <time>2024-07-28T08:37:55.000Z</time>
      </trkpt>
      <trkpt lat="39.318554" lon="-120.434748">
        <ele>1862.550213</ele>
        <time>2024-07-28T08:37:58.000Z</time>
      </trkpt>
      <trkpt lat="39.319262" lon="-120.433057">
        <ele>1865.227331</ele>
        <time>2024-07-28T08:38:15.000Z</time>
      </trkpt>
      <trkpt lat="39.319332" lon="-120.432862">
        <ele>1865.602447</ele>
        <time>2024-07-28T08:38:17.000Z</time>
      </trkpt>
      <trkpt lat="39.319501" lon="-120.43245">
        <ele>1866.37158</ele>
        <time>2024-07-28T08:38:21.000Z</time>
      </trkpt>
      <trkpt lat="39.319721" lon="-120.431904">
        <ele>1867.429079</ele>
        <time>2024-07-28T08:38:26.000Z</time>
      </trkpt>
      <trkpt lat="39.319781" lon="-120.431755">
        <ele>1867.679127</ele>
        <time>2024-07-28T08:38:27.000Z</time>
      </trkpt>
      <trkpt lat="39.32006" lon="-120.431028">
        <ele>1869.355638</ele>
        <time>2024-07-28T08:38:34.000Z</time>
      </trkpt>
      <trkpt lat="39.320108" lon="-120.430951">
        <ele>1869.563439</ele>
        <time>2024-07-28T08:38:35.000Z</time>
      </trkpt>
      <trkpt lat="39.320153" lon="-120.43081">
        <ele>1869.895185</ele>
        <time>2024-07-28T08:38:36.000Z</time>
      </trkpt>
      <trkpt lat="39.32017" lon="-120.43078">
        <ele>1869.960548</ele>
        <time>2024-07-28T08:38:36.000Z</time>
      </trkpt>
      <trkpt lat="39.320328" lon="-120.430374">
        <ele>1870.913211</ele>
        <time>2024-07-28T08:38:40.000Z</time>
      </trkpt>
      <trkpt lat="39.320672" lon="-120.429514">
        <ele>1872.967615</ele>
        <time>2024-07-28T08:38:48.000Z</time>
      </trkpt>
      <trkpt lat="39.320714" lon="-120.429441">
        <ele>1873.21784</ele>
        <time>2024-07-28T08:38:49.000Z</time>
      </trkpt>
      <trkpt lat="39.32112" lon="-120.428517">
        <ele>1875.892803</ele>
        <time>2024-07-28T08:38:58.000Z</time>
      </trkpt>
      <trkpt lat="39.321482" lon="-120.42792">
        <ele>1877.802638</ele>
        <time>2024-07-28T08:39:05.000Z</time>
      </trkpt>
      <trkpt lat="39.323538" lon="-120.425097">
        <ele>1889.97681</ele>
        <time>2024-07-28T08:39:38.000Z</time>
      </trkpt>
      <trkpt lat="39.323896" lon="-120.424583">
        <ele>1892.427261</ele>
        <time>2024-07-28T08:39:44.000Z</time>
      </trkpt>
      <trkpt lat="39.32408" lon="-120.424216">
        <ele>1894.061811</ele>
        <time>2024-07-28T08:39:48.000Z</time>
      </trkpt>
      <trkpt lat="39.324318" lon="-120.423734">
        <ele>1896.555849</ele>
        <time>2024-07-28T08:39:53.000Z</time>
      </trkpt>
      <trkpt lat="39.324471" lon="-120.423255">
        <ele>1898.81788</ele>
        <time>2024-07-28T08:39:57.000Z</time>
      </trkpt>
      <trkpt lat="39.324603" lon="-120.422804">
        <ele>1900.908925</ele>
        <time>2024-07-28T08:40:01.000Z</time>
      </trkpt>
      <trkpt lat="39.324897" lon="-120.42131">
        <ele>1908.310423</ele>
        <time>2024-07-28T08:40:14.000Z</time>
      </trkpt>
      <trkpt lat="39.325241" lon="-120.419297">
        <ele>1918.712173</ele>
        <time>2024-07-28T08:40:32.000Z</time>
      </trkpt>
      <trkpt lat="39.325306" lon="-120.418736">
        <ele>1921.650719</ele>
        <time>2024-07-28T08:40:37.000Z</time>
      </trkpt>
      <trkpt lat="39.325336" lon="-120.417672">
        <ele>1926.977566</ele>
        <time>2024-07-28T08:40:46.000Z</time>
      </trkpt>
      <trkpt lat="39.325317" lon="-120.417086">
        <ele>1929.724043</ele>
        <time>2024-07-28T08:40:51.000Z</time>
      </trkpt>
      <trkpt lat="39.325257" lon="-120.416478">
        <ele>1932.548027</ele>
        <time>2024-07-28T08:40:56.000Z</time>
      </trkpt>
      <trkpt lat="39.325203" lon="-120.415906">
        <ele>1935.149994</ele>
        <time>2024-07-28T08:41:01.000Z</time>
      </trkpt>
      <trkpt lat="39.324531" lon="-120.411628">
        <ele>1954.449107</ele>
        <time>2024-07-28T08:41:39.000Z</time>
      </trkpt>
      <trkpt lat="39.324414" lon="-120.410953">
        <ele>1957.242316</ele>
        <time>2024-07-28T08:41:45.000Z</time>
      </trkpt>
      <trkpt lat="39.324298" lon="-120.410537">
        <ele>1958.941954</ele>
        <time>2024-07-28T08:41:49.000Z</time>
      </trkpt>
      <trkpt lat="39.324136" lon="-120.410061">
        <ele>1960.682729</ele>
        <time>2024-07-28T08:41:53.000Z</time>
      </trkpt>
      <trkpt lat="39.323548" lon="-120.408505">
        <ele>1966.834644</ele>
        <time>2024-07-28T08:42:08.000Z</time>
      </trkpt>
      <trkpt lat="39.323205" lon="-120.407491">
        <ele>1971.822153</ele>
        <time>2024-07-28T08:42:18.000Z</time>
      </trkpt>
      <trkpt lat="39.323096" lon="-120.407057">
        <ele>1973.898028</ele>
        <time>2024-07-28T08:42:22.000Z</time>
      </trkpt>
      <trkpt lat="39.323028" lon="-120.406553">
        <ele>1976.157638</ele>
        <time>2024-07-28T08:42:26.000Z</time>
      </trkpt>
      <trkpt lat="39.322973" lon="-120.405928">
        <ele>1978.735564</ele>
        <time>2024-07-28T08:42:31.000Z</time>
      </trkpt>
      <trkpt lat="39.322966" lon="-120.405446">
        <ele>1980.639393</ele>
        <time>2024-07-28T08:42:35.000Z</time>
      </trkpt>
      <trkpt lat="39.323002" lon="-120.404947">
        <ele>1982.631703</ele>
        <time>2024-07-28T08:42:39.000Z</time>
      </trkpt>
      <trkpt lat="39.323138" lon="-120.403991">
        <ele>1986.355931</ele>
        <time>2024-07-28T08:42:47.000Z</time>
      </trkpt>
      <trkpt lat="39.323946" lon="-120.401209">
        <ele>1995.999953</ele>
        <time>2024-07-28T08:43:13.000Z</time>
      </trkpt>
      <trkpt lat="39.324274" lon="-120.399692">
        <ele>2001.118381</ele>
        <time>2024-07-28T08:43:27.000Z</time>
      </trkpt>
      <trkpt lat="39.324885" lon="-120.396796">
        <ele>2011.513067</ele>
        <time>2024-07-28T08:43:53.000Z</time>
      </trkpt>
      <trkpt lat="39.324949" lon="-120.396544">
        <ele>2012.384828</ele>
        <time>2024-07-28T08:43:55.000Z</time>
      </trkpt>
      <trkpt lat="39.325052" lon="-120.396296">
        <ele>2013.38892</ele>
        <time>2024-07-28T08:43:57.000Z</time>
      </trkpt>
      <trkpt lat="39.32514" lon="-120.396106">
        <ele>2014.128618</ele>
        <time>2024-07-28T08:43:59.000Z</time>
      </trkpt>
      <trkpt lat="39.325633" lon="-120.395198">
        <ele>2018.219226</ele>
        <time>2024-07-28T08:44:09.000Z</time>
      </trkpt>
      <trkpt lat="39.325703" lon="-120.394968">
        <ele>2019.312927</ele>
        <time>2024-07-28T08:44:11.000Z</time>
      </trkpt>
      <trkpt lat="39.325769" lon="-120.394729">
        <ele>2020.475749</ele>
        <time>2024-07-28T08:44:13.000Z</time>
      </trkpt>
      <trkpt lat="39.325824" lon="-120.394214">
        <ele>2022.730971</ele>
        <time>2024-07-28T08:44:17.000Z</time>
      </trkpt>
      <trkpt lat="39.325756" lon="-120.393691">
        <ele>2025.09217</ele>
        <time>2024-07-28T08:44:22.000Z</time>
      </trkpt>
      <trkpt lat="39.325598" lon="-120.393236">
        <ele>2027.329484</ele>
        <time>2024-07-28T08:44:26.000Z</time>
      </trkpt>
      <trkpt lat="39.325503" lon="-120.393038">
        <ele>2028.373832</ele>
        <time>2024-07-28T08:44:28.000Z</time>
      </trkpt>
      <trkpt lat="39.325097" lon="-120.391939">
        <ele>2033.808448</ele>
        <time>2024-07-28T08:44:38.000Z</time>
      </trkpt>
      <trkpt lat="39.324951" lon="-120.39154">
        <ele>2035.806131</ele>
        <time>2024-07-28T08:44:42.000Z</time>
      </trkpt>
      <trkpt lat="39.324888" lon="-120.391149">
        <ele>2037.587329</ele>
        <time>2024-07-28T08:44:45.000Z</time>
      </trkpt>
      <trkpt lat="39.324902" lon="-120.390872">
        <ele>2038.158154</ele>
        <time>2024-07-28T08:44:47.000Z</time>
      </trkpt>
      <trkpt lat="39.324983" lon="-120.389967">
        <ele>2039.499575</ele>
        <time>2024-07-28T08:44:55.000Z</time>
      </trkpt>
      <trkpt lat="39.325004" lon="-120.389724">
        <ele>2039.872176</ele>
        <time>2024-07-28T08:44:57.000Z</time>
      </trkpt>
      <trkpt lat="39.325041" lon="-120.38945">
        <ele>2040.299345</ele>
        <time>2024-07-28T08:44:59.000Z</time>
      </trkpt>
      <trkpt lat="39.32512" lon="-120.388847">
        <ele>2041.198265</ele>
        <time>2024-07-28T08:45:04.000Z</time>
      </trkpt>
      <trkpt lat="39.325263" lon="-120.387498">
        <ele>2041.503167</ele>
        <time>2024-07-28T08:45:16.000Z</time>
      </trkpt>
      <trkpt lat="39.325277" lon="-120.386828">
        <ele>2041.621176</ele>
        <time>2024-07-28T08:45:22.000Z</time>
      </trkpt>
      <trkpt lat="39.325247" lon="-120.386498">
        <ele>2041.678349</ele>
        <time>2024-07-28T08:45:25.000Z</time>
      </trkpt>
      <trkpt lat="39.325181" lon="-120.386125">
        <ele>2042.283283</ele>
        <time>2024-07-28T08:45:28.000Z</time>
      </trkpt>
      <trkpt lat="39.325094" lon="-120.385785">
        <ele>2042.896431</ele>
        <time>2024-07-28T08:45:31.000Z</time>
      </trkpt>
      <trkpt lat="39.324497" lon="-120.384132">
        <ele>2046.133183</ele>
        <time>2024-07-28T08:45:47.000Z</time>
      </trkpt>
      <trkpt lat="39.324452" lon="-120.384016">
        <ele>2046.540399</ele>
        <time>2024-07-28T08:45:48.000Z</time>
      </trkpt>
      <trkpt lat="39.324253" lon="-120.383488">
        <ele>2048.2249</ele>
        <time>2024-07-28T08:45:53.000Z</time>
      </trkpt>
      <trkpt lat="39.323623" lon="-120.381783">
        <ele>2053.815267</ele>
        <time>2024-07-28T08:46:09.000Z</time>
      </trkpt>
      <trkpt lat="39.323527" lon="-120.381388">
        <ele>2055.125265</ele>
        <time>2024-07-28T08:46:13.000Z</time>
      </trkpt>
      <trkpt lat="39.323465" lon="-120.38104">
        <ele>2056.226469</ele>
        <time>2024-07-28T08:46:16.000Z</time>
      </trkpt>
      <trkpt lat="39.323434" lon="-120.380689">
        <ele>2057.356995</ele>
        <time>2024-07-28T08:46:19.000Z</time>
      </trkpt>
      <trkpt lat="39.32347" lon="-120.379909">
        <ele>2059.706467</ele>
        <time>2024-07-28T08:46:26.000Z</time>
      </trkpt>
      <trkpt lat="39.323503" lon="-120.37932">
        <ele>2060.882206</ele>
        <time>2024-07-28T08:46:31.000Z</time>
      </trkpt>
      <trkpt lat="39.323865" lon="-120.374943">
        <ele>2068.942075</ele>
        <time>2024-07-28T08:47:09.000Z</time>
      </trkpt>
      <trkpt lat="39.32406" lon="-120.372638">
        <ele>2072.66958</ele>
        <time>2024-07-28T08:47:29.000Z</time>
      </trkpt>
      <trkpt lat="39.324074" lon="-120.371882">
        <ele>2073.818153</ele>
        <time>2024-07-28T08:47:36.000Z</time>
      </trkpt>
      <trkpt lat="39.324061" lon="-120.371508">
        <ele>2074.385057</ele>
        <time>2024-07-28T08:47:39.000Z</time>
      </trkpt>
      <trkpt lat="39.324026" lon="-120.371139">
        <ele>2074.935234</ele>
        <time>2024-07-28T08:47:42.000Z</time>
      </trkpt>
      <trkpt lat="39.323964" lon="-120.370765">
        <ele>2075.522241</ele>
        <time>2024-07-28T08:47:45.000Z</time>
      </trkpt>
      <trkpt lat="39.323836" lon="-120.370305">
        <ele>2076.762345</ele>
        <time>2024-07-28T08:47:49.000Z</time>
      </trkpt>
      <trkpt lat="39.323691" lon="-120.369818">
        <ele>2078.11336</ele>
        <time>2024-07-28T08:47:53.000Z</time>
      </trkpt>
      <trkpt lat="39.323543" lon="-120.369456">
        <ele>2079.18479</ele>
        <time>2024-07-28T08:47:57.000Z</time>
      </trkpt>
      <trkpt lat="39.323038" lon="-120.368459">
        <ele>2082.741078</ele>
        <time>2024-07-28T08:48:07.000Z</time>
      </trkpt>
      <trkpt lat="39.32151" lon="-120.365591">
        <ele>2096.876309</ele>
        <time>2024-07-28T08:48:37.000Z</time>
      </trkpt>
      <trkpt lat="39.321132" lon="-120.364998">
        <ele>2099.707858</ele>
        <time>2024-07-28T08:48:44.000Z</time>
      </trkpt>
      <trkpt lat="39.320579" lon="-120.364245">
        <ele>2101.478324</ele>
        <time>2024-07-28T08:48:53.000Z</time>
      </trkpt>
      <trkpt lat="39.320345" lon="-120.363783">
        <ele>2102.255389</ele>
        <time>2024-07-28T08:48:58.000Z</time>
      </trkpt>
      <trkpt lat="39.320145" lon="-120.363229">
        <ele>2103.116927</ele>
        <time>2024-07-28T08:49:03.000Z</time>
      </trkpt>
      <trkpt lat="39.318425" lon="-120.357216">
        <ele>2110.797586</ele>
        <time>2024-07-28T08:49:58.000Z</time>
      </trkpt>
      <trkpt lat="39.318146" lon="-120.356571">
        <ele>2111.678102</ele>
        <time>2024-07-28T08:50:04.000Z</time>
      </trkpt>
      <trkpt lat="39.317784" lon="-120.355962">
        <ele>2112.410404</ele>
        <time>2024-07-28T08:50:11.000Z</time>
      </trkpt>
      <trkpt lat="39.317678" lon="-120.355702">
        <ele>2112.691471</ele>
        <time>2024-07-28T08:50:14.000Z</time>
      </trkpt>
      <trkpt lat="39.317463" lon="-120.35508">
        <ele>2113.327923</ele>
        <time>2024-07-28T08:50:20.000Z</time>
      </trkpt>
      <trkpt lat="39.317403" lon="-120.354737">
        <ele>2113.671056</ele>
        <time>2024-07-28T08:50:23.000Z</time>
      </trkpt>
      <trkpt lat="39.317373" lon="-120.354454">
        <ele>2113.934317</ele>
        <time>2024-07-28T08:50:25.000Z</time>
      </trkpt>
      <trkpt lat="39.317366" lon="-120.354126">
        <ele>2114.513515</ele>
        <time>2024-07-28T08:50:28.000Z</time>
      </trkpt>
      <trkpt lat="39.317401" lon="-120.353662">
        <ele>2115.329305</ele>
        <time>2024-07-28T08:50:32.000Z</time>
      </trkpt>
      <trkpt lat="39.317436" lon="-120.353158">
        <ele>2116.199863</ele>
        <time>2024-07-28T08:50:36.000Z</time>
      </trkpt>
      <trkpt lat="39.317451" lon="-120.352738">
        <ele>2116.955253</ele>
        <time>2024-07-28T08:50:40.000Z</time>
      </trkpt>
      <trkpt lat="39.317374" lon="-120.352106">
        <ele>2118.085031</ele>
        <time>2024-07-28T08:50:46.000Z</time>
      </trkpt>
      <trkpt lat="39.317194" lon="-120.351403">
        <ele>2119.834825</ele>
        <time>2024-07-28T08:50:52.000Z</time>
      </trkpt>
      <trkpt lat="39.316623" lon="-120.349981">
        <ele>2123.599721</ele>
        <time>2024-07-28T08:51:06.000Z</time>
      </trkpt>
      <trkpt lat="39.316432" lon="-120.349525">
        <ele>2124.507122</ele>
        <time>2024-07-28T08:51:10.000Z</time>
      </trkpt>
      <trkpt lat="39.31602" lon="-120.34848">
        <ele>2126.62417</ele>
        <time>2024-07-28T08:51:20.000Z</time>
      </trkpt>
      <trkpt lat="39.314361" lon="-120.342811">
        <ele>2137.777928</ele>
        <time>2024-07-28T08:52:12.000Z</time>
      </trkpt>
      <trkpt lat="39.314128" lon="-120.341886">
        <ele>2139.838063</ele>
        <time>2024-07-28T08:52:20.000Z</time>
      </trkpt>
      <trkpt lat="39.31397" lon="-120.341039">
        <ele>2141.25697</ele>
        <time>2024-07-28T08:52:27.000Z</time>
      </trkpt>
      <trkpt lat="39.31393" lon="-120.340809">
        <ele>2141.455872</ele>
        <time>2024-07-28T08:52:29.000Z</time>
      </trkpt>
      <trkpt lat="39.313897" lon="-120.340616">
        <ele>2141.629028</ele>
        <time>2024-07-28T08:52:31.000Z</time>
      </trkpt>
      <trkpt lat="39.313883" lon="-120.340407">
        <ele>2141.823652</ele>
        <time>2024-07-28T08:52:33.000Z</time>
      </trkpt>
      <trkpt lat="39.313854" lon="-120.34023">
        <ele>2141.970497</ele>
        <time>2024-07-28T08:52:35.000Z</time>
      </trkpt>
      <trkpt lat="39.31384" lon="-120.340022">
        <ele>2142.149493</ele>
        <time>2024-07-28T08:52:37.000Z</time>
      </trkpt>
      <trkpt lat="39.313831" lon="-120.339823">
        <ele>2142.327386</ele>
        <time>2024-07-28T08:52:39.000Z</time>
      </trkpt>
      <trkpt lat="39.313827" lon="-120.339667">
        <ele>2142.467916</ele>
        <time>2024-07-28T08:52:40.000Z</time>
      </trkpt>
      <trkpt lat="39.313811" lon="-120.339601">
        <ele>2142.519714</ele>
        <time>2024-07-28T08:52:41.000Z</time>
      </trkpt>
      <trkpt lat="39.313807" lon="-120.339534">
        <ele>2142.582894</ele>
        <time>2024-07-28T08:52:42.000Z</time>
      </trkpt>
      <trkpt lat="39.313818" lon="-120.339609">
        <ele>2142.646057</ele>
        <time>2024-07-28T08:52:43.000Z</time>
      </trkpt>
      <trkpt lat="39.313824" lon="-120.339677">
        <ele>2142.697846</ele>
        <time>2024-07-28T08:52:44.000Z</time>
      </trkpt>
      <trkpt lat="39.313823" lon="-120.339828">
        <ele>2142.838381</ele>
        <time>2024-07-28T08:52:45.000Z</time>
      </trkpt>
      <trkpt lat="39.313836" lon="-120.340035">
        <ele>2142.958114</ele>
        <time>2024-07-28T08:52:47.000Z</time>
      </trkpt>
      <trkpt lat="39.313859" lon="-120.34023">
        <ele>2142.597586</ele>
        <time>2024-07-28T08:52:49.000Z</time>
      </trkpt>
      <trkpt lat="39.313875" lon="-120.340408">
        <ele>2142.301816</ele>
        <time>2024-07-28T08:52:51.000Z</time>
      </trkpt>
      <trkpt lat="39.313911" lon="-120.340612">
        <ele>2141.909795</ele>
        <time>2024-07-28T08:52:53.000Z</time>
      </trkpt>
      <trkpt lat="39.313933" lon="-120.340816">
        <ele>2141.561033</ele>
        <time>2024-07-28T08:52:55.000Z</time>
      </trkpt>
      <trkpt lat="39.313971" lon="-120.341045">
        <ele>2141.16043</ele>
        <time>2024-07-28T08:52:57.000Z</time>
      </trkpt>
      <trkpt lat="39.314125" lon="-120.341884">
        <ele>2139.627606</ele>
        <time>2024-07-28T08:53:04.000Z</time>
      </trkpt>
      <trkpt lat="39.314366" lon="-120.342811">
        <ele>2137.844305</ele>
        <time>2024-07-28T08:53:12.000Z</time>
      </trkpt>
      <trkpt lat="39.316021" lon="-120.348472">
        <ele>2126.710746</ele>
        <time>2024-07-28T08:54:04.000Z</time>
      </trkpt>
      <trkpt lat="39.316432" lon="-120.349536">
        <ele>2124.381239</ele>
        <time>2024-07-28T08:54:14.000Z</time>
      </trkpt>
      <trkpt lat="39.316614" lon="-120.349975">
        <ele>2123.332773</ele>
        <time>2024-07-28T08:54:18.000Z</time>
      </trkpt>
      <trkpt lat="39.317187" lon="-120.351411">
        <ele>2119.891457</ele>
        <time>2024-07-28T08:54:32.000Z</time>
      </trkpt>
      <trkpt lat="39.31737" lon="-120.352119">
        <ele>2118.224505</ele>
        <time>2024-07-28T08:54:38.000Z</time>
      </trkpt>
      <trkpt lat="39.31745" lon="-120.352735">
        <ele>2116.801618</ele>
        <time>2024-07-28T08:54:43.000Z</time>
      </trkpt>
      <trkpt lat="39.317439" lon="-120.353173">
        <ele>2115.939313</ele>
        <time>2024-07-28T08:54:47.000Z</time>
      </trkpt>
      <trkpt lat="39.317401" lon="-120.35365">
        <ele>2115.311305</ele>
        <time>2024-07-28T08:54:51.000Z</time>
      </trkpt>
      <trkpt lat="39.317368" lon="-120.354121">
        <ele>2114.722822</ele>
        <time>2024-07-28T08:54:55.000Z</time>
      </trkpt>
      <trkpt lat="39.317371" lon="-120.354461">
        <ele>2114.298604</ele>
        <time>2024-07-28T08:54:58.000Z</time>
      </trkpt>
      <trkpt lat="39.317398" lon="-120.354725">
        <ele>2113.941448</ele>
        <time>2024-07-28T08:55:00.000Z</time>
      </trkpt>
      <trkpt lat="39.317455" lon="-120.355094">
        <ele>2113.475907</ele>
        <time>2024-07-28T08:55:03.000Z</time>
      </trkpt>
      <trkpt lat="39.317675" lon="-120.355706">
        <ele>2112.694124</ele>
        <time>2024-07-28T08:55:09.000Z</time>
      </trkpt>
      <trkpt lat="39.317787" lon="-120.355976">
        <ele>2112.375449</ele>
        <time>2024-07-28T08:55:12.000Z</time>
      </trkpt>
      <trkpt lat="39.318156" lon="-120.356571">
        <ele>2111.566455</ele>
        <time>2024-07-28T08:55:19.000Z</time>
      </trkpt>
      <trkpt lat="39.318424" lon="-120.357216">
        <ele>2110.78569</ele>
        <time>2024-07-28T08:55:25.000Z</time>
      </trkpt>
      <trkpt lat="39.32016" lon="-120.363228">
        <ele>2103.212183</ele>
        <time>2024-07-28T08:56:20.000Z</time>
      </trkpt>
      <trkpt lat="39.32035" lon="-120.363785">
        <ele>2102.519944</ele>
        <time>2024-07-28T08:56:25.000Z</time>
      </trkpt>
      <trkpt lat="39.320573" lon="-120.364252">
        <ele>2101.416455</ele>
        <time>2024-07-28T08:56:30.000Z</time>
      </trkpt>
      <trkpt lat="39.321135" lon="-120.365012">
        <ele>2099.147043</ele>
        <time>2024-07-28T08:56:39.000Z</time>
      </trkpt>
      <trkpt lat="39.321524" lon="-120.365586">
        <ele>2097.480903</ele>
        <time>2024-07-28T08:56:46.000Z</time>
      </trkpt>
      <trkpt lat="39.323037" lon="-120.368458">
        <ele>2083.118904</ele>
        <time>2024-07-28T08:57:16.000Z</time>
      </trkpt>
      <trkpt lat="39.323553" lon="-120.369462">
        <ele>2078.589818</ele>
        <time>2024-07-28T08:57:26.000Z</time>
      </trkpt>
      <trkpt lat="39.323693" lon="-120.369828">
        <ele>2077.758744</ele>
        <time>2024-07-28T08:57:30.000Z</time>
      </trkpt>
      <trkpt lat="39.323845" lon="-120.370314">
        <ele>2076.774948</ele>
        <time>2024-07-28T08:57:35.000Z</time>
      </trkpt>
      <trkpt lat="39.323951" lon="-120.370781">
        <ele>2075.860454</ele>
        <time>2024-07-28T08:57:39.000Z</time>
      </trkpt>
      <trkpt lat="39.324017" lon="-120.371145">
        <ele>2075.134687</ele>
        <time>2024-07-28T08:57:42.000Z</time>
      </trkpt>
      <trkpt lat="39.324055" lon="-120.371511">
        <ele>2074.454449</ele>
        <time>2024-07-28T08:57:45.000Z</time>
      </trkpt>
      <trkpt lat="39.324072" lon="-120.371885">
        <ele>2073.815322</ele>
        <time>2024-07-28T08:57:48.000Z</time>
      </trkpt>
      <trkpt lat="39.324048" lon="-120.372635">
        <ele>2072.644276</ele>
        <time>2024-07-28T08:57:54.000Z</time>
      </trkpt>
      <trkpt lat="39.32386" lon="-120.374944">
        <ele>2068.926971</ele>
        <time>2024-07-28T08:58:14.000Z</time>
      </trkpt>
      <trkpt lat="39.323517" lon="-120.379327">
        <ele>2060.805113</ele>
        <time>2024-07-28T08:58:52.000Z</time>
      </trkpt>
      <trkpt lat="39.323474" lon="-120.379892">
        <ele>2059.346362</ele>
        <time>2024-07-28T08:58:57.000Z</time>
      </trkpt>
      <trkpt lat="39.323434" lon="-120.380683">
        <ele>2057.359602</ele>
        <time>2024-07-28T08:59:04.000Z</time>
      </trkpt>
      <trkpt lat="39.323461" lon="-120.381039">
        <ele>2056.382149</ele>
        <time>2024-07-28T08:59:07.000Z</time>
      </trkpt>
      <trkpt lat="39.323517" lon="-120.38139">
        <ele>2055.252727</ele>
        <time>2024-07-28T08:59:10.000Z</time>
      </trkpt>
      <trkpt lat="39.32362" lon="-120.381775">
        <ele>2053.909137</ele>
        <time>2024-07-28T08:59:14.000Z</time>
      </trkpt>
      <trkpt lat="39.324256" lon="-120.383486">
        <ele>2048.150473</ele>
        <time>2024-07-28T08:59:30.000Z</time>
      </trkpt>
      <trkpt lat="39.324456" lon="-120.38401">
        <ele>2046.710092</ele>
        <time>2024-07-28T08:59:35.000Z</time>
      </trkpt>
      <trkpt lat="39.324489" lon="-120.384133">
        <ele>2046.361896</ele>
        <time>2024-07-28T08:59:36.000Z</time>
      </trkpt>
      <trkpt lat="39.325094" lon="-120.38577">
        <ele>2042.881762</ele>
        <time>2024-07-28T08:59:52.000Z</time>
      </trkpt>
      <trkpt lat="39.325177" lon="-120.386132">
        <ele>2042.539025</ele>
        <time>2024-07-28T08:59:55.000Z</time>
      </trkpt>
      <trkpt lat="39.325256" lon="-120.386504">
        <ele>2042.188497</ele>
        <time>2024-07-28T08:59:58.000Z</time>
      </trkpt>
      <trkpt lat="39.325278" lon="-120.386826">
        <ele>2041.892821</ele>
        <time>2024-07-28T09:00:01.000Z</time>
      </trkpt>
      <trkpt lat="39.325271" lon="-120.387507">
        <ele>2041.323187</ele>
        <time>2024-07-28T09:00:07.000Z</time>
      </trkpt>
      <trkpt lat="39.325119" lon="-120.38885">
        <ele>2040.960695</ele>
        <time>2024-07-28T09:00:19.000Z</time>
      </trkpt>
      <trkpt lat="39.325039" lon="-120.389449">
        <ele>2040.800771</ele>
        <time>2024-07-28T09:00:24.000Z</time>
      </trkpt>
      <trkpt lat="39.325009" lon="-120.389728">
        <ele>2040.724792</ele>
        <time>2024-07-28T09:00:26.000Z</time>
      </trkpt>
      <trkpt lat="39.324978" lon="-120.389974">
        <ele>2040.03462</ele>
        <time>2024-07-28T09:00:28.000Z</time>
      </trkpt>
      <trkpt lat="39.324902" lon="-120.390862">
        <ele>2037.472527</ele>
        <time>2024-07-28T09:00:36.000Z</time>
      </trkpt>
      <trkpt lat="39.324895" lon="-120.391144">
        <ele>2036.654219</ele>
        <time>2024-07-28T09:00:38.000Z</time>
      </trkpt>
      <trkpt lat="39.324947" lon="-120.391539">
        <ele>2035.523674</ele>
        <time>2024-07-28T09:00:41.000Z</time>
      </trkpt>
      <trkpt lat="39.325093" lon="-120.391947">
        <ele>2034.255717</ele>
        <time>2024-07-28T09:00:45.000Z</time>
      </trkpt>
      <trkpt lat="39.32551" lon="-120.393037">
        <ele>2028.467378</ele>
        <time>2024-07-28T09:00:55.000Z</time>
      </trkpt>
      <trkpt lat="39.325589" lon="-120.393235">
        <ele>2027.332641</ele>
        <time>2024-07-28T09:00:57.000Z</time>
      </trkpt>
      <trkpt lat="39.325753" lon="-120.3937">
        <ele>2024.875671</ele>
        <time>2024-07-28T09:01:01.000Z</time>
      </trkpt>
      <trkpt lat="39.325813" lon="-120.39421">
        <ele>2022.379606</ele>
        <time>2024-07-28T09:01:05.000Z</time>
      </trkpt>
      <trkpt lat="39.32577" lon="-120.394715">
        <ele>2020.41638</ele>
        <time>2024-07-28T09:01:09.000Z</time>
      </trkpt>
      <trkpt lat="39.325715" lon="-120.39497">
        <ele>2019.404113</ele>
        <time>2024-07-28T09:01:11.000Z</time>
      </trkpt>
      <trkpt lat="39.325618" lon="-120.395192">
        <ele>2018.45201</ele>
        <time>2024-07-28T09:01:13.000Z</time>
      </trkpt>
      <trkpt lat="39.325131" lon="-120.396111">
        <ele>2014.146379</ele>
        <time>2024-07-28T09:01:23.000Z</time>
      </trkpt>
      <trkpt lat="39.325049" lon="-120.39628">
        <ele>2013.36007</ele>
        <time>2024-07-28T09:01:25.000Z</time>
      </trkpt>
      <trkpt lat="39.324949" lon="-120.396544">
        <ele>2012.349001</ele>
        <time>2024-07-28T09:01:28.000Z</time>
      </trkpt>
      <trkpt lat="39.324876" lon="-120.3968">
        <ele>2011.471184</ele>
        <time>2024-07-28T09:01:30.000Z</time>
      </trkpt>
      <trkpt lat="39.324287" lon="-120.399697">
        <ele>2001.219084</ele>
        <time>2024-07-28T09:01:56.000Z</time>
      </trkpt>
      <trkpt lat="39.323933" lon="-120.401225">
        <ele>1995.969593</ele>
        <time>2024-07-28T09:02:10.000Z</time>
      </trkpt>
      <trkpt lat="39.323146" lon="-120.403998">
        <ele>1986.205905</ele>
        <time>2024-07-28T09:02:35.000Z</time>
      </trkpt>
      <trkpt lat="39.322987" lon="-120.404948">
        <ele>1982.872249</ele>
        <time>2024-07-28T09:02:43.000Z</time>
      </trkpt>
      <trkpt lat="39.322967" lon="-120.405436">
        <ele>1980.779812</ele>
        <time>2024-07-28T09:02:47.000Z</time>
      </trkpt>
      <trkpt lat="39.322977" lon="-120.405932">
        <ele>1978.67541</ele>
        <time>2024-07-28T09:02:51.000Z</time>
      </trkpt>
      <trkpt lat="39.323027" lon="-120.406559">
        <ele>1975.902921</ele>
        <time>2024-07-28T09:02:56.000Z</time>
      </trkpt>
      <trkpt lat="39.323091" lon="-120.407039">
        <ele>1973.719321</ele>
        <time>2024-07-28T09:03:00.000Z</time>
      </trkpt>
      <trkpt lat="39.323203" lon="-120.407477">
        <ele>1971.744748</ele>
        <time>2024-07-28T09:03:04.000Z</time>
      </trkpt>
      <trkpt lat="39.323541" lon="-120.408491">
        <ele>1967.178779</ele>
        <time>2024-07-28T09:03:14.000Z</time>
      </trkpt>
      <trkpt lat="39.324149" lon="-120.410066">
        <ele>1960.46365</ele>
        <time>2024-07-28T09:03:29.000Z</time>
      </trkpt>
      <trkpt lat="39.324286" lon="-120.410532">
        <ele>1958.751536</ele>
        <time>2024-07-28T09:03:33.000Z</time>
      </trkpt>
      <trkpt lat="39.324417" lon="-120.410959">
        <ele>1957.21551</ele>
        <time>2024-07-28T09:03:37.000Z</time>
      </trkpt>
      <trkpt lat="39.324533" lon="-120.411636">
        <ele>1954.863692</ele>
        <time>2024-07-28T09:03:43.000Z</time>
      </trkpt>
      <trkpt lat="39.325193" lon="-120.415902">
        <ele>1935.139641</ele>
        <time>2024-07-28T09:04:20.000Z</time>
      </trkpt>
      <trkpt lat="39.325272" lon="-120.416465">
        <ele>1932.498856</ele>
        <time>2024-07-28T09:04:25.000Z</time>
      </trkpt>
      <trkpt lat="39.325329" lon="-120.41709">
        <ele>1929.621017</ele>
        <time>2024-07-28T09:04:30.000Z</time>
      </trkpt>
      <trkpt lat="39.32534" lon="-120.417672">
        <ele>1926.869945</ele>
        <time>2024-07-28T09:04:35.000Z</time>
      </trkpt>
      <trkpt lat="39.325306" lon="-120.418721">
        <ele>1921.840298</ele>
        <time>2024-07-28T09:04:44.000Z</time>
      </trkpt>
      <trkpt lat="39.325236" lon="-120.419296">
        <ele>1918.786728</ele>
        <time>2024-07-28T09:04:49.000Z</time>
      </trkpt>
      <trkpt lat="39.324893" lon="-120.421311">
        <ele>1908.27114</ele>
        <time>2024-07-28T09:05:07.000Z</time>
      </trkpt>
      <trkpt lat="39.324587" lon="-120.422801">
        <ele>1900.88351</ele>
        <time>2024-07-28T09:05:20.000Z</time>
      </trkpt>
      <trkpt lat="39.324479" lon="-120.423262">
        <ele>1898.749418</ele>
        <time>2024-07-28T09:05:24.000Z</time>
      </trkpt>
      <trkpt lat="39.324309" lon="-120.423731">
        <ele>1896.617099</ele>
        <time>2024-07-28T09:05:28.000Z</time>
      </trkpt>
      <trkpt lat="39.324085" lon="-120.424215">
        <ele>1894.266088</ele>
        <time>2024-07-28T09:05:33.000Z</time>
      </trkpt>
      <trkpt lat="39.323889" lon="-120.424583">
        <ele>1892.439764</ele>
        <time>2024-07-28T09:05:37.000Z</time>
      </trkpt>
      <trkpt lat="39.323536" lon="-120.425086">
        <ele>1889.682151</ele>
        <time>2024-07-28T09:05:43.000Z</time>
      </trkpt>
      <trkpt lat="39.321492" lon="-120.427905">
        <ele>1877.846324</ele>
        <time>2024-07-28T09:06:16.000Z</time>
      </trkpt>
      <trkpt lat="39.321129" lon="-120.42851">
        <ele>1875.719425</ele>
        <time>2024-07-28T09:06:23.000Z</time>
      </trkpt>
      <trkpt lat="39.320708" lon="-120.429429">
        <ele>1873.275022</ele>
        <time>2024-07-28T09:06:32.000Z</time>
      </trkpt>
      <trkpt lat="39.320684" lon="-120.429511">
        <ele>1873.046363</ele>
        <time>2024-07-28T09:06:33.000Z</time>
      </trkpt>
      <trkpt lat="39.320342" lon="-120.430366">
        <ele>1870.837551</ele>
        <time>2024-07-28T09:06:41.000Z</time>
      </trkpt>
      <trkpt lat="39.320168" lon="-120.430771">
        <ele>1869.910323</ele>
        <time>2024-07-28T09:06:45.000Z</time>
      </trkpt>
      <trkpt lat="39.320168" lon="-120.430796">
        <ele>1869.849778</ele>
        <time>2024-07-28T09:06:45.000Z</time>
      </trkpt>
      <trkpt lat="39.320104" lon="-120.430953">
        <ele>1869.542501</ele>
        <time>2024-07-28T09:06:47.000Z</time>
      </trkpt>
      <trkpt lat="39.320076" lon="-120.431031">
        <ele>1869.350022</ele>
        <time>2024-07-28T09:06:48.000Z</time>
      </trkpt>
      <trkpt lat="39.319776" lon="-120.431764">
        <ele>1867.771924</ele>
        <time>2024-07-28T09:06:55.000Z</time>
      </trkpt>
      <trkpt lat="39.31972" lon="-120.431889">
        <ele>1867.485205</ele>
        <time>2024-07-28T09:06:56.000Z</time>
      </trkpt>
      <trkpt lat="39.319497" lon="-120.432462">
        <ele>1866.272623</ele>
        <time>2024-07-28T09:07:02.000Z</time>
      </trkpt>
      <trkpt lat="39.31934" lon="-120.432853">
        <ele>1865.550142</ele>
        <time>2024-07-28T09:07:06.000Z</time>
      </trkpt>
      <trkpt lat="39.319258" lon="-120.433056">
        <ele>1865.21947</ele>
        <time>2024-07-28T09:07:08.000Z</time>
      </trkpt>
      <trkpt lat="39.318561" lon="-120.434737">
        <ele>1862.456021</ele>
        <time>2024-07-28T09:07:24.000Z</time>
      </trkpt>
      <trkpt lat="39.318437" lon="-120.43505">
        <ele>1862.095305</ele>
        <time>2024-07-28T09:07:27.000Z</time>
      </trkpt>
      <trkpt lat="39.318375" lon="-120.435203">
        <ele>1861.902264</ele>
        <time>2024-07-28T09:07:28.000Z</time>
      </trkpt>
      <trkpt lat="39.31786" lon="-120.436508">
        <ele>1860.359141</ele>
        <time>2024-07-28T09:07:41.000Z</time>
      </trkpt>
      <trkpt lat="39.317639" lon="-120.437067">
        <ele>1859.602341</ele>
        <time>2024-07-28T09:07:46.000Z</time>
      </trkpt>
      <trkpt lat="39.317481" lon="-120.437461">
        <ele>1859.030901</ele>
        <time>2024-07-28T09:07:50.000Z</time>
      </trkpt>
      <trkpt lat="39.317329" lon="-120.437873">
        <ele>1858.470278</ele>
        <time>2024-07-28T09:07:54.000Z</time>
      </trkpt>
      <trkpt lat="39.317235" lon="-120.43824">
        <ele>1857.95222</ele>
        <time>2024-07-28T09:07:57.000Z</time>
      </trkpt>
      <trkpt lat="39.317034" lon="-120.439092">
        <ele>1856.702056</ele>
        <time>2024-07-28T09:08:05.000Z</time>
      </trkpt>
      <trkpt lat="39.31671" lon="-120.440937">
        <ele>1853.354946</ele>
        <time>2024-07-28T09:08:21.000Z</time>
      </trkpt>
      <trkpt lat="39.316362" lon="-120.442924">
        <ele>1850.229965</ele>
        <time>2024-07-28T09:08:39.000Z</time>
      </trkpt>
      <trkpt lat="39.316252" lon="-120.443397">
        <ele>1849.536199</ele>
        <time>2024-07-28T09:08:43.000Z</time>
      </trkpt>
      <trkpt lat="39.316122" lon="-120.443814">
        <ele>1849.173209</ele>
        <time>2024-07-28T09:08:47.000Z</time>
      </trkpt>
      <trkpt lat="39.316007" lon="-120.444157">
        <ele>1848.867578</ele>
        <time>2024-07-28T09:08:50.000Z</time>
      </trkpt>
      <trkpt lat="39.315737" lon="-120.444803">
        <ele>1848.280522</ele>
        <time>2024-07-28T09:08:56.000Z</time>
      </trkpt>
      <trkpt lat="39.315365" lon="-120.445467">
        <ele>1847.635009</ele>
        <time>2024-07-28T09:09:03.000Z</time>
      </trkpt>
      <trkpt lat="39.315097" lon="-120.44585">
        <ele>1847.307227</ele>
        <time>2024-07-28T09:09:07.000Z</time>
      </trkpt>
      <trkpt lat="39.314843" lon="-120.446343">
        <ele>1846.934285</ele>
        <time>2024-07-28T09:09:12.000Z</time>
      </trkpt>
      <trkpt lat="39.314619" lon="-120.446932">
        <ele>1846.512069</ele>
        <time>2024-07-28T09:09:18.000Z</time>
      </trkpt>
      <trkpt lat="39.314488" lon="-120.447599">
        <ele>1846.180038</ele>
        <time>2024-07-28T09:09:24.000Z</time>
      </trkpt>
      <trkpt lat="39.314469" lon="-120.448124">
        <ele>1846.059116</ele>
        <time>2024-07-28T09:09:29.000Z</time>
      </trkpt>
      <trkpt lat="39.314541" lon="-120.448862">
        <ele>1845.887819</ele>
        <time>2024-07-28T09:09:35.000Z</time>
      </trkpt>
      <trkpt lat="39.315496" lon="-120.455501">
        <ele>1846.369155</ele>
        <time>2024-07-28T09:10:33.000Z</time>
      </trkpt>
      <trkpt lat="39.31556" lon="-120.455899">
        <ele>1846.40726</ele>
        <time>2024-07-28T09:10:36.000Z</time>
      </trkpt>
      <trkpt lat="39.315852" lon="-120.457907">
        <ele>1846.617666</ele>
        <time>2024-07-28T09:10:54.000Z</time>
      </trkpt>
      <trkpt lat="39.316021" lon="-120.459329">
        <ele>1846.337833</ele>
        <time>2024-07-28T09:11:06.000Z</time>
      </trkpt>
      <trkpt lat="39.316129" lon="-120.461084">
        <ele>1845.147926</ele>
        <time>2024-07-28T09:11:21.000Z</time>
      </trkpt>
      <trkpt lat="39.316135" lon="-120.463199">
        <ele>1840.566142</ele>
        <time>2024-07-28T09:11:39.000Z</time>
      </trkpt>
      <trkpt lat="39.316121" lon="-120.463757">
        <ele>1839.427498</ele>
        <time>2024-07-28T09:11:44.000Z</time>
      </trkpt>
      <trkpt lat="39.316057" lon="-120.464401">
        <ele>1838.162706</ele>
        <time>2024-07-28T09:11:50.000Z</time>
      </trkpt>
      <trkpt lat="39.315987" lon="-120.464758">
        <ele>1837.415798</ele>
        <time>2024-07-28T09:11:53.000Z</time>
      </trkpt>
      <trkpt lat="39.315848" lon="-120.46523">
        <ele>1836.433718</ele>
        <time>2024-07-28T09:11:57.000Z</time>
      </trkpt>
      <trkpt lat="39.315568" lon="-120.465994">
        <ele>1835.100039</ele>
        <time>2024-07-28T09:12:04.000Z</time>
      </trkpt>
      <trkpt lat="39.315351" lon="-120.466474">
        <ele>1834.501607</ele>
        <time>2024-07-28T09:12:09.000Z</time>
      </trkpt>
      <trkpt lat="39.315152" lon="-120.466964">
        <ele>1833.918511</ele>
        <time>2024-07-28T09:12:14.000Z</time>
      </trkpt>
      <trkpt lat="39.315022" lon="-120.467524">
        <ele>1833.301183</ele>
        <time>2024-07-28T09:12:19.000Z</time>
      </trkpt>
      <trkpt lat="39.314943" lon="-120.467971">
        <ele>1832.739009</ele>
        <time>2024-07-28T09:12:23.000Z</time>
      </trkpt>
      <trkpt lat="39.314831" lon="-120.469743">
        <ele>1830.071971</ele>
        <time>2024-07-28T09:12:38.000Z</time>
      </trkpt>
      <trkpt lat="39.314063" lon="-120.482337">
        <ele>1815.040811</ele>
        <time>2024-07-28T09:14:27.000Z</time>
      </trkpt>
      <trkpt lat="39.313972" lon="-120.483835">
        <ele>1813.74414</ele>
        <time>2024-07-28T09:14:40.000Z</time>
      </trkpt>
      <trkpt lat="39.313823" lon="-120.484707">
        <ele>1812.951124</ele>
        <time>2024-07-28T09:14:48.000Z</time>
      </trkpt>
      <trkpt lat="39.313553" lon="-120.485756">
        <ele>1811.971722</ele>
        <time>2024-07-28T09:14:58.000Z</time>
      </trkpt>
      <trkpt lat="39.312433" lon="-120.489181">
        <ele>1807.721853</ele>
        <time>2024-07-28T09:15:30.000Z</time>
      </trkpt>
      <trkpt lat="39.312317" lon="-120.489604">
        <ele>1807.27193</ele>
        <time>2024-07-28T09:15:34.000Z</time>
      </trkpt>
      <trkpt lat="39.312205" lon="-120.49043">
        <ele>1806.410388</ele>
        <time>2024-07-28T09:15:41.000Z</time>
      </trkpt>
      <trkpt lat="39.312167" lon="-120.491296">
        <ele>1805.810497</ele>
        <time>2024-07-28T09:15:48.000Z</time>
      </trkpt>
      <trkpt lat="39.312213" lon="-120.494556">
        <ele>1804.063038</ele>
        <time>2024-07-28T09:16:16.000Z</time>
      </trkpt>
      <trkpt lat="39.312236" lon="-120.495119">
        <ele>1803.802799</ele>
        <time>2024-07-28T09:16:21.000Z</time>
      </trkpt>
      <trkpt lat="39.312367" lon="-120.495843">
        <ele>1803.421102</ele>
        <time>2024-07-28T09:16:27.000Z</time>
      </trkpt>
      <trkpt lat="39.312772" lon="-120.497183">
        <ele>1802.672804</ele>
        <time>2024-07-28T09:16:39.000Z</time>
      </trkpt>
      <trkpt lat="39.3129" lon="-120.497632">
        <ele>1802.20048</ele>
        <time>2024-07-28T09:16:43.000Z</time>
      </trkpt>
      <trkpt lat="39.312895" lon="-120.497863">
        <ele>1801.872219</ele>
        <time>2024-07-28T09:16:45.000Z</time>
      </trkpt>
      <trkpt lat="39.31287" lon="-120.497997">
        <ele>1801.675248</ele>
        <time>2024-07-28T09:16:46.000Z</time>
      </trkpt>
      <trkpt lat="39.312837" lon="-120.498114">
        <ele>1801.49003</ele>
        <time>2024-07-28T09:16:47.000Z</time>
      </trkpt>
      <trkpt lat="39.312708" lon="-120.498325">
        <ele>1801.126632</ele>
        <time>2024-07-28T09:16:49.000Z</time>
      </trkpt>
      <trkpt lat="39.312374" lon="-120.498638">
        <ele>1800.361776</ele>
        <time>2024-07-28T09:16:54.000Z</time>
      </trkpt>
      <trkpt lat="39.311306" lon="-120.499468">
        <ele>1797.712087</ele>
        <time>2024-07-28T09:17:08.000Z</time>
      </trkpt>
      <trkpt lat="39.310995" lon="-120.499704">
        <ele>1796.875817</ele>
        <time>2024-07-28T09:17:12.000Z</time>
      </trkpt>
      <trkpt lat="39.310949" lon="-120.499783">
        <ele>1796.677946</ele>
        <time>2024-07-28T09:17:13.000Z</time>
      </trkpt>
      <trkpt lat="39.310898" lon="-120.499972">
        <ele>1796.319996</ele>
        <time>2024-07-28T09:17:15.000Z</time>
      </trkpt>
      <trkpt lat="39.310615" lon="-120.502139">
        <ele>1791.62092</ele>
        <time>2024-07-28T09:17:34.000Z</time>
      </trkpt>
      <trkpt lat="39.310562" lon="-120.502745">
        <ele>1790.187182</ele>
        <time>2024-07-28T09:17:39.000Z</time>
      </trkpt>
      <trkpt lat="39.310569" lon="-120.503054">
        <ele>1789.402369</ele>
        <time>2024-07-28T09:17:42.000Z</time>
      </trkpt>
      <trkpt lat="39.310637" lon="-120.50374">
        <ele>1786.657628</ele>
        <time>2024-07-28T09:17:48.000Z</time>
      </trkpt>
      <trkpt lat="39.310862" lon="-120.505095">
        <ele>1781.089995</ele>
        <time>2024-07-28T09:18:00.000Z</time>
      </trkpt>
      <trkpt lat="39.310863" lon="-120.505813">
        <ele>1778.28631</ele>
        <time>2024-07-28T09:18:06.000Z</time>
      </trkpt>
      <trkpt lat="39.310811" lon="-120.506375">
        <ele>1776.098098</ele>
        <time>2024-07-28T09:18:11.000Z</time>
      </trkpt>
      <trkpt lat="39.310437" lon="-120.508094">
        <ele>1770.383149</ele>
        <time>2024-07-28T09:18:26.000Z</time>
      </trkpt>
      <trkpt lat="39.310349" lon="-120.508508">
        <ele>1769.639301</ele>
        <time>2024-07-28T09:18:30.000Z</time>
      </trkpt>
      <trkpt lat="39.310291" lon="-120.508778">
        <ele>1769.137021</ele>
        <time>2024-07-28T09:18:32.000Z</time>
      </trkpt>
      <trkpt lat="39.310267" lon="-120.508941">
        <ele>1768.846522</ele>
        <time>2024-07-28T09:18:33.000Z</time>
      </trkpt>
      <trkpt lat="39.310187" lon="-120.509781">
        <ele>1767.380605</ele>
        <time>2024-07-28T09:18:40.000Z</time>
      </trkpt>
      <trkpt lat="39.310194" lon="-120.510444">
        <ele>1767.55235</ele>
        <time>2024-07-28T09:18:46.000Z</time>
      </trkpt>
      <trkpt lat="39.310277" lon="-120.511471">
        <ele>1768.004574</ele>
        <time>2024-07-28T09:18:55.000Z</time>
      </trkpt>
      <trkpt lat="39.31032" lon="-120.511787">
        <ele>1768.141775</ele>
        <time>2024-07-28T09:18:58.000Z</time>
      </trkpt>
      <trkpt lat="39.310447" lon="-120.51282">
        <ele>1768.791611</ele>
        <time>2024-07-28T09:19:07.000Z</time>
      </trkpt>
      <trkpt lat="39.310444" lon="-120.513433">
        <ele>1769.224683</ele>
        <time>2024-07-28T09:19:12.000Z</time>
      </trkpt>
      <trkpt lat="39.31037" lon="-120.513951">
        <ele>1769.590385</ele>
        <time>2024-07-28T09:19:17.000Z</time>
      </trkpt>
      <trkpt lat="39.310232" lon="-120.514426">
        <ele>1769.950992</ele>
        <time>2024-07-28T09:19:21.000Z</time>
      </trkpt>
      <trkpt lat="39.310062" lon="-120.514853">
        <ele>1769.301879</ele>
        <time>2024-07-28T09:19:25.000Z</time>
      </trkpt>
      <trkpt lat="39.309815" lon="-120.515256">
        <ele>1768.633413</ele>
        <time>2024-07-28T09:19:29.000Z</time>
      </trkpt>
      <trkpt lat="39.309607" lon="-120.515546">
        <ele>1768.101735</ele>
        <time>2024-07-28T09:19:32.000Z</time>
      </trkpt>
      <trkpt lat="39.309374" lon="-120.515772">
        <ele>1767.600904</ele>
        <time>2024-07-28T09:19:35.000Z</time>
      </trkpt>
      <trkpt lat="39.309203" lon="-120.515929">
        <ele>1767.22519</ele>
        <time>2024-07-28T09:19:37.000Z</time>
      </trkpt>
      <trkpt lat="39.308915" lon="-120.516129">
        <ele>1766.380864</ele>
        <time>2024-07-28T09:19:41.000Z</time>
      </trkpt>
      <trkpt lat="39.308049" lon="-120.516623">
        <ele>1762.311356</ele>
        <time>2024-07-28T09:19:52.000Z</time>
      </trkpt>
      <trkpt lat="39.306723" lon="-120.517392">
        <ele>1755.631301</ele>
        <time>2024-07-28T09:20:08.000Z</time>
      </trkpt>
      <trkpt lat="39.306389" lon="-120.517564">
        <ele>1753.885012</ele>
        <time>2024-07-28T09:20:12.000Z</time>
      </trkpt>
      <trkpt lat="39.306362" lon="-120.517589">
        <ele>1753.727329</ele>
        <time>2024-07-28T09:20:12.000Z</time>
      </trkpt>
      <trkpt lat="39.305806" lon="-120.517968">
        <ele>1750.75247</ele>
        <time>2024-07-28T09:20:19.000Z</time>
      </trkpt>
      <trkpt lat="39.305518" lon="-120.518251">
        <ele>1749.414783</ele>
        <time>2024-07-28T09:20:23.000Z</time>
      </trkpt>
      <trkpt lat="39.305341" lon="-120.518496">
        <ele>1748.504357</ele>
        <time>2024-07-28T09:20:26.000Z</time>
      </trkpt>
      <trkpt lat="39.304906" lon="-120.51915">
        <ele>1746.219747</ele>
        <time>2024-07-28T09:20:33.000Z</time>
      </trkpt>
      <trkpt lat="39.304783" lon="-120.519384">
        <ele>1745.486035</ele>
        <time>2024-07-28T09:20:35.000Z</time>
      </trkpt>
      <trkpt lat="39.304388" lon="-120.520108">
        <ele>1744.082914</ele>
        <time>2024-07-28T09:20:43.000Z</time>
      </trkpt>
      <trkpt lat="39.304247" lon="-120.520454">
        <ele>1743.930905</ele>
        <time>2024-07-28T09:20:46.000Z</time>
      </trkpt>
      <trkpt lat="39.304038" lon="-120.521033">
        <ele>1743.675736</ele>
        <time>2024-07-28T09:20:51.000Z</time>
      </trkpt>
      <trkpt lat="39.303943" lon="-120.521447">
        <ele>1743.509244</ele>
        <time>2024-07-28T09:20:55.000Z</time>
      </trkpt>
      <trkpt lat="39.303873" lon="-120.522142">
        <ele>1743.431866</ele>
        <time>2024-07-28T09:21:01.000Z</time>
      </trkpt>
      <trkpt lat="39.303882" lon="-120.523046">
        <ele>1743.766475</ele>
        <time>2024-07-28T09:21:09.000Z</time>
      </trkpt>
      <trkpt lat="39.303991" lon="-120.523778">
        <ele>1744.04544</ele>
        <time>2024-07-28T09:21:15.000Z</time>
      </trkpt>
      <trkpt lat="39.30411" lon="-120.524245">
        <ele>1744.202194</ele>
        <time>2024-07-28T09:21:19.000Z</time>
      </trkpt>
      <trkpt lat="39.30429" lon="-120.524651">
        <ele>1744.18788</ele>
        <time>2024-07-28T09:21:23.000Z</time>
      </trkpt>
      <trkpt lat="39.304509" lon="-120.524974">
        <ele>1744.173925</ele>
        <time>2024-07-28T09:21:27.000Z</time>
      </trkpt>
      <trkpt lat="39.305545" lon="-120.526271">
        <ele>1743.375573</ele>
        <time>2024-07-28T09:21:43.000Z</time>
      </trkpt>
      <trkpt lat="39.305663" lon="-120.526441">
        <ele>1743.035931</ele>
        <time>2024-07-28T09:21:45.000Z</time>
      </trkpt>
      <trkpt lat="39.305851" lon="-120.526854">
        <ele>1742.295703</ele>
        <time>2024-07-28T09:21:49.000Z</time>
      </trkpt>
      <trkpt lat="39.305897" lon="-120.527087">
        <ele>1741.930806</ele>
        <time>2024-07-28T09:21:51.000Z</time>
      </trkpt>
      <trkpt lat="39.305931" lon="-120.527645">
        <ele>1741.103398</ele>
        <time>2024-07-28T09:21:56.000Z</time>
      </trkpt>
      <trkpt lat="39.305905" lon="-120.528085">
        <ele>1740.189664</ele>
        <time>2024-07-28T09:22:00.000Z</time>
      </trkpt>
      <trkpt lat="39.305483" lon="-120.530086">
        <ele>1732.946492</ele>
        <time>2024-07-28T09:22:18.000Z</time>
      </trkpt>
      <trkpt lat="39.305433" lon="-120.53036">
        <ele>1732.08472</ele>
        <time>2024-07-28T09:22:20.000Z</time>
      </trkpt>
      <trkpt lat="39.30542" lon="-120.530881">
        <ele>1730.680201</ele>
        <time>2024-07-28T09:22:24.000Z</time>
      </trkpt>
      <trkpt lat="39.305427" lon="-120.53116">
        <ele>1729.926631</ele>
        <time>2024-07-28T09:22:26.000Z</time>
      </trkpt>
      <trkpt lat="39.305513" lon="-120.53171">
        <ele>1728.464156</ele>
        <time>2024-07-28T09:22:31.000Z</time>
      </trkpt>
      <trkpt lat="39.306004" lon="-120.533756">
        <ele>1724.228933</ele>
        <time>2024-07-28T09:22:49.000Z</time>
      </trkpt>
      <trkpt lat="39.306221" lon="-120.534703">
        <ele>1722.701009</ele>
        <time>2024-07-28T09:22:57.000Z</time>
      </trkpt>
      <trkpt lat="39.306386" lon="-120.535394">
        <ele>1722.440278</ele>
        <time>2024-07-28T09:23:03.000Z</time>
      </trkpt>
      <trkpt lat="39.30654" lon="-120.536078">
        <ele>1722.174401</ele>
        <time>2024-07-28T09:23:09.000Z</time>
      </trkpt>
      <trkpt lat="39.306608" lon="-120.536356">
        <ele>1722.070058</ele>
        <time>2024-07-28T09:23:12.000Z</time>
      </trkpt>
      <trkpt lat="39.30687" lon="-120.53725">
        <ele>1721.911458</ele>
        <time>2024-07-28T09:23:20.000Z</time>
      </trkpt>
      <trkpt lat="39.306988" lon="-120.537493">
        <ele>1721.954617</ele>
        <time>2024-07-28T09:23:22.000Z</time>
      </trkpt>
      <trkpt lat="39.307223" lon="-120.537922">
        <ele>1722.034611</ele>
        <time>2024-07-28T09:23:27.000Z</time>
      </trkpt>
      <trkpt lat="39.307522" lon="-120.538287">
        <ele>1722.115163</ele>
        <time>2024-07-28T09:23:32.000Z</time>
      </trkpt>
      <trkpt lat="39.307814" lon="-120.53857">
        <ele>1722.188552</ele>
        <time>2024-07-28T09:23:36.000Z</time>
      </trkpt>
      <trkpt lat="39.308178" lon="-120.538851">
        <ele>1721.967748</ele>
        <time>2024-07-28T09:23:41.000Z</time>
      </trkpt>
      <trkpt lat="39.30823" lon="-120.538882">
        <ele>1721.928601</ele>
        <time>2024-07-28T09:23:42.000Z</time>
      </trkpt>
      <trkpt lat="39.308508" lon="-120.53911">
        <ele>1721.683313</ele>
        <time>2024-07-28T09:23:46.000Z</time>
      </trkpt>
      <trkpt lat="39.308577" lon="-120.539155">
        <ele>1721.626449</ele>
        <time>2024-07-28T09:23:47.000Z</time>
      </trkpt>
      <trkpt lat="39.308941" lon="-120.539408">
        <ele>1721.317405</ele>
        <time>2024-07-28T09:23:52.000Z</time>
      </trkpt>
      <trkpt lat="39.309285" lon="-120.539658">
        <ele>1721.014093</ele>
        <time>2024-07-28T09:23:56.000Z</time>
      </trkpt>
      <trkpt lat="39.309429" lon="-120.539777">
        <ele>1720.888994</ele>
        <time>2024-07-28T09:23:58.000Z</time>
      </trkpt>
      <trkpt lat="39.309483" lon="-120.539818">
        <ele>1720.813113</ele>
        <time>2024-07-28T09:23:59.000Z</time>
      </trkpt>
      <trkpt lat="39.309563" lon="-120.539856">
        <ele>1720.669215</ele>
        <time>2024-07-28T09:24:00.000Z</time>
      </trkpt>
      <trkpt lat="39.309945" lon="-120.540148">
        <ele>1719.864374</ele>
        <time>2024-07-28T09:24:05.000Z</time>
      </trkpt>
      <trkpt lat="39.310364" lon="-120.540506">
        <ele>1718.959872</ele>
        <time>2024-07-28T09:24:11.000Z</time>
      </trkpt>
      <trkpt lat="39.3105" lon="-120.540643">
        <ele>1718.665563</ele>
        <time>2024-07-28T09:24:13.000Z</time>
      </trkpt>
      <trkpt lat="39.310866" lon="-120.541122">
        <ele>1717.714087</ele>
        <time>2024-07-28T09:24:19.000Z</time>
      </trkpt>
      <trkpt lat="39.311083" lon="-120.541481">
        <ele>1717.429408</ele>
        <time>2024-07-28T09:24:23.000Z</time>
      </trkpt>
      <trkpt lat="39.31128" lon="-120.541904">
        <ele>1717.189691</ele>
        <time>2024-07-28T09:24:27.000Z</time>
      </trkpt>
      <trkpt lat="39.311573" lon="-120.542808">
        <ele>1716.715498</ele>
        <time>2024-07-28T09:24:35.000Z</time>
      </trkpt>
      <trkpt lat="39.311279" lon="-120.541906">
        <ele>1717.003604</ele>
        <time>2024-07-28T09:24:43.000Z</time>
      </trkpt>
      <trkpt lat="39.311081" lon="-120.541491">
        <ele>1717.520703</ele>
        <time>2024-07-28T09:24:47.000Z</time>
      </trkpt>
      <trkpt lat="39.310868" lon="-120.541129">
        <ele>1718.005457</ele>
        <time>2024-07-28T09:24:51.000Z</time>
      </trkpt>
      <trkpt lat="39.310502" lon="-120.54065">
        <ele>1718.727679</ele>
        <time>2024-07-28T09:24:57.000Z</time>
      </trkpt>
      <trkpt lat="39.310374" lon="-120.540513">
        <ele>1718.952728</ele>
        <time>2024-07-28T09:24:59.000Z</time>
      </trkpt>
      <trkpt lat="39.309952" lon="-120.540156">
        <ele>1719.733782</ele>
        <time>2024-07-28T09:25:05.000Z</time>
      </trkpt>
      <trkpt lat="39.309552" lon="-120.539863">
        <ele>1720.428792</ele>
        <time>2024-07-28T09:25:10.000Z</time>
      </trkpt>
      <trkpt lat="39.309486" lon="-120.539812">
        <ele>1720.553051</ele>
        <time>2024-07-28T09:25:11.000Z</time>
      </trkpt>
      <trkpt lat="39.309427" lon="-120.539777">
        <ele>1720.65635</ele>
        <time>2024-07-28T09:25:12.000Z</time>
      </trkpt>
      <trkpt lat="39.309297" lon="-120.539664">
        <ele>1720.915163</ele>
        <time>2024-07-28T09:25:14.000Z</time>
      </trkpt>
      <trkpt lat="39.308931" lon="-120.53941">
        <ele>1721.542678</ele>
        <time>2024-07-28T09:25:19.000Z</time>
      </trkpt>
      <trkpt lat="39.30857" lon="-120.539147">
        <ele>1721.799631</ele>
        <time>2024-07-28T09:25:24.000Z</time>
      </trkpt>
      <trkpt lat="39.30852" lon="-120.539106">
        <ele>1721.816943</ele>
        <time>2024-07-28T09:25:25.000Z</time>
      </trkpt>
      <trkpt lat="39.308231" lon="-120.538884">
        <ele>1721.891637</ele>
        <time>2024-07-28T09:25:29.000Z</time>
      </trkpt>
      <trkpt lat="39.308178" lon="-120.538845">
        <ele>1721.903556</ele>
        <time>2024-07-28T09:25:30.000Z</time>
      </trkpt>
      <trkpt lat="39.307825" lon="-120.538568">
        <ele>1721.999931</ele>
        <time>2024-07-28T09:25:35.000Z</time>
      </trkpt>
      <trkpt lat="39.307524" lon="-120.53828">
        <ele>1722.085443</ele>
        <time>2024-07-28T09:25:39.000Z</time>
      </trkpt>
      <trkpt lat="39.307233" lon="-120.537927">
        <ele>1722.12292</ele>
        <time>2024-07-28T09:25:43.000Z</time>
      </trkpt>
      <trkpt lat="39.306983" lon="-120.537496">
        <ele>1722.063169</ele>
        <time>2024-07-28T09:25:48.000Z</time>
      </trkpt>
      <trkpt lat="39.30688" lon="-120.537255">
        <ele>1722.030932</ele>
        <time>2024-07-28T09:25:50.000Z</time>
      </trkpt>
      <trkpt lat="39.306601" lon="-120.536355">
        <ele>1721.922386</ele>
        <time>2024-07-28T09:25:58.000Z</time>
      </trkpt>
      <trkpt lat="39.306538" lon="-120.536082">
        <ele>1721.890006</ele>
        <time>2024-07-28T09:26:00.000Z</time>
      </trkpt>
      <trkpt lat="39.306377" lon="-120.535389">
        <ele>1722.451546</ele>
        <time>2024-07-28T09:26:06.000Z</time>
      </trkpt>
      <trkpt lat="39.306231" lon="-120.534697">
        <ele>1723.077083</ele>
        <time>2024-07-28T09:26:12.000Z</time>
      </trkpt>
      <trkpt lat="39.305989" lon="-120.533763">
        <ele>1723.974145</ele>
        <time>2024-07-28T09:26:20.000Z</time>
      </trkpt>
      <trkpt lat="39.305503" lon="-120.531705">
        <ele>1728.109086</ele>
        <time>2024-07-28T09:26:39.000Z</time>
      </trkpt>
      <trkpt lat="39.305436" lon="-120.531172">
        <ele>1729.699884</ele>
        <time>2024-07-28T09:26:44.000Z</time>
      </trkpt>
      <trkpt lat="39.305417" lon="-120.530884">
        <ele>1730.621227</ele>
        <time>2024-07-28T09:26:46.000Z</time>
      </trkpt>
      <trkpt lat="39.305446" lon="-120.530354">
        <ele>1732.33847</ele>
        <time>2024-07-28T09:26:51.000Z</time>
      </trkpt>
      <trkpt lat="39.305479" lon="-120.530078">
        <ele>1733.269759</ele>
        <time>2024-07-28T09:26:53.000Z</time>
      </trkpt>
      <trkpt lat="39.305898" lon="-120.528085">
        <ele>1739.662305</ele>
        <time>2024-07-28T09:27:11.000Z</time>
      </trkpt>
      <trkpt lat="39.305939" lon="-120.527635">
        <ele>1740.962848</ele>
        <time>2024-07-28T09:27:15.000Z</time>
      </trkpt>
      <trkpt lat="39.305898" lon="-120.527098">
        <ele>1742.590571</ele>
        <time>2024-07-28T09:27:20.000Z</time>
      </trkpt>
      <trkpt lat="39.305844" lon="-120.526857">
        <ele>1742.94834</ele>
        <time>2024-07-28T09:27:22.000Z</time>
      </trkpt>
      <trkpt lat="39.305663" lon="-120.526433">
        <ele>1743.257042</ele>
        <time>2024-07-28T09:27:26.000Z</time>
      </trkpt>
      <trkpt lat="39.305542" lon="-120.526257">
        <ele>1743.3987</ele>
        <time>2024-07-28T09:27:28.000Z</time>
      </trkpt>
      <trkpt lat="39.304508" lon="-120.524988">
        <ele>1744.239187</ele>
        <time>2024-07-28T09:27:44.000Z</time>
      </trkpt>
      <trkpt lat="39.304285" lon="-120.524651">
        <ele>1744.160535</ele>
        <time>2024-07-28T09:27:48.000Z</time>
      </trkpt>
      <trkpt lat="39.30411" lon="-120.524235">
        <ele>1744.079837</ele>
        <time>2024-07-28T09:27:52.000Z</time>
      </trkpt>
      <trkpt lat="39.303993" lon="-120.523784">
        <ele>1743.993301</ele>
        <time>2024-07-28T09:27:56.000Z</time>
      </trkpt>
      <trkpt lat="39.303883" lon="-120.523035">
        <ele>1743.82803</ele>
        <time>2024-07-28T09:28:03.000Z</time>
      </trkpt>
      <trkpt lat="39.303866" lon="-120.522146">
        <ele>1743.53251</ele>
        <time>2024-07-28T09:28:11.000Z</time>
      </trkpt>
      <trkpt lat="39.303929" lon="-120.521438">
        <ele>1743.298464</ele>
        <time>2024-07-28T09:28:17.000Z</time>
      </trkpt>
      <trkpt lat="39.304042" lon="-120.521034">
        <ele>1743.157514</ele>
        <time>2024-07-28T09:28:21.000Z</time>
      </trkpt>
      <trkpt lat="39.304257" lon="-120.520436">
        <ele>1743.894953</ele>
        <time>2024-07-28T09:28:27.000Z</time>
      </trkpt>
      <trkpt lat="39.304396" lon="-120.520103">
        <ele>1744.408768</ele>
        <time>2024-07-28T09:28:30.000Z</time>
      </trkpt>
      <trkpt lat="39.304788" lon="-120.519381">
        <ele>1745.567566</ele>
        <time>2024-07-28T09:28:38.000Z</time>
      </trkpt>
      <trkpt lat="39.304902" lon="-120.519166">
        <ele>1745.934028</ele>
        <time>2024-07-28T09:28:40.000Z</time>
      </trkpt>
      <trkpt lat="39.305333" lon="-120.518491">
        <ele>1748.395145</ele>
        <time>2024-07-28T09:28:48.000Z</time>
      </trkpt>
      <trkpt lat="39.305527" lon="-120.518245">
        <ele>1749.535708</ele>
        <time>2024-07-28T09:28:51.000Z</time>
      </trkpt>
      <trkpt lat="39.305808" lon="-120.51796">
        <ele>1751.077217</ele>
        <time>2024-07-28T09:28:55.000Z</time>
      </trkpt>
      <trkpt lat="39.306359" lon="-120.517586">
        <ele>1753.7209</ele>
        <time>2024-07-28T09:29:02.000Z</time>
      </trkpt>
      <trkpt lat="39.306381" lon="-120.517566">
        <ele>1753.861035</ele>
        <time>2024-07-28T09:29:02.000Z</time>
      </trkpt>
      <trkpt lat="39.306726" lon="-120.517381">
        <ele>1755.58174</ele>
        <time>2024-07-28T09:29:06.000Z</time>
      </trkpt>
      <trkpt lat="39.308061" lon="-120.516623">
        <ele>1762.506496</ele>
        <time>2024-07-28T09:29:22.000Z</time>
      </trkpt>
      <trkpt lat="39.308903" lon="-120.51612">
        <ele>1765.911148</ele>
        <time>2024-07-28T09:29:32.000Z</time>
      </trkpt>
      <trkpt lat="39.309205" lon="-120.515942">
        <ele>1767.087309</ele>
        <time>2024-07-28T09:29:36.000Z</time>
      </trkpt>
      <trkpt lat="39.309375" lon="-120.515779">
        <ele>1767.881355</ele>
        <time>2024-07-28T09:29:38.000Z</time>
      </trkpt>
      <trkpt lat="39.309614" lon="-120.515538">
        <ele>1768.939791</ele>
        <time>2024-07-28T09:29:41.000Z</time>
      </trkpt>
      <trkpt lat="39.309821" lon="-120.515264">
        <ele>1769.05964</ele>
        <time>2024-07-28T09:29:44.000Z</time>
      </trkpt>
      <trkpt lat="39.310048" lon="-120.514848">
        <ele>1769.160852</ele>
        <time>2024-07-28T09:29:48.000Z</time>
      </trkpt>
      <trkpt lat="39.310239" lon="-120.514422">
        <ele>1769.259227</ele>
        <time>2024-07-28T09:29:52.000Z</time>
      </trkpt>
      <trkpt lat="39.310366" lon="-120.513943">
        <ele>1769.361798</ele>
        <time>2024-07-28T09:29:56.000Z</time>
      </trkpt>
      <trkpt lat="39.310439" lon="-120.513446">
        <ele>1769.391652</ele>
        <time>2024-07-28T09:30:00.000Z</time>
      </trkpt>
      <trkpt lat="39.310453" lon="-120.512828">
        <ele>1768.913558</ele>
        <time>2024-07-28T09:30:05.000Z</time>
      </trkpt>
      <trkpt lat="39.310317" lon="-120.511776">
        <ele>1768.08637</ele>
        <time>2024-07-28T09:30:14.000Z</time>
      </trkpt>
      <trkpt lat="39.310291" lon="-120.511481">
        <ele>1767.842162</ele>
        <time>2024-07-28T09:30:17.000Z</time>
      </trkpt>
      <trkpt lat="39.310183" lon="-120.510454">
        <ele>1767.795145</ele>
        <time>2024-07-28T09:30:26.000Z</time>
      </trkpt>
      <trkpt lat="39.310193" lon="-120.509774">
        <ele>1767.938408</ele>
        <time>2024-07-28T09:30:32.000Z</time>
      </trkpt>
      <trkpt lat="39.310266" lon="-120.508941">
        <ele>1768.118753</ele>
        <time>2024-07-28T09:30:39.000Z</time>
      </trkpt>
      <trkpt lat="39.310291" lon="-120.508789">
        <ele>1768.451428</ele>
        <time>2024-07-28T09:30:40.000Z</time>
      </trkpt>
      <trkpt lat="39.31034" lon="-120.508494">
        <ele>1769.24719</ele>
        <time>2024-07-28T09:30:43.000Z</time>
      </trkpt>
      <trkpt lat="39.310433" lon="-120.508078">
        <ele>1770.425662</ele>
        <time>2024-07-28T09:30:47.000Z</time>
      </trkpt>
      <trkpt lat="39.310801" lon="-120.506382">
        <ele>1775.762205</ele>
        <time>2024-07-28T09:31:02.000Z</time>
      </trkpt>
      <trkpt lat="39.310873" lon="-120.505821">
        <ele>1778.180687</ele>
        <time>2024-07-28T09:31:07.000Z</time>
      </trkpt>
      <trkpt lat="39.310851" lon="-120.505095">
        <ele>1781.243264</ele>
        <time>2024-07-28T09:31:13.000Z</time>
      </trkpt>
      <trkpt lat="39.31065" lon="-120.503731">
        <ele>1786.584219</ele>
        <time>2024-07-28T09:31:25.000Z</time>
      </trkpt>
      <trkpt lat="39.310576" lon="-120.503059">
        <ele>1788.89143</ele>
        <time>2024-07-28T09:31:31.000Z</time>
      </trkpt>
      <trkpt lat="39.310564" lon="-120.502748">
        <ele>1789.907462</ele>
        <time>2024-07-28T09:31:34.000Z</time>
      </trkpt>
      <trkpt lat="39.310616" lon="-120.502134">
        <ele>1792.000164</ele>
        <time>2024-07-28T09:31:39.000Z</time>
      </trkpt>
      <trkpt lat="39.310902" lon="-120.499984">
        <ele>1796.283189</ele>
        <time>2024-07-28T09:31:58.000Z</time>
      </trkpt>
      <trkpt lat="39.310953" lon="-120.499781">
        <ele>1796.657823</ele>
        <time>2024-07-28T09:32:00.000Z</time>
      </trkpt>
      <trkpt lat="39.311009" lon="-120.499717">
        <ele>1796.854024</ele>
        <time>2024-07-28T09:32:01.000Z</time>
      </trkpt>
      <trkpt lat="39.311302" lon="-120.499461">
        <ele>1797.673625</ele>
        <time>2024-07-28T09:32:05.000Z</time>
      </trkpt>
      <trkpt lat="39.312387" lon="-120.498633">
        <ele>1800.566692</ele>
        <time>2024-07-28T09:32:19.000Z</time>
      </trkpt>
      <trkpt lat="39.31272" lon="-120.498316">
        <ele>1801.226342</ele>
        <time>2024-07-28T09:32:24.000Z</time>
      </trkpt>
      <trkpt lat="39.312833" lon="-120.498109">
        <ele>1801.486408</ele>
        <time>2024-07-28T09:32:26.000Z</time>
      </trkpt>
      <trkpt lat="39.31287" lon="-120.498001">
        <ele>1801.618945</ele>
        <time>2024-07-28T09:32:27.000Z</time>
      </trkpt>
      <trkpt lat="39.312889" lon="-120.497854">
        <ele>1801.759897</ele>
        <time>2024-07-28T09:32:28.000Z</time>
      </trkpt>
      <trkpt lat="39.312902" lon="-120.497628">
        <ele>1801.994798</ele>
        <time>2024-07-28T09:32:30.000Z</time>
      </trkpt>
      <trkpt lat="39.312771" lon="-120.497176">
        <ele>1802.481886</ele>
        <time>2024-07-28T09:32:34.000Z</time>
      </trkpt>
      <trkpt lat="39.312371" lon="-120.495845">
        <ele>1803.50353</ele>
        <time>2024-07-28T09:32:46.000Z</time>
      </trkpt>
      <trkpt lat="39.312242" lon="-120.495119">
        <ele>1803.790615</ele>
        <time>2024-07-28T09:32:52.000Z</time>
      </trkpt>
      <trkpt lat="39.312206" lon="-120.494542">
        <ele>1804.009664</ele>
        <time>2024-07-28T09:32:57.000Z</time>
      </trkpt>
      <trkpt lat="39.312167" lon="-120.491297">
        <ele>1805.833491</ele>
        <time>2024-07-28T09:33:25.000Z</time>
      </trkpt>
      <trkpt lat="39.312197" lon="-120.490433">
        <ele>1806.49532</ele>
        <time>2024-07-28T09:33:32.000Z</time>
      </trkpt>
      <trkpt lat="39.312314" lon="-120.489609">
        <ele>1807.137143</ele>
        <time>2024-07-28T09:33:39.000Z</time>
      </trkpt>
      <trkpt lat="39.31242" lon="-120.489178">
        <ele>1807.654627</ele>
        <time>2024-07-28T09:33:43.000Z</time>
      </trkpt>
      <trkpt lat="39.313559" lon="-120.485768">
        <ele>1811.985797</ele>
        <time>2024-07-28T09:34:15.000Z</time>
      </trkpt>
      <trkpt lat="39.313831" lon="-120.484713">
        <ele>1813.015102</ele>
        <time>2024-07-28T09:34:25.000Z</time>
      </trkpt>
      <trkpt lat="39.313965" lon="-120.483827">
        <ele>1813.703366</ele>
        <time>2024-07-28T09:34:33.000Z</time>
      </trkpt>
      <trkpt lat="39.31408" lon="-120.482345">
        <ele>1815.123865</ele>
        <time>2024-07-28T09:34:46.000Z</time>
      </trkpt>
      <trkpt lat="39.314841" lon="-120.469746">
        <ele>1830.140635</ele>
        <time>2024-07-28T09:36:35.000Z</time>
      </trkpt>
      <trkpt lat="39.314938" lon="-120.467959">
        <ele>1832.548128</ele>
        <time>2024-07-28T09:36:50.000Z</time>
      </trkpt>
      <trkpt lat="39.315021" lon="-120.467522">
        <ele>1833.158138</ele>
        <time>2024-07-28T09:36:54.000Z</time>
      </trkpt>
      <trkpt lat="39.315165" lon="-120.466981">
        <ele>1833.94489</ele>
        <time>2024-07-28T09:36:59.000Z</time>
      </trkpt>
      <trkpt lat="39.315339" lon="-120.466486">
        <ele>1834.636299</ele>
        <time>2024-07-28T09:37:04.000Z</time>
      </trkpt>
      <trkpt lat="39.315568" lon="-120.465987">
        <ele>1835.33228</ele>
        <time>2024-07-28T09:37:09.000Z</time>
      </trkpt>
      <trkpt lat="39.315862" lon="-120.465227">
        <ele>1836.379683</ele>
        <time>2024-07-28T09:37:16.000Z</time>
      </trkpt>
      <trkpt lat="39.315984" lon="-120.464761">
        <ele>1837.016504</ele>
        <time>2024-07-28T09:37:20.000Z</time>
      </trkpt>
      <trkpt lat="39.316039" lon="-120.464388">
        <ele>1837.905664</ele>
        <time>2024-07-28T09:37:23.000Z</time>
      </trkpt>
      <trkpt lat="39.316118" lon="-120.463766">
        <ele>1839.411294</ele>
        <time>2024-07-28T09:37:28.000Z</time>
      </trkpt>
      <trkpt lat="39.316127" lon="-120.463209">
        <ele>1840.715642</ele>
        <time>2024-07-28T09:37:33.000Z</time>
      </trkpt>
      <trkpt lat="39.316129" lon="-120.461086">
        <ele>1844.706973</ele>
        <time>2024-07-28T09:37:51.000Z</time>
      </trkpt>
      <trkpt lat="39.316011" lon="-120.459338">
        <ele>1846.384661</ele>
        <time>2024-07-28T09:38:06.000Z</time>
      </trkpt>
      <trkpt lat="39.315849" lon="-120.457915">
        <ele>1846.610871</ele>
        <time>2024-07-28T09:38:18.000Z</time>
      </trkpt>
      <trkpt lat="39.315559" lon="-120.455894">
        <ele>1846.418174</ele>
        <time>2024-07-28T09:38:36.000Z</time>
      </trkpt>
      <trkpt lat="39.315509" lon="-120.455505">
        <ele>1846.376329</ele>
        <time>2024-07-28T09:38:39.000Z</time>
      </trkpt>
      <trkpt lat="39.314547" lon="-120.448857">
        <ele>1845.743328</ele>
        <time>2024-07-28T09:39:37.000Z</time>
      </trkpt>
      <trkpt lat="39.314466" lon="-120.448122">
        <ele>1846.007972</ele>
        <time>2024-07-28T09:39:43.000Z</time>
      </trkpt>
      <trkpt lat="39.314493" lon="-120.447597">
        <ele>1846.252938</ele>
        <time>2024-07-28T09:39:48.000Z</time>
      </trkpt>
      <trkpt lat="39.314617" lon="-120.446924">
        <ele>1846.575631</ele>
        <time>2024-07-28T09:39:54.000Z</time>
      </trkpt>
      <trkpt lat="39.314844" lon="-120.44633">
        <ele>1846.912595</ele>
        <time>2024-07-28T09:40:00.000Z</time>
      </trkpt>
      <trkpt lat="39.315108" lon="-120.445848">
        <ele>1847.305233</ele>
        <time>2024-07-28T09:40:05.000Z</time>
      </trkpt>
      <trkpt lat="39.315362" lon="-120.445467">
        <ele>1847.650321</ele>
        <time>2024-07-28T09:40:09.000Z</time>
      </trkpt>
      <trkpt lat="39.31573" lon="-120.444802">
        <ele>1848.209622</ele>
        <time>2024-07-28T09:40:16.000Z</time>
      </trkpt>
      <trkpt lat="39.316016" lon="-120.444158">
        <ele>1848.882222</ele>
        <time>2024-07-28T09:40:22.000Z</time>
      </trkpt>
      <trkpt lat="39.316129" lon="-120.443813">
        <ele>1849.284152</ele>
        <time>2024-07-28T09:40:25.000Z</time>
      </trkpt>
      <trkpt lat="39.316252" lon="-120.443389">
        <ele>1849.761509</ele>
        <time>2024-07-28T09:40:29.000Z</time>
      </trkpt>
      <trkpt lat="39.316368" lon="-120.442919">
        <ele>1850.279826</ele>
        <time>2024-07-28T09:40:33.000Z</time>
      </trkpt>
      <trkpt lat="39.316714" lon="-120.440921">
        <ele>1853.418859</ele>
        <time>2024-07-28T09:40:51.000Z</time>
      </trkpt>
      <trkpt lat="39.31705" lon="-120.439087">
        <ele>1856.585246</ele>
        <time>2024-07-28T09:41:07.000Z</time>
      </trkpt>
      <trkpt lat="39.31722" lon="-120.438256">
        <ele>1858.015083</ele>
        <time>2024-07-28T09:41:14.000Z</time>
      </trkpt>
      <trkpt lat="39.317328" lon="-120.437862">
        <ele>1858.669641</ele>
        <time>2024-07-28T09:41:18.000Z</time>
      </trkpt>
      <trkpt lat="39.317488" lon="-120.437471">
        <ele>1859.138815</ele>
        <time>2024-07-28T09:41:22.000Z</time>
      </trkpt>
      <trkpt lat="39.317627" lon="-120.437069">
        <ele>1859.617038</ele>
        <time>2024-07-28T09:41:26.000Z</time>
      </trkpt>
      <trkpt lat="39.317849" lon="-120.436501">
        <ele>1860.281025</ele>
        <time>2024-07-28T09:41:31.000Z</time>
      </trkpt>
      <trkpt lat="39.318378" lon="-120.435208">
        <ele>1861.922918</ele>
        <time>2024-07-28T09:41:44.000Z</time>
      </trkpt>
      <trkpt lat="39.318441" lon="-120.435053">
        <ele>1862.141657</ele>
        <time>2024-07-28T09:41:46.000Z</time>
      </trkpt>
      <trkpt lat="39.318558" lon="-120.43474">
        <ele>1862.550379</ele>
        <time>2024-07-28T09:41:49.000Z</time>
      </trkpt>
      <trkpt lat="39.319248" lon="-120.433054">
        <ele>1865.227023</ele>
        <time>2024-07-28T09:42:05.000Z</time>
      </trkpt>
      <trkpt lat="39.319333" lon="-120.432858">
        <ele>1865.602314</ele>
        <time>2024-07-28T09:42:07.000Z</time>
      </trkpt>
      <trkpt lat="39.319504" lon="-120.432458">
        <ele>1866.371834</ele>
        <time>2024-07-28T09:42:11.000Z</time>
      </trkpt>
      <trkpt lat="39.319735" lon="-120.431896">
        <ele>1867.429864</ele>
        <time>2024-07-28T09:42:16.000Z</time>
      </trkpt>
      <trkpt lat="39.319787" lon="-120.431769">
        <ele>1867.680052</ele>
        <time>2024-07-28T09:42:17.000Z</time>
      </trkpt>
      <trkpt lat="39.320077" lon="-120.431035">
        <ele>1869.355262</ele>
        <time>2024-07-28T09:42:24.000Z</time>
      </trkpt>
      <trkpt lat="39.320101" lon="-120.43095">
        <ele>1869.563151</ele>
        <time>2024-07-28T09:42:25.000Z</time>
      </trkpt>
      <trkpt lat="39.320162" lon="-120.430811">
        <ele>1869.895007</ele>
        <time>2024-07-28T09:42:26.000Z</time>
      </trkpt>
      <trkpt lat="39.320171" lon="-120.430778">
        <ele>1869.960387</ele>
        <time>2024-07-28T09:42:26.000Z</time>
      </trkpt>
      <trkpt lat="39.320338" lon="-120.430372">
        <ele>1870.913394</ele>
        <time>2024-07-28T09:42:30.000Z</time>
      </trkpt>
      <trkpt lat="39.320674" lon="-120.429515">
        <ele>1872.966461</ele>
        <time>2024-07-28T09:42:38.000Z</time>
      </trkpt>
      <trkpt lat="39.320719" lon="-120.42943">
        <ele>1873.216817</ele>
        <time>2024-07-28T09:42:39.000Z</time>
      </trkpt>
      <trkpt lat="39.321119" lon="-120.428518">
        <ele>1875.893126</ele>
        <time>2024-07-28T09:42:48.000Z</time>
      </trkpt>
      <trkpt lat="39.32149" lon="-120.427923">
        <ele>1877.803915</ele>
        <time>2024-07-28T09:42:55.000Z</time>
      </trkpt>
      <trkpt lat="39.323531" lon="-120.425087">
        <ele>1889.977321</ele>
        <time>2024-07-28T09:43:28.000Z</time>
      </trkpt>
      <trkpt lat="39.323889" lon="-120.424569">
        <ele>1892.429426</ele>
        <time>2024-07-28T09:43:34.000Z</time>
      </trkpt>
      <trkpt lat="39.324083" lon="-120.424212">
        <ele>1894.060901</ele>
        <time>2024-07-28T09:43:38.000Z</time>
      </trkpt>
      <trkpt lat="39.324301" lon="-120.423735">
        <ele>1896.555491</ele>
        <time>2024-07-28T09:43:43.000Z</time>
      </trkpt>
      <trkpt lat="39.32447" lon="-120.423258">
        <ele>1898.817989</ele>
        <time>2024-07-28T09:43:48.000Z</time>
      </trkpt>
      <trkpt lat="39.324592" lon="-120.422815">
        <ele>1900.909494</ele>
        <time>2024-07-28T09:43:52.000Z</time>
      </trkpt>
      <trkpt lat="39.324901" lon="-120.421308">
        <ele>1908.309607</ele>
        <time>2024-07-28T09:44:05.000Z</time>
      </trkpt>
      <trkpt lat="39.325241" lon="-120.419314">
        <ele>1918.712773</ele>
        <time>2024-07-28T09:44:23.000Z</time>
      </trkpt>
      <trkpt lat="39.325302" lon="-120.418734">
        <ele>1921.650435</ele>
        <time>2024-07-28T09:44:28.000Z</time>
      </trkpt>
      <trkpt lat="39.325353" lon="-120.417671">
        <ele>1926.975753</ele>
        <time>2024-07-28T09:44:37.000Z</time>
      </trkpt>
      <trkpt lat="39.325315" lon="-120.417077">
        <ele>1929.724368</ele>
        <time>2024-07-28T09:44:42.000Z</time>
      </trkpt>
      <trkpt lat="39.32526" lon="-120.416471">
        <ele>1932.548317</ele>
        <time>2024-07-28T09:44:47.000Z</time>
      </trkpt>
      <trkpt lat="39.3252" lon="-120.415912">
        <ele>1935.150276</ele>
        <time>2024-07-28T09:44:52.000Z</time>
      </trkpt>
      <trkpt lat="39.32454" lon="-120.411636">
        <ele>1954.44823</ele>
        <time>2024-07-28T09:45:30.000Z</time>
      </trkpt>
      <trkpt lat="39.324415" lon="-120.410962">
        <ele>1957.239556</ele>
        <time>2024-07-28T09:45:36.000Z</time>
      </trkpt>
      <trkpt lat="39.3243" lon="-120.410528">
        <ele>1958.941601</ele>
        <time>2024-07-28T09:45:40.000Z</time>
      </trkpt>
      <trkpt lat="39.324148" lon="-120.410064">
        <ele>1960.683081</ele>
        <time>2024-07-28T09:45:44.000Z</time>
      </trkpt>
      <trkpt lat="39.323543" lon="-120.408495">
        <ele>1966.832317</ele>
        <time>2024-07-28T09:45:59.000Z</time>
      </trkpt>
      <trkpt lat="39.323203" lon="-120.407485">
        <ele>1971.821014</ele>
        <time>2024-07-28T09:46:08.000Z</time>
      </trkpt>
      <trkpt lat="39.323093" lon="-120.407056">
        <ele>1973.897368</ele>
        <time>2024-07-28T09:46:12.000Z</time>
      </trkpt>
      <trkpt lat="39.323035" lon="-120.406551">
        <ele>1976.157529</ele>
        <time>2024-07-28T09:46:16.000Z</time>
      </trkpt>
      <trkpt lat="39.322971" lon="-120.405926">
        <ele>1978.737178</ele>
        <time>2024-07-28T09:46:21.000Z</time>
      </trkpt>
      <trkpt lat="39.322954" lon="-120.405448">
        <ele>1980.639948</ele>
        <time>2024-07-28T09:46:25.000Z</time>
      </trkpt>
      <trkpt lat="39.322995" lon="-120.404949">
        <ele>1982.631178</ele>
        <time>2024-07-28T09:46:29.000Z</time>
      </trkpt>
      <trkpt lat="39.32315" lon="-120.404002">
        <ele>1986.356737</ele>
        <time>2024-07-28T09:46:37.000Z</time>
      </trkpt>
      <trkpt lat="39.323937" lon="-120.401224">
        <ele>1996.000089</ele>
        <time>2024-07-28T09:47:02.000Z</time>
      </trkpt>
      <trkpt lat="39.324282" lon="-120.39969">
        <ele>2001.117715</ele>
        <time>2024-07-28T09:47:16.000Z</time>
      </trkpt>
      <trkpt lat="39.324891" lon="-120.396792">
        <ele>2011.513569</ele>
        <time>2024-07-28T09:47:42.000Z</time>
      </trkpt>
      <trkpt lat="39.324941" lon="-120.396549">
        <ele>2012.38541</ele>
        <time>2024-07-28T09:47:44.000Z</time>
      </trkpt>
      <trkpt lat="39.325048" lon="-120.396291">
        <ele>2013.389623</ele>
        <time>2024-07-28T09:47:47.000Z</time>
      </trkpt>
      <trkpt lat="39.325131" lon="-120.396105">
        <ele>2014.129385</ele>
        <time>2024-07-28T09:47:49.000Z</time>
      </trkpt>
      <trkpt lat="39.325627" lon="-120.395193">
        <ele>2018.216188</ele>
        <time>2024-07-28T09:47:59.000Z</time>
      </trkpt>
      <trkpt lat="39.32571" lon="-120.394979">
        <ele>2019.310601</ele>
        <time>2024-07-28T09:48:01.000Z</time>
      </trkpt>
      <trkpt lat="39.325771" lon="-120.394731">
        <ele>2020.474147</ele>
        <time>2024-07-28T09:48:03.000Z</time>
      </trkpt>
      <trkpt lat="39.325821" lon="-120.394222">
        <ele>2022.730779</ele>
        <time>2024-07-28T09:48:07.000Z</time>
      </trkpt>
      <trkpt lat="39.325756" lon="-120.393691">
        <ele>2025.093483</ele>
        <time>2024-07-28T09:48:12.000Z</time>
      </trkpt>
      <trkpt lat="39.325591" lon="-120.393235">
        <ele>2027.332204</ele>
        <time>2024-07-28T09:48:16.000Z</time>
      </trkpt>
      <trkpt lat="39.325521" lon="-120.393027">
        <ele>2028.375579</ele>
        <time>2024-07-28T09:48:18.000Z</time>
      </trkpt>
      <trkpt lat="39.325089" lon="-120.391948">
        <ele>2033.805944</ele>
        <time>2024-07-28T09:48:28.000Z</time>
      </trkpt>
      <trkpt lat="39.324952" lon="-120.391547">
        <ele>2035.802068</ele>
        <time>2024-07-28T09:48:32.000Z</time>
      </trkpt>
      <trkpt lat="39.324881" lon="-120.391157">
        <ele>2037.581859</ele>
        <time>2024-07-28T09:48:35.000Z</time>
      </trkpt>
      <trkpt lat="39.324899" lon="-120.390868">
        <ele>2038.165336</ele>
        <time>2024-07-28T09:48:37.000Z</time>
      </trkpt>
      <trkpt lat="39.324987" lon="-120.389972">
        <ele>2039.500922</ele>
        <time>2024-07-28T09:48:45.000Z</time>
      </trkpt>
      <trkpt lat="39.325004" lon="-120.389721">
        <ele>2039.871909</ele>
        <time>2024-07-28T09:48:47.000Z</time>
      </trkpt>
      <trkpt lat="39.325038" lon="-120.38945">
        <ele>2040.29723</ele>
        <time>2024-07-28T09:48:49.000Z</time>
      </trkpt>
      <trkpt lat="39.32511" lon="-120.388854">
        <ele>2041.192229</ele>
        <time>2024-07-28T09:48:54.000Z</time>
      </trkpt>
      <trkpt lat="39.325264" lon="-120.387493">
        <ele>2041.504582</ele>
        <time>2024-07-28T09:49:06.000Z</time>
      </trkpt>
      <trkpt lat="39.325288" lon="-120.386832">
        <ele>2041.623357</ele>
        <time>2024-07-28T09:49:12.000Z</time>
      </trkpt>
      <trkpt lat="39.325243" lon="-120.386499">
        <ele>2041.680893</ele>
        <time>2024-07-28T09:49:15.000Z</time>
      </trkpt>
      <trkpt lat="39.325177" lon="-120.38614">
        <ele>2042.280145</ele>
        <time>2024-07-28T09:49:18.000Z</time>
      </trkpt>
      <trkpt lat="39.325096" lon="-120.385783">
        <ele>2042.894579</ele>
        <time>2024-07-28T09:49:21.000Z</time>
      </trkpt>
      <trkpt lat="39.3245" lon="-120.384149">
        <ele>2046.131122</ele>
        <time>2024-07-28T09:49:37.000Z</time>
      </trkpt>
      <trkpt lat="39.324459" lon="-120.384013">
        <ele>2046.538592</ele>
        <time>2024-07-28T09:49:38.000Z</time>
      </trkpt>
      <trkpt lat="39.324249" lon="-120.38348">
        <ele>2048.224172</ele>
        <time>2024-07-28T09:49:43.000Z</time>
      </trkpt>
      <trkpt lat="39.323636" lon="-120.381779">
        <ele>2053.815258</ele>
        <time>2024-07-28T09:49:59.000Z</time>
      </trkpt>
      <trkpt lat="39.323528" lon="-120.381384">
        <ele>2055.124703</ele>
        <time>2024-07-28T09:50:03.000Z</time>
      </trkpt>
      <trkpt lat="39.323473" lon="-120.381045">
        <ele>2056.225457</ele>
        <time>2024-07-28T09:50:06.000Z</time>
      </trkpt>
      <trkpt lat="39.323442" lon="-120.380686">
        <ele>2057.355515</ele>
        <time>2024-07-28T09:50:09.000Z</time>
      </trkpt>
      <trkpt lat="39.323472" lon="-120.379904">
        <ele>2059.709163</ele>
        <time>2024-07-28T09:50:16.000Z</time>
      </trkpt>
      <trkpt lat="39.323506" lon="-120.379318">
        <ele>2060.88382</ele>
        <time>2024-07-28T09:50:21.000Z</time>
      </trkpt>
      <trkpt lat="39.323858" lon="-120.374941">
        <ele>2068.942279</ele>
        <time>2024-07-28T09:50:59.000Z</time>
      </trkpt>
      <trkpt lat="39.324062" lon="-120.372629">
        <ele>2072.669927</ele>
        <time>2024-07-28T09:51:19.000Z</time>
      </trkpt>
      <trkpt lat="39.324066" lon="-120.371871">
        <ele>2073.818546</ele>
        <time>2024-07-28T09:51:26.000Z</time>
      </trkpt>
      <trkpt lat="39.324051" lon="-120.371508">
        <ele>2074.385467</ele>
        <time>2024-07-28T09:51:29.000Z</time>
      </trkpt>
      <trkpt lat="39.324012" lon="-120.371156">
        <ele>2074.935668</ele>
        <time>2024-07-28T09:51:32.000Z</time>
      </trkpt>
      <trkpt lat="39.323959" lon="-120.370769">
        <ele>2075.522685</ele>
        <time>2024-07-28T09:51:35.000Z</time>
      </trkpt>
      <trkpt lat="39.323842" lon="-120.37031">
        <ele>2076.759757</ele>
        <time>2024-07-28T09:51:39.000Z</time>
      </trkpt>
      <trkpt lat="39.323698" lon="-120.369833">
        <ele>2078.113068</ele>
        <time>2024-07-28T09:51:43.000Z</time>
      </trkpt>
      <trkpt lat="39.323543" lon="-120.369463">
        <ele>2079.186316</ele>
        <time>2024-07-28T09:51:47.000Z</time>
      </trkpt>
      <trkpt lat="39.323041" lon="-120.368457">
        <ele>2082.738787</ele>
        <time>2024-07-28T09:51:57.000Z</time>
      </trkpt>
      <trkpt lat="39.321514" lon="-120.365587">
        <ele>2096.873935</ele>
        <time>2024-07-28T09:52:27.000Z</time>
      </trkpt>
      <trkpt lat="39.321127" lon="-120.365005">
        <ele>2099.701985</ele>
        <time>2024-07-28T09:52:34.000Z</time>
      </trkpt>
      <trkpt lat="39.320582" lon="-120.364236">
        <ele>2101.480337</ele>
        <time>2024-07-28T09:52:43.000Z</time>
      </trkpt>
      <trkpt lat="39.320338" lon="-120.363783">
        <ele>2102.255973</ele>
        <time>2024-07-28T09:52:48.000Z</time>
      </trkpt>
      <trkpt lat="39.320158" lon="-120.363219">
        <ele>2103.115917</ele>
        <time>2024-07-28T09:52:53.000Z</time>
      </trkpt>
      <trkpt lat="39.318441" lon="-120.357201">
        <ele>2110.797405</ele>
        <time>2024-07-28T09:53:48.000Z</time>
      </trkpt>
      <trkpt lat="39.318155" lon="-120.356568">
        <ele>2111.677845</ele>
        <time>2024-07-28T09:53:54.000Z</time>
      </trkpt>
      <trkpt lat="39.317798" lon="-120.355967">
        <ele>2112.411333</ele>
        <time>2024-07-28T09:54:01.000Z</time>
      </trkpt>
      <trkpt lat="39.317667" lon="-120.355705">
        <ele>2112.692403</ele>
        <time>2024-07-28T09:54:04.000Z</time>
      </trkpt>
      <trkpt lat="39.317467" lon="-120.355084">
        <ele>2113.328794</ele>
        <time>2024-07-28T09:54:10.000Z</time>
      </trkpt>
      <trkpt lat="39.317397" lon="-120.354738">
        <ele>2113.671905</ele>
        <time>2024-07-28T09:54:13.000Z</time>
      </trkpt>
      <trkpt lat="39.317368" lon="-120.354447">
        <ele>2113.935165</ele>
        <time>2024-07-28T09:54:16.000Z</time>
      </trkpt>
      <trkpt lat="39.317367" lon="-120.354116">
        <ele>2114.511096</ele>
        <time>2024-07-28T09:54:19.000Z</time>
      </trkpt>
      <trkpt lat="39.317384" lon="-120.353652">
        <ele>2115.327894</ele>
        <time>2024-07-28T09:54:23.000Z</time>
      </trkpt>
      <trkpt lat="39.317433" lon="-120.353162">
        <ele>2116.199546</ele>
        <time>2024-07-28T09:54:27.000Z</time>
      </trkpt>
      <trkpt lat="39.317441" lon="-120.352736">
        <ele>2116.955859</ele>
        <time>2024-07-28T09:54:31.000Z</time>
      </trkpt>
      <trkpt lat="39.317375" lon="-120.35211">
        <ele>2118.084176</ele>
        <time>2024-07-28T09:54:36.000Z</time>
      </trkpt>
      <trkpt lat="39.317184" lon="-120.351408">
        <ele>2119.833971</ele>
        <time>2024-07-28T09:54:42.000Z</time>
      </trkpt>
      <trkpt lat="39.316608" lon="-120.349967">
        <ele>2123.601509</ele>
        <time>2024-07-28T09:54:56.000Z</time>
      </trkpt>
      <trkpt lat="39.316431" lon="-120.349534">
        <ele>2124.508443</ele>
        <time>2024-07-28T09:55:00.000Z</time>
      </trkpt>
      <trkpt lat="39.316017" lon="-120.348477">
        <ele>2126.62443</ele>
        <time>2024-07-28T09:55:10.000Z</time>
      </trkpt>
      <trkpt lat="39.314353" lon="-120.342808">
        <ele>2137.701163</ele>
        <time>2024-07-28T09:56:02.000Z</time>
      </trkpt>
      <trkpt lat="39.314123" lon="-120.341886">
        <ele>2139.671054</ele>
        <time>2024-07-28T09:56:10.000Z</time>
      </trkpt>
      <trkpt lat="39.313971" lon="-120.34103">
        <ele>2140.942773</ele>
        <time>2024-07-28T09:56:18.000Z</time>
      </trkpt>
      <trkpt lat="39.313937" lon="-120.340817">
        <ele>2141.071281</ele>
        <time>2024-07-28T09:56:20.000Z</time>
      </trkpt>
      <trkpt lat="39.3139" lon="-120.340629">
        <ele>2141.183144</ele>
        <time>2024-07-28T09:56:22.000Z</time>
      </trkpt>
      <trkpt lat="39.313889" lon="-120.340395">
        <ele>2141.308895</ele>
        <time>2024-07-28T09:56:24.000Z</time>
      </trkpt>
      <trkpt lat="39.313854" lon="-120.340228">
        <ele>2141.403752</ele>
        <time>2024-07-28T09:56:25.000Z</time>
      </trkpt>
      <trkpt lat="39.313854" lon="-120.340024">
        <ele>2141.519395</ele>
        <time>2024-07-28T09:56:27.000Z</time>
      </trkpt>
      <trkpt lat="39.313828" lon="-120.33983">
        <ele>2141.63432</ele>
        <time>2024-07-28T09:56:29.000Z</time>
      </trkpt>
      <trkpt lat="39.313827" lon="-120.339667">
        <ele>2141.725114</ele>
        <time>2024-07-28T09:56:30.000Z</time>
      </trkpt>
      <trkpt lat="39.313809" lon="-120.339606">
        <ele>2141.75858</ele>
        <time>2024-07-28T09:56:31.000Z</time>
      </trkpt>
      <trkpt lat="39.313805" lon="-120.339543">
        <ele>2141.799377</ele>
        <time>2024-07-28T09:56:32.000Z</time>
      </trkpt>
      <trkpt lat="39.313818" lon="-120.339436">
        <ele>2141.858887</ele>
        <time>2024-07-28T09:56:33.000Z</time>
      </trkpt>
      <trkpt lat="39.313804" lon="-120.338689">
        <ele>2141.866991</ele>
        <time>2024-07-28T09:56:39.000Z</time>
      </trkpt>
      <trkpt lat="39.313844" lon="-120.338228">
        <ele>2141.612056</ele>
        <time>2024-07-28T09:56:43.000Z</time>
      </trkpt>
      <trkpt lat="39.313987" lon="-120.337726">
        <ele>2141.322016</ele>
        <time>2024-07-28T09:56:48.000Z</time>
      </trkpt>
      <trkpt lat="39.314136" lon="-120.33738">
        <ele>2141.097516</ele>
        <time>2024-07-28T09:56:51.000Z</time>
      </trkpt>
      <trkpt lat="39.314439" lon="-120.33679">
        <ele>2140.807732</ele>
        <time>2024-07-28T09:56:57.000Z</time>
      </trkpt>
      <trkpt lat="39.314917" lon="-120.33574">
        <ele>2140.911403</ele>
        <time>2024-07-28T09:57:07.000Z</time>
      </trkpt>
      <trkpt lat="39.315229" lon="-120.335194">
        <ele>2140.968657</ele>
        <time>2024-07-28T09:57:13.000Z</time>
      </trkpt>
      <trkpt lat="39.315488" lon="-120.334818">
        <ele>2141.060909</ele>
        <time>2024-07-28T09:57:17.000Z</time>
      </trkpt>
      <trkpt lat="39.315787" lon="-120.334434">
        <ele>2141.228369</ele>
        <time>2024-07-28T09:57:22.000Z</time>
      </trkpt>
      <trkpt lat="39.316432" lon="-120.33372">
        <ele>2141.568261</ele>
        <time>2024-07-28T09:57:31.000Z</time>
      </trkpt>
      <trkpt lat="39.316731" lon="-120.333285">
        <ele>2141.908204</ele>
        <time>2024-07-28T09:57:36.000Z</time>
      </trkpt>
      <trkpt lat="39.316993" lon="-120.332734">
        <ele>2142.873281</ele>
        <time>2024-07-28T09:57:42.000Z</time>
      </trkpt>
      <trkpt lat="39.317155" lon="-120.332242">
        <ele>2143.680317</ele>
        <time>2024-07-28T09:57:47.000Z</time>
      </trkpt>
      <trkpt lat="39.317456" lon="-120.331018">
        <ele>2146.436122</ele>
        <time>2024-07-28T09:57:58.000Z</time>
      </trkpt>
      <trkpt lat="39.317511" lon="-120.330343">
        <ele>2149.497709</ele>
        <time>2024-07-28T09:58:04.000Z</time>
      </trkpt>
      <trkpt lat="39.317475" lon="-120.329717">
        <ele>2152.278207</ele>
        <time>2024-07-28T09:58:09.000Z</time>
      </trkpt>
      <trkpt lat="39.317445" lon="-120.329375">
        <ele>2153.877247</ele>
        <time>2024-07-28T09:58:12.000Z</time>
      </trkpt>
      <trkpt lat="39.3173" lon="-120.328786">
        <ele>2155.96261</ele>
        <time>2024-07-28T09:58:17.000Z</time>
      </trkpt>
      <trkpt lat="39.317119" lon="-120.328337">
        <ele>2156.740273</ele>
        <time>2024-07-28T09:58:21.000Z</time>
      </trkpt>
      <trkpt lat="39.316859" lon="-120.32776">
        <ele>2157.771531</ele>
        <time>2024-07-28T09:58:27.000Z</time>
      </trkpt>
      <trkpt lat="39.316725" lon="-120.327304">
        <ele>2158.520661</ele>
        <time>2024-07-28T09:58:31.000Z</time>
      </trkpt>
      <trkpt lat="39.31668" lon="-120.326854">
        <ele>2159.144016</ele>
        <time>2024-07-28T09:58:35.000Z</time>
      </trkpt>
      <trkpt lat="39.316681" lon="-120.326574">
        <ele>2156.515212</ele>
        <time>2024-07-28T09:58:37.000Z</time>
      </trkpt>
      <trkpt lat="39.316736" lon="-120.326244">
        <ele>2153.588607</ele>
        <time>2024-07-28T09:58:40.000Z</time>
      </trkpt>
      <trkpt lat="39.316774" lon="-120.326039">
        <ele>2151.7888</ele>
        <time>2024-07-28T09:58:42.000Z</time>
      </trkpt>
      <trkpt lat="39.316826" lon="-120.32587">
        <ele>2150.061556</ele>
        <time>2024-07-28T09:58:44.000Z</time>
      </trkpt>
      <trkpt lat="39.316838" lon="-120.325801">
        <ele>2149.430525</ele>
        <time>2024-07-28T09:58:45.000Z</time>
      </trkpt>
      <trkpt lat="39.317095" lon="-120.325189">
        <ele>2143.340694</ele>
        <time>2024-07-28T09:58:51.000Z</time>
      </trkpt>
      <trkpt lat="39.31736" lon="-120.324579">
        <ele>2137.158343</ele>
        <time>2024-07-28T09:58:57.000Z</time>
      </trkpt>
      <trkpt lat="39.317765" lon="-120.324071">
        <ele>2130.928243</ele>
        <time>2024-07-28T09:59:03.000Z</time>
      </trkpt>
      <trkpt lat="39.317911" lon="-120.323809">
        <ele>2128.123893</ele>
        <time>2024-07-28T09:59:06.000Z</time>
      </trkpt>
      <trkpt lat="39.318031" lon="-120.323511">
        <ele>2125.342934</ele>
        <time>2024-07-28T09:59:09.000Z</time>
      </trkpt>
      <trkpt lat="39.318208" lon="-120.322717">
        <ele>2118.479678</ele>
        <time>2024-07-28T09:59:16.000Z</time>
      </trkpt>
      <trkpt lat="39.318328" lon="-120.322493">
        <ele>2117.256842</ele>
        <time>2024-07-28T09:59:18.000Z</time>
      </trkpt>
      <trkpt lat="39.318581" lon="-120.322153">
        <ele>2115.138751</ele>
        <time>2024-07-28T09:59:22.000Z</time>
      </trkpt>
      <trkpt lat="39.318768" lon="-120.321996">
        <ele>2113.772563</ele>
        <time>2024-07-28T09:59:24.000Z</time>
      </trkpt>
      <trkpt lat="39.319073" lon="-120.321794">
        <ele>2111.736592</ele>
        <time>2024-07-28T09:59:28.000Z</time>
      </trkpt>
      <trkpt lat="39.319186" lon="-120.321658">
        <ele>2110.861818</ele>
        <time>2024-07-28T09:59:30.000Z</time>
      </trkpt>
      <trkpt lat="39.319303" lon="-120.321443">
        <ele>2109.667153</ele>
        <time>2024-07-28T09:59:32.000Z</time>
      </trkpt>
      <trkpt lat="39.31934" lon="-120.321351">
        <ele>2109.223679</ele>
        <time>2024-07-28T09:59:33.000Z</time>
      </trkpt>
      <trkpt lat="39.319432" lon="-120.321004">
        <ele>2107.525141</ele>
        <time>2024-07-28T09:59:36.000Z</time>
      </trkpt>
      <trkpt lat="39.319524" lon="-120.320759">
        <ele>2106.338046</ele>
        <time>2024-07-28T09:59:38.000Z</time>
      </trkpt>
      <trkpt lat="39.319584" lon="-120.32055">
        <ele>2105.255898</ele>
        <time>2024-07-28T09:59:40.000Z</time>
      </trkpt>
      <trkpt lat="39.319679" lon="-120.31996">
        <ele>2102.507039</ele>
        <time>2024-07-28T09:59:45.000Z</time>
      </trkpt>
      <trkpt lat="39.319759" lon="-120.319668">
        <ele>2101.124241</ele>
        <time>2024-07-28T09:59:48.000Z</time>
      </trkpt>
      <trkpt lat="39.319794" lon="-120.319493">
        <ele>2100.238733</ele>
        <time>2024-07-28T09:59:50.000Z</time>
      </trkpt>
      <trkpt lat="39.319793" lon="-120.319398">
        <ele>2099.792847</ele>
        <time>2024-07-28T09:59:51.000Z</time>
      </trkpt>
      <trkpt lat="39.319765" lon="-120.319272">
        <ele>2099.221786</ele>
        <time>2024-07-28T09:59:52.000Z</time>
      </trkpt>
      <trkpt lat="39.31965" lon="-120.319026">
        <ele>2097.907294</ele>
        <time>2024-07-28T09:59:54.000Z</time>
      </trkpt>
      <trkpt lat="39.319547" lon="-120.318909">
        <ele>2097.226572</ele>
        <time>2024-07-28T09:59:56.000Z</time>
      </trkpt>
      <trkpt lat="39.319328" lon="-120.318744">
        <ele>2096.2239</ele>
        <time>2024-07-28T09:59:59.000Z</time>
      </trkpt>
      <trkpt lat="39.319157" lon="-120.318736">
        <ele>2095.50616</ele>
        <time>2024-07-28T10:00:01.000Z</time>
      </trkpt>
      <trkpt lat="39.319084" lon="-120.31879">
        <ele>2095.165426</ele>
        <time>2024-07-28T10:00:02.000Z</time>
      </trkpt>
      <trkpt lat="39.318965" lon="-120.318919">
        <ele>2094.561605</ele>
        <time>2024-07-28T10:00:04.000Z</time>
      </trkpt>
      <trkpt lat="39.318932" lon="-120.31895">
        <ele>2094.361297</ele>
        <time>2024-07-28T10:00:04.000Z</time>
      </trkpt>
      <trkpt lat="39.318921" lon="-120.319002">
        <ele>2094.230211</ele>
        <time>2024-07-28T10:00:04.000Z</time>
      </trkpt>
      <trkpt lat="39.318876" lon="-120.319048">
        <ele>2094.011633</ele>
        <time>2024-07-28T10:00:05.000Z</time>
      </trkpt>
      <trkpt lat="39.318844" lon="-120.319151">
        <ele>2093.668308</ele>
        <time>2024-07-28T10:00:06.000Z</time>
      </trkpt>
      <trkpt lat="39.318448" lon="-120.320194">
        <ele>2089.794964</ele>
        <time>2024-07-28T10:00:16.000Z</time>
      </trkpt>
      <trkpt lat="39.318282" lon="-120.320488">
        <ele>2087.496422</ele>
        <time>2024-07-28T10:00:19.000Z</time>
      </trkpt>
      <trkpt lat="39.318094" lon="-120.320609">
        <ele>2085.719757</ele>
        <time>2024-07-28T10:00:21.000Z</time>
      </trkpt>
      <trkpt lat="39.317971" lon="-120.320632">
        <ele>2084.596807</ele>
        <time>2024-07-28T10:00:22.000Z</time>
      </trkpt>
      <trkpt lat="39.317811" lon="-120.320606">
        <ele>2083.34868</ele>
        <time>2024-07-28T10:00:24.000Z</time>
      </trkpt>
      <trkpt lat="39.317622" lon="-120.320465">
        <ele>2081.505689</ele>
        <time>2024-07-28T10:00:26.000Z</time>
      </trkpt>
      <trkpt lat="39.317496" lon="-120.320291">
        <ele>2079.965726</ele>
        <time>2024-07-28T10:00:28.000Z</time>
      </trkpt>
      <trkpt lat="39.317161" lon="-120.319623">
        <ele>2074.743342</ele>
        <time>2024-07-28T10:00:35.000Z</time>
      </trkpt>
      <trkpt lat="39.317135" lon="-120.319551">
        <ele>2074.143027</ele>
        <time>2024-07-28T10:00:36.000Z</time>
      </trkpt>
      <trkpt lat="39.317112" lon="-120.319411">
        <ele>2073.014047</ele>
        <time>2024-07-28T10:00:37.000Z</time>
      </trkpt>
      <trkpt lat="39.317086" lon="-120.31929">
        <ele>2072.117196</ele>
        <time>2024-07-28T10:00:38.000Z</time>
      </trkpt>
      <trkpt lat="39.317107" lon="-120.319151">
        <ele>2071.081708</ele>
        <time>2024-07-28T10:00:39.000Z</time>
      </trkpt>
      <trkpt lat="39.317102" lon="-120.318932">
        <ele>2069.501908</ele>
        <time>2024-07-28T10:00:41.000Z</time>
      </trkpt>
      <trkpt lat="39.31708" lon="-120.318299">
        <ele>2064.641365</ele>
        <time>2024-07-28T10:00:46.000Z</time>
      </trkpt>
      <trkpt lat="39.317132" lon="-120.318052">
        <ele>2062.783115</ele>
        <time>2024-07-28T10:00:48.000Z</time>
      </trkpt>
      <trkpt lat="39.317189" lon="-120.31793">
        <ele>2061.69728</ele>
        <time>2024-07-28T10:00:49.000Z</time>
      </trkpt>
      <trkpt lat="39.317414" lon="-120.317708">
        <ele>2058.946389</ele>
        <time>2024-07-28T10:00:52.000Z</time>
      </trkpt>
      <trkpt lat="39.317695" lon="-120.317614">
        <ele>2056.590883</ele>
        <time>2024-07-28T10:00:55.000Z</time>
      </trkpt>
      <trkpt lat="39.318493" lon="-120.317426">
        <ele>2051.676461</ele>
        <time>2024-07-28T10:01:04.000Z</time>
      </trkpt>
      <trkpt lat="39.318622" lon="-120.317433">
        <ele>2050.793924</ele>
        <time>2024-07-28T10:01:05.000Z</time>
      </trkpt>
      <trkpt lat="39.319232" lon="-120.317563">
        <ele>2047.009135</ele>
        <time>2024-07-28T10:01:12.000Z</time>
      </trkpt>
      <trkpt lat="39.319386" lon="-120.317537">
        <ele>2046.017834</ele>
        <time>2024-07-28T10:01:14.000Z</time>
      </trkpt>
      <trkpt lat="39.319524" lon="-120.317441">
        <ele>2044.901553</ele>
        <time>2024-07-28T10:01:16.000Z</time>
      </trkpt>
      <trkpt lat="39.319638" lon="-120.31731">
        <ele>2043.79661</ele>
        <time>2024-07-28T10:01:18.000Z</time>
      </trkpt>
      <trkpt lat="39.319692" lon="-120.317119">
        <ele>2042.686387</ele>
        <time>2024-07-28T10:01:20.000Z</time>
      </trkpt>
      <trkpt lat="39.319705" lon="-120.316772">
        <ele>2040.787761</ele>
        <time>2024-07-28T10:01:23.000Z</time>
      </trkpt>
      <trkpt lat="39.319679" lon="-120.316584">
        <ele>2039.662523</ele>
        <time>2024-07-28T10:01:25.000Z</time>
      </trkpt>
      <trkpt lat="39.319572" lon="-120.316407">
        <ele>2038.514248</ele>
        <time>2024-07-28T10:01:27.000Z</time>
      </trkpt>
      <trkpt lat="39.319458" lon="-120.316303">
        <ele>2037.510726</ele>
        <time>2024-07-28T10:01:29.000Z</time>
      </trkpt>
      <trkpt lat="39.31935" lon="-120.316233">
        <ele>2036.614163</ele>
        <time>2024-07-28T10:01:30.000Z</time>
      </trkpt>
      <trkpt lat="39.318897" lon="-120.316128">
        <ele>2033.252824</ele>
        <time>2024-07-28T10:01:35.000Z</time>
      </trkpt>
      <trkpt lat="39.318666" lon="-120.316049">
        <ele>2031.133399</ele>
        <time>2024-07-28T10:01:38.000Z</time>
      </trkpt>
      <trkpt lat="39.318524" lon="-120.315935">
        <ele>2029.633625</ele>
        <time>2024-07-28T10:01:40.000Z</time>
      </trkpt>
      <trkpt lat="39.318397" lon="-120.315723">
        <ele>2027.701847</ele>
        <time>2024-07-28T10:01:42.000Z</time>
      </trkpt>
      <trkpt lat="39.318143" lon="-120.315191">
        <ele>2023.363488</ele>
        <time>2024-07-28T10:01:47.000Z</time>
      </trkpt>
      <trkpt lat="39.318103" lon="-120.314981">
        <ele>2021.823537</ele>
        <time>2024-07-28T10:01:49.000Z</time>
      </trkpt>
      <trkpt lat="39.318095" lon="-120.314805">
        <ele>2020.557466</ele>
        <time>2024-07-28T10:01:51.000Z</time>
      </trkpt>
      <trkpt lat="39.318121" lon="-120.314637">
        <ele>2019.362473</ele>
        <time>2024-07-28T10:01:52.000Z</time>
      </trkpt>
      <trkpt lat="39.31818" lon="-120.314443">
        <ele>2017.978633</ele>
        <time>2024-07-28T10:01:54.000Z</time>
      </trkpt>
      <trkpt lat="39.318498" lon="-120.313998">
        <ele>2015.332047</ele>
        <time>2024-07-28T10:01:59.000Z</time>
      </trkpt>
      <trkpt lat="39.318615" lon="-120.313585">
        <ele>2013.579426</ele>
        <time>2024-07-28T10:02:03.000Z</time>
      </trkpt>
      <trkpt lat="39.318872" lon="-120.313069">
        <ele>2011.07489</ele>
        <time>2024-07-28T10:02:08.000Z</time>
      </trkpt>
      <trkpt lat="39.319076" lon="-120.312816">
        <ele>2009.710844</ele>
        <time>2024-07-28T10:02:11.000Z</time>
      </trkpt>
      <trkpt lat="39.319186" lon="-120.312768">
        <ele>2009.036753</ele>
        <time>2024-07-28T10:02:12.000Z</time>
      </trkpt>
      <trkpt lat="39.319345" lon="-120.312745">
        <ele>2008.271957</ele>
        <time>2024-07-28T10:02:14.000Z</time>
      </trkpt>
      <trkpt lat="39.319605" lon="-120.312837">
        <ele>2006.269987</ele>
        <time>2024-07-28T10:02:17.000Z</time>
      </trkpt>
      <trkpt lat="39.319757" lon="-120.312993">
        <ele>2004.635429</ele>
        <time>2024-07-28T10:02:19.000Z</time>
      </trkpt>
      <trkpt lat="39.320081" lon="-120.313521">
        <ele>2000.61355</ele>
        <time>2024-07-28T10:02:25.000Z</time>
      </trkpt>
      <trkpt lat="39.321037" lon="-120.314456">
        <ele>1988.839342</ele>
        <time>2024-07-28T10:02:38.000Z</time>
      </trkpt>
      <trkpt lat="39.321213" lon="-120.314547">
        <ele>1986.173046</ele>
        <time>2024-07-28T10:02:40.000Z</time>
      </trkpt>
      <trkpt lat="39.321384" lon="-120.314567">
        <ele>1983.835003</ele>
        <time>2024-07-28T10:02:42.000Z</time>
      </trkpt>
      <trkpt lat="39.321548" lon="-120.314527">
        <ele>1981.533379</ele>
        <time>2024-07-28T10:02:44.000Z</time>
      </trkpt>
      <trkpt lat="39.321847" lon="-120.314388">
        <ele>1977.183782</ele>
        <time>2024-07-28T10:02:48.000Z</time>
      </trkpt>
      <trkpt lat="39.322255" lon="-120.314332">
        <ele>1971.387308</ele>
        <time>2024-07-28T10:02:53.000Z</time>
      </trkpt>
      <trkpt lat="39.322449" lon="-120.314294">
        <ele>1968.738755</ele>
        <time>2024-07-28T10:02:55.000Z</time>
      </trkpt>
      <trkpt lat="39.322616" lon="-120.314156">
        <ele>1966.792185</ele>
        <time>2024-07-28T10:02:57.000Z</time>
      </trkpt>
      <trkpt lat="39.322687" lon="-120.314008">
        <ele>1965.409335</ele>
        <time>2024-07-28T10:02:59.000Z</time>
      </trkpt>
      <trkpt lat="39.322845" lon="-120.313504">
        <ele>1961.372107</ele>
        <time>2024-07-28T10:03:04.000Z</time>
      </trkpt>
      <trkpt lat="39.322928" lon="-120.31333">
        <ele>1959.877903</ele>
        <time>2024-07-28T10:03:06.000Z</time>
      </trkpt>
      <trkpt lat="39.323093" lon="-120.313102">
        <ele>1957.457708</ele>
        <time>2024-07-28T10:03:09.000Z</time>
      </trkpt>
      <trkpt lat="39.323242" lon="-120.312968">
        <ele>1955.832565</ele>
        <time>2024-07-28T10:03:11.000Z</time>
      </trkpt>
      <trkpt lat="39.32345" lon="-120.312864">
        <ele>1953.602906</ele>
        <time>2024-07-28T10:03:13.000Z</time>
      </trkpt>
      <trkpt lat="39.323682" lon="-120.3128">
        <ele>1951.362367</ele>
        <time>2024-07-28T10:03:16.000Z</time>
      </trkpt>
      <trkpt lat="39.323942" lon="-120.312795">
        <ele>1950.021073</ele>
        <time>2024-07-28T10:03:19.000Z</time>
      </trkpt>
      <trkpt lat="39.324312" lon="-120.312836">
        <ele>1948.083508</ele>
        <time>2024-07-28T10:03:23.000Z</time>
      </trkpt>
      <trkpt lat="39.324699" lon="-120.312788">
        <ele>1946.08369</ele>
        <time>2024-07-28T10:03:27.000Z</time>
      </trkpt>
      <trkpt lat="39.32499" lon="-120.312694">
        <ele>1944.465299</ele>
        <time>2024-07-28T10:03:30.000Z</time>
      </trkpt>
      <trkpt lat="39.325177" lon="-120.312594">
        <ele>1943.44295</ele>
        <time>2024-07-28T10:03:32.000Z</time>
      </trkpt>
      <trkpt lat="39.32541" lon="-120.312389">
        <ele>1941.932849</ele>
        <time>2024-07-28T10:03:35.000Z</time>
      </trkpt>
      <trkpt lat="39.325508" lon="-120.31226">
        <ele>1940.729112</ele>
        <time>2024-07-28T10:03:37.000Z</time>
      </trkpt>
      <trkpt lat="39.325566" lon="-120.312107">
        <ele>1939.57696</ele>
        <time>2024-07-28T10:03:38.000Z</time>
      </trkpt>
      <trkpt lat="39.325627" lon="-120.311829">
        <ele>1937.753353</ele>
        <time>2024-07-28T10:03:40.000Z</time>
      </trkpt>
      <trkpt lat="39.325595" lon="-120.311493">
        <ele>1935.544762</ele>
        <time>2024-07-28T10:03:43.000Z</time>
      </trkpt>
      <trkpt lat="39.325455" lon="-120.310665">
        <ele>1929.879876</ele>
        <time>2024-07-28T10:03:50.000Z</time>
      </trkpt>
      <trkpt lat="39.325437" lon="-120.310432">
        <ele>1928.458844</ele>
        <time>2024-07-28T10:03:52.000Z</time>
      </trkpt>
      <trkpt lat="39.325489" lon="-120.310084">
        <ele>1926.158434</ele>
        <time>2024-07-28T10:03:55.000Z</time>
      </trkpt>
      <trkpt lat="39.325536" lon="-120.309548">
        <ele>1922.992569</ele>
        <time>2024-07-28T10:04:00.000Z</time>
      </trkpt>
      <trkpt lat="39.325508" lon="-120.308928">
        <ele>1919.421673</ele>
        <time>2024-07-28T10:04:05.000Z</time>
      </trkpt>
      <trkpt lat="39.325564" lon="-120.308727">
        <ele>1918.180329</ele>
        <time>2024-07-28T10:04:07.000Z</time>
      </trkpt>
      <trkpt lat="39.325652" lon="-120.308554">
        <ele>1916.917918</ele>
        <time>2024-07-28T10:04:09.000Z</time>
      </trkpt>
      <trkpt lat="39.325789" lon="-120.308439">
        <ele>1915.730423</ele>
        <time>2024-07-28T10:04:11.000Z</time>
      </trkpt>
      <trkpt lat="39.325932" lon="-120.308382">
        <ele>1914.536074</ele>
        <time>2024-07-28T10:04:13.000Z</time>
      </trkpt>
      <trkpt lat="39.326535" lon="-120.308371">
        <ele>1910.437223</ele>
        <time>2024-07-28T10:04:20.000Z</time>
      </trkpt>
      <trkpt lat="39.326802" lon="-120.308327">
        <ele>1908.62391</ele>
        <time>2024-07-28T10:04:23.000Z</time>
      </trkpt>
      <trkpt lat="39.327008" lon="-120.308217">
        <ele>1907.274646</ele>
        <time>2024-07-28T10:04:25.000Z</time>
      </trkpt>
      <trkpt lat="39.327122" lon="-120.308056">
        <ele>1906.057691</ele>
        <time>2024-07-28T10:04:27.000Z</time>
      </trkpt>
      <trkpt lat="39.327173" lon="-120.307878">
        <ele>1905.119141</ele>
        <time>2024-07-28T10:04:29.000Z</time>
      </trkpt>
      <trkpt lat="39.3272" lon="-120.307565">
        <ele>1903.548524</ele>
        <time>2024-07-28T10:04:32.000Z</time>
      </trkpt>
      <trkpt lat="39.327014" lon="-120.305986">
        <ele>1894.269309</ele>
        <time>2024-07-28T10:04:46.000Z</time>
      </trkpt>
      <trkpt lat="39.326729" lon="-120.304624">
        <ele>1886.011648</ele>
        <time>2024-07-28T10:04:58.000Z</time>
      </trkpt>
      <trkpt lat="39.32667" lon="-120.304415">
        <ele>1884.892718</ele>
        <time>2024-07-28T10:05:00.000Z</time>
      </trkpt>
      <trkpt lat="39.326558" lon="-120.304132">
        <ele>1883.417363</ele>
        <time>2024-07-28T10:05:03.000Z</time>
      </trkpt>
      <trkpt lat="39.326412" lon="-120.303906">
        <ele>1881.963529</ele>
        <time>2024-07-28T10:05:06.000Z</time>
      </trkpt>
      <trkpt lat="39.325935" lon="-120.303367">
        <ele>1877.895419</ele>
        <time>2024-07-28T10:05:13.000Z</time>
      </trkpt>
      <trkpt lat="39.325664" lon="-120.30301">
        <ele>1875.651644</ele>
        <time>2024-07-28T10:05:17.000Z</time>
      </trkpt>
      <trkpt lat="39.324607" lon="-120.300589">
        <ele>1865.297743</ele>
        <time>2024-07-28T10:05:41.000Z</time>
      </trkpt>
      <trkpt lat="39.324336" lon="-120.300152">
        <ele>1863.096386</ele>
        <time>2024-07-28T10:05:46.000Z</time>
      </trkpt>
      <trkpt lat="39.324106" lon="-120.299867">
        <ele>1861.448242</ele>
        <time>2024-07-28T10:05:50.000Z</time>
      </trkpt>
      <trkpt lat="39.32388" lon="-120.299612">
        <ele>1859.910779</ele>
        <time>2024-07-28T10:05:53.000Z</time>
      </trkpt>
      <trkpt lat="39.323648" lon="-120.299353">
        <ele>1858.409264</ele>
        <time>2024-07-28T10:05:56.000Z</time>
      </trkpt>
      <trkpt lat="39.323445" lon="-120.299058">
        <ele>1856.118365</ele>
        <time>2024-07-28T10:05:59.000Z</time>
      </trkpt>
      <trkpt lat="39.322835" lon="-120.297775">
        <ele>1847.444571</ele>
        <time>2024-07-28T10:06:12.000Z</time>
      </trkpt>
      <trkpt lat="39.322368" lon="-120.296966">
        <ele>1841.695869</ele>
        <time>2024-07-28T10:06:21.000Z</time>
      </trkpt>
      <trkpt lat="39.322193" lon="-120.296615">
        <ele>1839.419079</ele>
        <time>2024-07-28T10:06:25.000Z</time>
      </trkpt>
      <trkpt lat="39.321696" lon="-120.295177">
        <ele>1830.614407</ele>
        <time>2024-07-28T10:06:39.000Z</time>
      </trkpt>
      <trkpt lat="39.32165" lon="-120.29491">
        <ele>1829.260006</ele>
        <time>2024-07-28T10:06:41.000Z</time>
      </trkpt>
      <trkpt lat="39.321629" lon="-120.294713">
        <ele>1828.196711</ele>
        <time>2024-07-28T10:06:43.000Z</time>
      </trkpt>
      <trkpt lat="39.321661" lon="-120.294393">
        <ele>1826.594067</ele>
        <time>2024-07-28T10:06:46.000Z</time>
      </trkpt>
      <trkpt lat="39.321792" lon="-120.294039">
        <ele>1824.659119</ele>
        <time>2024-07-28T10:06:49.000Z</time>
      </trkpt>
      <trkpt lat="39.322257" lon="-120.293276">
        <ele>1819.96192059</ele>
        <time>2024-07-28T10:06:57.000Z</time>
      </trkpt>
      <trkpt lat="39.322487" lon="-120.292865">
        <ele>1817.50887748</ele>
        <time>2024-07-28T10:07:01.000Z</time>
      </trkpt>
      <trkpt lat="39.322663" lon="-120.292451">
        <ele>1815.22446098</ele>
        <time>2024-07-28T10:07:05.000Z</time>
      </trkpt>
      <trkpt lat="39.323042" lon="-120.291034">
        <ele>1807.97412255</ele>
        <time>2024-07-28T10:07:18.000Z</time>
      </trkpt>
    </trkseg>
  </trk>
</gpx>

<!--
Performance optimized by W3 Total Cache. Learn more: https://www.boldgrid.com/w3-total-cache/?utm_source=w3tc&utm_medium=footer_comment&utm_campaign=free_plugin

Page Caching using Disk: Enhanced{w3tc_pagecache_reject_reason} 

Served from: www.aquabike.world @ 2026-05-07 17:49:16 by W3 Total Cache
-->